<?xml version="1.0" encoding="UTF-8" standalone="no" ?>
<gpx xmlns="http://www.topografix.com/GPX/1/1" xmlns:xsi="http://www.w3.org/2001/XMLSchema-instance" xsi:schemaLocation="http://www.topografix.com/GPX/1/1 http://www.topografix.com/GPX/1/1/gpx.xsd" version="1.1" creator="VisuGPX - https://www.visugpx.com">
  <metadata>
    <name>Donon</name>
    <desc><![CDATA[Saverne  
Donon 
Saverne]]></desc>
  </metadata>
  <trk>
    <name><![CDATA[GPS-ADi2012/07/29_07:06]]></name>
    <trkseg>
      <trkpt lat="48.73414" lon="7.35744">
        <ele>182.619202</ele>
        <time>2012-07-29T05:06:52Z</time>
      </trkpt>
      <trkpt lat="48.73394" lon="7.35749">
        <ele>193.763733</ele>
        <time>2012-07-29T05:09:41Z</time>
      </trkpt>
      <trkpt lat="48.7339" lon="7.35721">
        <ele>208.525452</ele>
        <time>2012-07-29T05:12:46Z</time>
      </trkpt>
      <trkpt lat="48.73367" lon="7.35705">
        <ele>211.978577</ele>
        <time>2012-07-29T05:12:52Z</time>
      </trkpt>
      <trkpt lat="48.73343" lon="7.35703">
        <ele>214.330139</ele>
        <time>2012-07-29T05:12:57Z</time>
      </trkpt>
      <trkpt lat="48.73293" lon="7.35712">
        <ele>217.294983</ele>
        <time>2012-07-29T05:13:05Z</time>
      </trkpt>
      <trkpt lat="48.7327" lon="7.35708">
        <ele>217.044983</ele>
        <time>2012-07-29T05:13:13Z</time>
      </trkpt>
      <trkpt lat="48.73248" lon="7.35688">
        <ele>219.904358</ele>
        <time>2012-07-29T05:13:22Z</time>
      </trkpt>
      <trkpt lat="48.73207" lon="7.35599">
        <ele>236.189514</ele>
        <time>2012-07-29T05:13:48Z</time>
      </trkpt>
      <trkpt lat="48.73174" lon="7.35505">
        <ele>238.459045</ele>
        <time>2012-07-29T05:14:21Z</time>
      </trkpt>
      <trkpt lat="48.7315" lon="7.35505">
        <ele>240.34967</ele>
        <time>2012-07-29T05:14:28Z</time>
      </trkpt>
      <trkpt lat="48.7313" lon="7.3548">
        <ele>240.314514</ele>
        <time>2012-07-29T05:14:34Z</time>
      </trkpt>
      <trkpt lat="48.73101" lon="7.3542">
        <ele>237.619202</ele>
        <time>2012-07-29T05:14:50Z</time>
      </trkpt>
      <trkpt lat="48.73114" lon="7.35352">
        <ele>245.310608</ele>
        <time>2012-07-29T05:15:09Z</time>
      </trkpt>
      <trkpt lat="48.73178" lon="7.3512">
        <ele>267.496216</ele>
        <time>2012-07-29T05:16:19Z</time>
      </trkpt>
      <trkpt lat="48.73098" lon="7.35047">
        <ele>281.980591</ele>
        <time>2012-07-29T05:16:55Z</time>
      </trkpt>
      <trkpt lat="48.73062" lon="7.34996">
        <ele>281.433716</ele>
        <time>2012-07-29T05:17:11Z</time>
      </trkpt>
      <trkpt lat="48.72998" lon="7.34948">
        <ele>264.597778</ele>
        <time>2012-07-29T05:17:36Z</time>
      </trkpt>
      <trkpt lat="48.72963" lon="7.34905">
        <ele>253.939514</ele>
        <time>2012-07-29T05:17:52Z</time>
      </trkpt>
      <trkpt lat="48.72938" lon="7.34898">
        <ele>257.214966</ele>
        <time>2012-07-29T05:18:01Z</time>
      </trkpt>
      <trkpt lat="48.72884" lon="7.34831">
        <ele>261.558716</ele>
        <time>2012-07-29T05:18:22Z</time>
      </trkpt>
      <trkpt lat="48.72834" lon="7.34753">
        <ele>250.990295</ele>
        <time>2012-07-29T05:18:46Z</time>
      </trkpt>
      <trkpt lat="48.72811" lon="7.34738">
        <ele>254.252014</ele>
        <time>2012-07-29T05:18:53Z</time>
      </trkpt>
      <trkpt lat="48.72757" lon="7.34678">
        <ele>278.652466</ele>
        <time>2012-07-29T05:19:16Z</time>
      </trkpt>
      <trkpt lat="48.72647" lon="7.34611">
        <ele>311.621216</ele>
        <time>2012-07-29T05:19:51Z</time>
      </trkpt>
      <trkpt lat="48.7261" lon="7.3457">
        <ele>316.644653</ele>
        <time>2012-07-29T05:20:03Z</time>
      </trkpt>
      <trkpt lat="48.72564" lon="7.34545">
        <ele>317.675903</ele>
        <time>2012-07-29T05:20:16Z</time>
      </trkpt>
      <trkpt lat="48.72421" lon="7.34367">
        <ele>275.886841</ele>
        <time>2012-07-29T05:21:11Z</time>
      </trkpt>
      <trkpt lat="48.72365" lon="7.34366">
        <ele>291.699341</ele>
        <time>2012-07-29T05:21:20Z</time>
      </trkpt>
      <trkpt lat="48.72246" lon="7.3433">
        <ele>345.761841</ele>
        <time>2012-07-29T05:21:44Z</time>
      </trkpt>
      <trkpt lat="48.72204" lon="7.34289">
        <ele>348.894653</ele>
        <time>2012-07-29T05:21:56Z</time>
      </trkpt>
      <trkpt lat="48.72161" lon="7.34257">
        <ele>356.574341</ele>
        <time>2012-07-29T05:22:07Z</time>
      </trkpt>
      <trkpt lat="48.72088" lon="7.34178">
        <ele>328.918091</ele>
        <time>2012-07-29T05:22:29Z</time>
      </trkpt>
      <trkpt lat="48.72024" lon="7.34126">
        <ele>336.183716</ele>
        <time>2012-07-29T05:22:47Z</time>
      </trkpt>
      <trkpt lat="48.71995" lon="7.34076">
        <ele>311.144653</ele>
        <time>2012-07-29T05:22:57Z</time>
      </trkpt>
      <trkpt lat="48.71893" lon="7.33969">
        <ele>286.800903</ele>
        <time>2012-07-29T05:23:28Z</time>
      </trkpt>
      <trkpt lat="48.71801" lon="7.33898">
        <ele>287.394653</ele>
        <time>2012-07-29T05:23:53Z</time>
      </trkpt>
      <trkpt lat="48.71724" lon="7.3379">
        <ele>269.066528</ele>
        <time>2012-07-29T05:24:15Z</time>
      </trkpt>
      <trkpt lat="48.71678" lon="7.33756">
        <ele>265.597778</ele>
        <time>2012-07-29T05:24:27Z</time>
      </trkpt>
      <trkpt lat="48.71655" lon="7.33751">
        <ele>265.683716</ele>
        <time>2012-07-29T05:24:42Z</time>
      </trkpt>
      <trkpt lat="48.71632" lon="7.33763">
        <ele>270.183716</ele>
        <time>2012-07-29T05:24:50Z</time>
      </trkpt>
      <trkpt lat="48.71608" lon="7.33765">
        <ele>272.535278</ele>
        <time>2012-07-29T05:25:01Z</time>
      </trkpt>
      <trkpt lat="48.71513" lon="7.33723">
        <ele>266.113403</ele>
        <time>2012-07-29T05:25:35Z</time>
      </trkpt>
      <trkpt lat="48.71441" lon="7.33713">
        <ele>265.168091</ele>
        <time>2012-07-29T05:25:59Z</time>
      </trkpt>
      <trkpt lat="48.71378" lon="7.33664">
        <ele>269.613403</ele>
        <time>2012-07-29T05:26:27Z</time>
      </trkpt>
      <trkpt lat="48.7131" lon="7.33645">
        <ele>273.566528</ele>
        <time>2012-07-29T05:26:51Z</time>
      </trkpt>
      <trkpt lat="48.71259" lon="7.33658">
        <ele>279.504028</ele>
        <time>2012-07-29T05:27:03Z</time>
      </trkpt>
      <trkpt lat="48.71185" lon="7.33696">
        <ele>279.472778</ele>
        <time>2012-07-29T05:27:13Z</time>
      </trkpt>
      <trkpt lat="48.71088" lon="7.33699">
        <ele>277.675903</ele>
        <time>2012-07-29T05:27:25Z</time>
      </trkpt>
      <trkpt lat="48.71059" lon="7.33694">
        <ele>276.714966</ele>
        <time>2012-07-29T05:27:29Z</time>
      </trkpt>
      <trkpt lat="48.7104" lon="7.33672">
        <ele>277.566528</ele>
        <time>2012-07-29T05:27:34Z</time>
      </trkpt>
      <trkpt lat="48.7101" lon="7.33618">
        <ele>283.035278</ele>
        <time>2012-07-29T05:28:02Z</time>
      </trkpt>
      <trkpt lat="48.70874" lon="7.33563">
        <ele>274.527466</ele>
        <time>2012-07-29T05:28:56Z</time>
      </trkpt>
      <trkpt lat="48.70808" lon="7.3352">
        <ele>271.527466</ele>
        <time>2012-07-29T05:29:18Z</time>
      </trkpt>
      <trkpt lat="48.70762" lon="7.33477">
        <ele>269.597778</ele>
        <time>2012-07-29T05:29:34Z</time>
      </trkpt>
      <trkpt lat="48.70726" lon="7.33388">
        <ele>271.754028</ele>
        <time>2012-07-29T05:30:13Z</time>
      </trkpt>
      <trkpt lat="48.70686" lon="7.33366">
        <ele>291.769653</ele>
        <time>2012-07-29T05:32:08Z</time>
      </trkpt>
      <trkpt lat="48.70567" lon="7.3325">
        <ele>315.191528</ele>
        <time>2012-07-29T05:32:56Z</time>
      </trkpt>
      <trkpt lat="48.70497" lon="7.33212">
        <ele>323.652466</ele>
        <time>2012-07-29T05:33:52Z</time>
      </trkpt>
      <trkpt lat="48.70459" lon="7.33171">
        <ele>330.980591</ele>
        <time>2012-07-29T05:34:20Z</time>
      </trkpt>
      <trkpt lat="48.70436" lon="7.3316">
        <ele>333.800903</ele>
        <time>2012-07-29T05:34:31Z</time>
      </trkpt>
      <trkpt lat="48.70416" lon="7.33159">
        <ele>346.027466</ele>
        <time>2012-07-29T05:35:24Z</time>
      </trkpt>
      <trkpt lat="48.70375" lon="7.33131">
        <ele>349.683716</ele>
        <time>2012-07-29T05:35:52Z</time>
      </trkpt>
      <trkpt lat="48.70304" lon="7.3311">
        <ele>359.089966</ele>
        <time>2012-07-29T05:36:42Z</time>
      </trkpt>
      <trkpt lat="48.70257" lon="7.33114">
        <ele>361.121216</ele>
        <time>2012-07-29T05:37:12Z</time>
      </trkpt>
      <trkpt lat="48.70233" lon="7.33108">
        <ele>361.543091</ele>
        <time>2012-07-29T05:37:26Z</time>
      </trkpt>
      <trkpt lat="48.70161" lon="7.33115">
        <ele>364.699341</ele>
        <time>2012-07-29T05:38:01Z</time>
      </trkpt>
      <trkpt lat="48.69998" lon="7.33085">
        <ele>368.394653</ele>
        <time>2012-07-29T05:39:28Z</time>
      </trkpt>
      <trkpt lat="48.69976" lon="7.33093">
        <ele>368.847778</ele>
        <time>2012-07-29T05:39:58Z</time>
      </trkpt>
      <trkpt lat="48.69956" lon="7.33078">
        <ele>370.839966</ele>
        <time>2012-07-29T05:40:20Z</time>
      </trkpt>
      <trkpt lat="48.69911" lon="7.33063">
        <ele>373.793091</ele>
        <time>2012-07-29T05:40:41Z</time>
      </trkpt>
      <trkpt lat="48.69823" lon="7.33007">
        <ele>378.652466</ele>
        <time>2012-07-29T05:41:14Z</time>
      </trkpt>
      <trkpt lat="48.6977" lon="7.32942">
        <ele>378.199341</ele>
        <time>2012-07-29T05:41:49Z</time>
      </trkpt>
      <trkpt lat="48.69745" lon="7.32842">
        <ele>380.074341</ele>
        <time>2012-07-29T05:42:44Z</time>
      </trkpt>
      <trkpt lat="48.69693" lon="7.32777">
        <ele>394.980591</ele>
        <time>2012-07-29T05:44:52Z</time>
      </trkpt>
      <trkpt lat="48.6968" lon="7.32749">
        <ele>402.644653</ele>
        <time>2012-07-29T05:45:00Z</time>
      </trkpt>
      <trkpt lat="48.69655" lon="7.3265">
        <ele>403.933716</ele>
        <time>2012-07-29T05:45:18Z</time>
      </trkpt>
      <trkpt lat="48.69606" lon="7.32649">
        <ele>401.449341</ele>
        <time>2012-07-29T05:45:34Z</time>
      </trkpt>
      <trkpt lat="48.69582" lon="7.32655">
        <ele>402.293091</ele>
        <time>2012-07-29T05:45:46Z</time>
      </trkpt>
      <trkpt lat="48.6956" lon="7.32642">
        <ele>401.058716</ele>
        <time>2012-07-29T05:45:59Z</time>
      </trkpt>
      <trkpt lat="48.69534" lon="7.32636">
        <ele>401.543091</ele>
        <time>2012-07-29T05:46:10Z</time>
      </trkpt>
      <trkpt lat="48.69492" lon="7.32607">
        <ele>404.683716</ele>
        <time>2012-07-29T05:46:42Z</time>
      </trkpt>
      <trkpt lat="48.694" lon="7.32619">
        <ele>408.683716</ele>
        <time>2012-07-29T05:47:36Z</time>
      </trkpt>
      <trkpt lat="48.69332" lon="7.32601">
        <ele>413.488403</ele>
        <time>2012-07-29T05:48:16Z</time>
      </trkpt>
      <trkpt lat="48.69268" lon="7.32565">
        <ele>421.433716</ele>
        <time>2012-07-29T05:48:59Z</time>
      </trkpt>
      <trkpt lat="48.69217" lon="7.32492">
        <ele>424.269653</ele>
        <time>2012-07-29T05:49:41Z</time>
      </trkpt>
      <trkpt lat="48.6916" lon="7.32383">
        <ele>436.285278</ele>
        <time>2012-07-29T05:50:37Z</time>
      </trkpt>
      <trkpt lat="48.69079" lon="7.32315">
        <ele>441.324341</ele>
        <time>2012-07-29T05:51:31Z</time>
      </trkpt>
      <trkpt lat="48.69062" lon="7.32288">
        <ele>442.347778</ele>
        <time>2012-07-29T05:51:45Z</time>
      </trkpt>
      <trkpt lat="48.68948" lon="7.32167">
        <ele>439.332153</ele>
        <time>2012-07-29T05:53:07Z</time>
      </trkpt>
      <trkpt lat="48.68934" lon="7.32139">
        <ele>440.363403</ele>
        <time>2012-07-29T05:53:19Z</time>
      </trkpt>
      <trkpt lat="48.68876" lon="7.32079">
        <ele>448.972778</ele>
        <time>2012-07-29T05:53:57Z</time>
      </trkpt>
      <trkpt lat="48.68807" lon="7.31978">
        <ele>448.988403</ele>
        <time>2012-07-29T05:54:52Z</time>
      </trkpt>
      <trkpt lat="48.68718" lon="7.31816">
        <ele>455.988403</ele>
        <time>2012-07-29T05:56:10Z</time>
      </trkpt>
      <trkpt lat="48.6864" lon="7.31638">
        <ele>477.871216</ele>
        <time>2012-07-29T05:57:34Z</time>
      </trkpt>
      <trkpt lat="48.68634" lon="7.31604">
        <ele>481.668091</ele>
        <time>2012-07-29T05:57:47Z</time>
      </trkpt>
      <trkpt lat="48.6862" lon="7.31577">
        <ele>478.785278</ele>
        <time>2012-07-29T05:59:51Z</time>
      </trkpt>
      <trkpt lat="48.6858" lon="7.31544">
        <ele>469.933716</ele>
        <time>2012-07-29T06:02:14Z</time>
      </trkpt>
      <trkpt lat="48.6849" lon="7.31513">
        <ele>477.214966</ele>
        <time>2012-07-29T06:02:59Z</time>
      </trkpt>
      <trkpt lat="48.68446" lon="7.31488">
        <ele>479.597778</ele>
        <time>2012-07-29T06:03:23Z</time>
      </trkpt>
      <trkpt lat="48.68385" lon="7.31428">
        <ele>480.714966</ele>
        <time>2012-07-29T06:03:57Z</time>
      </trkpt>
      <trkpt lat="48.68341" lon="7.31401">
        <ele>481.660278</ele>
        <time>2012-07-29T06:04:12Z</time>
      </trkpt>
      <trkpt lat="48.6827" lon="7.313">
        <ele>487.347778</ele>
        <time>2012-07-29T06:04:45Z</time>
      </trkpt>
      <trkpt lat="48.68249" lon="7.31281">
        <ele>487.746216</ele>
        <time>2012-07-29T06:04:50Z</time>
      </trkpt>
      <trkpt lat="48.68191" lon="7.31171">
        <ele>493.035278</ele>
        <time>2012-07-29T06:05:20Z</time>
      </trkpt>
      <trkpt lat="48.6817" lon="7.31159">
        <ele>490.472778</ele>
        <time>2012-07-29T06:06:00Z</time>
      </trkpt>
      <trkpt lat="48.68127" lon="7.31186">
        <ele>491.293091</ele>
        <time>2012-07-29T06:06:27Z</time>
      </trkpt>
      <trkpt lat="48.6805" lon="7.31276">
        <ele>500.535278</ele>
        <time>2012-07-29T06:07:06Z</time>
      </trkpt>
      <trkpt lat="48.68027" lon="7.31283">
        <ele>499.457153</ele>
        <time>2012-07-29T06:07:15Z</time>
      </trkpt>
      <trkpt lat="48.68004" lon="7.31282">
        <ele>500.457153</ele>
        <time>2012-07-29T06:07:23Z</time>
      </trkpt>
      <trkpt lat="48.67909" lon="7.31242">
        <ele>504.558716</ele>
        <time>2012-07-29T06:07:57Z</time>
      </trkpt>
      <trkpt lat="48.67861" lon="7.31247">
        <ele>509.316528</ele>
        <time>2012-07-29T06:08:13Z</time>
      </trkpt>
      <trkpt lat="48.67813" lon="7.31264">
        <ele>512.461182</ele>
        <time>2012-07-29T06:08:28Z</time>
      </trkpt>
      <trkpt lat="48.6774" lon="7.31257">
        <ele>517.679932</ele>
        <time>2012-07-29T06:08:44Z</time>
      </trkpt>
      <trkpt lat="48.67717" lon="7.31262">
        <ele>521.070557</ele>
        <time>2012-07-29T06:08:51Z</time>
      </trkpt>
      <trkpt lat="48.67627" lon="7.31306">
        <ele>520.367432</ele>
        <time>2012-07-29T06:09:36Z</time>
      </trkpt>
      <trkpt lat="48.67604" lon="7.31302">
        <ele>519.664307</ele>
        <time>2012-07-29T06:09:43Z</time>
      </trkpt>
      <trkpt lat="48.67582" lon="7.31289">
        <ele>516.508057</ele>
        <time>2012-07-29T06:09:56Z</time>
      </trkpt>
      <trkpt lat="48.67546" lon="7.31245">
        <ele>509.644653</ele>
        <time>2012-07-29T06:10:16Z</time>
      </trkpt>
      <trkpt lat="48.67503" lon="7.3116">
        <ele>519.195557</ele>
        <time>2012-07-29T06:10:37Z</time>
      </trkpt>
      <trkpt lat="48.67495" lon="7.31054">
        <ele>529.851807</ele>
        <time>2012-07-29T06:11:01Z</time>
      </trkpt>
      <trkpt lat="48.6746" lon="7.30918">
        <ele>547.883057</ele>
        <time>2012-07-29T06:11:31Z</time>
      </trkpt>
      <trkpt lat="48.67375" lon="7.30704">
        <ele>555.461182</ele>
        <time>2012-07-29T06:12:23Z</time>
      </trkpt>
      <trkpt lat="48.67356" lon="7.30635">
        <ele>553.273682</ele>
        <time>2012-07-29T06:12:38Z</time>
      </trkpt>
      <trkpt lat="48.67395" lon="7.30498">
        <ele>556.586182</ele>
        <time>2012-07-29T06:13:06Z</time>
      </trkpt>
      <trkpt lat="48.67383" lon="7.3043">
        <ele>561.617432</ele>
        <time>2012-07-29T06:13:32Z</time>
      </trkpt>
      <trkpt lat="48.6735" lon="7.30379">
        <ele>567.867432</ele>
        <time>2012-07-29T06:13:54Z</time>
      </trkpt>
      <trkpt lat="48.67293" lon="7.30254">
        <ele>564.383057</ele>
        <time>2012-07-29T06:14:24Z</time>
      </trkpt>
      <trkpt lat="48.67289" lon="7.30218">
        <ele>559.039307</ele>
        <time>2012-07-29T06:14:28Z</time>
      </trkpt>
      <trkpt lat="48.67232" lon="7.30101">
        <ele>542.320557</ele>
        <time>2012-07-29T06:14:57Z</time>
      </trkpt>
      <trkpt lat="48.67212" lon="7.30034">
        <ele>541.242432</ele>
        <time>2012-07-29T06:15:14Z</time>
      </trkpt>
      <trkpt lat="48.67233" lon="7.2975">
        <ele>574.086182</ele>
        <time>2012-07-29T06:16:18Z</time>
      </trkpt>
      <trkpt lat="48.67224" lon="7.29718">
        <ele>575.679932</ele>
        <time>2012-07-29T06:16:28Z</time>
      </trkpt>
      <trkpt lat="48.67143" lon="7.29583">
        <ele>580.086182</ele>
        <time>2012-07-29T06:17:12Z</time>
      </trkpt>
      <trkpt lat="48.67123" lon="7.29567">
        <ele>579.945557</ele>
        <time>2012-07-29T06:17:18Z</time>
      </trkpt>
      <trkpt lat="48.67095" lon="7.29511">
        <ele>558.789307</ele>
        <time>2012-07-29T06:17:28Z</time>
      </trkpt>
      <trkpt lat="48.67056" lon="7.29468">
        <ele>544.258057</ele>
        <time>2012-07-29T06:17:45Z</time>
      </trkpt>
      <trkpt lat="48.67034" lon="7.29454">
        <ele>543.398682</ele>
        <time>2012-07-29T06:17:54Z</time>
      </trkpt>
      <trkpt lat="48.66979" lon="7.29337">
        <ele>541.633057</ele>
        <time>2012-07-29T06:18:22Z</time>
      </trkpt>
      <trkpt lat="48.66919" lon="7.29138">
        <ele>550.726807</ele>
        <time>2012-07-29T06:19:08Z</time>
      </trkpt>
      <trkpt lat="48.66902" lon="7.28992">
        <ele>562.679932</ele>
        <time>2012-07-29T06:19:31Z</time>
      </trkpt>
      <trkpt lat="48.66816" lon="7.28639">
        <ele>566.836182</ele>
        <time>2012-07-29T06:24:26Z</time>
      </trkpt>
      <trkpt lat="48.66818" lon="7.28571">
        <ele>562.867432</ele>
        <time>2012-07-29T06:24:54Z</time>
      </trkpt>
      <trkpt lat="48.66805" lon="7.28506">
        <ele>557.367432</ele>
        <time>2012-07-29T06:25:25Z</time>
      </trkpt>
      <trkpt lat="48.66793" lon="7.28473">
        <ele>555.601807</ele>
        <time>2012-07-29T06:25:40Z</time>
      </trkpt>
      <trkpt lat="48.66775" lon="7.28448">
        <ele>551.804932</ele>
        <time>2012-07-29T06:25:52Z</time>
      </trkpt>
      <trkpt lat="48.66708" lon="7.28406">
        <ele>554.523682</ele>
        <time>2012-07-29T06:26:33Z</time>
      </trkpt>
      <trkpt lat="48.66571" lon="7.2835">
        <ele>562.523682</ele>
        <time>2012-07-29T06:27:36Z</time>
      </trkpt>
      <trkpt lat="48.66549" lon="7.28334">
        <ele>565.929932</ele>
        <time>2012-07-29T06:27:49Z</time>
      </trkpt>
      <trkpt lat="48.66504" lon="7.28316">
        <ele>569.258057</ele>
        <time>2012-07-29T06:28:12Z</time>
      </trkpt>
      <trkpt lat="48.66441" lon="7.28262">
        <ele>570.226807</ele>
        <time>2012-07-29T06:28:51Z</time>
      </trkpt>
      <trkpt lat="48.66426" lon="7.28233">
        <ele>571.601807</ele>
        <time>2012-07-29T06:29:08Z</time>
      </trkpt>
      <trkpt lat="48.6642" lon="7.28199">
        <ele>571.867432</ele>
        <time>2012-07-29T06:29:19Z</time>
      </trkpt>
      <trkpt lat="48.66371" lon="7.2812">
        <ele>574.867432</ele>
        <time>2012-07-29T06:29:56Z</time>
      </trkpt>
      <trkpt lat="48.6635" lon="7.28107">
        <ele>574.648682</ele>
        <time>2012-07-29T06:30:07Z</time>
      </trkpt>
      <trkpt lat="48.66282" lon="7.28092">
        <ele>579.633057</ele>
        <time>2012-07-29T06:30:38Z</time>
      </trkpt>
      <trkpt lat="48.66186" lon="7.28109">
        <ele>599.398682</ele>
        <time>2012-07-29T06:31:15Z</time>
      </trkpt>
      <trkpt lat="48.66164" lon="7.28119">
        <ele>601.883057</ele>
        <time>2012-07-29T06:31:24Z</time>
      </trkpt>
      <trkpt lat="48.66066" lon="7.28117">
        <ele>606.148682</ele>
        <time>2012-07-29T06:32:30Z</time>
      </trkpt>
      <trkpt lat="48.66" lon="7.28062">
        <ele>606.914307</ele>
        <time>2012-07-29T06:33:01Z</time>
      </trkpt>
      <trkpt lat="48.65977" lon="7.28056">
        <ele>606.883057</ele>
        <time>2012-07-29T06:33:10Z</time>
      </trkpt>
      <trkpt lat="48.65899" lon="7.28062">
        <ele>610.023682</ele>
        <time>2012-07-29T06:33:35Z</time>
      </trkpt>
      <trkpt lat="48.65878" lon="7.28046">
        <ele>606.351807</ele>
        <time>2012-07-29T06:33:41Z</time>
      </trkpt>
      <trkpt lat="48.65852" lon="7.28047">
        <ele>604.039307</ele>
        <time>2012-07-29T06:33:48Z</time>
      </trkpt>
      <trkpt lat="48.65807" lon="7.28065">
        <ele>604.820557</ele>
        <time>2012-07-29T06:34:12Z</time>
      </trkpt>
      <trkpt lat="48.65784" lon="7.28082">
        <ele>606.164307</ele>
        <time>2012-07-29T06:34:22Z</time>
      </trkpt>
      <trkpt lat="48.65733" lon="7.28096">
        <ele>605.195557</ele>
        <time>2012-07-29T06:34:38Z</time>
      </trkpt>
      <trkpt lat="48.65676" lon="7.28166">
        <ele>606.039307</ele>
        <time>2012-07-29T06:35:14Z</time>
      </trkpt>
      <trkpt lat="48.65636" lon="7.28204">
        <ele>607.242432</ele>
        <time>2012-07-29T06:35:37Z</time>
      </trkpt>
      <trkpt lat="48.65614" lon="7.28214">
        <ele>605.586182</ele>
        <time>2012-07-29T06:35:47Z</time>
      </trkpt>
      <trkpt lat="48.65567" lon="7.28224">
        <ele>605.179932</ele>
        <time>2012-07-29T06:36:08Z</time>
      </trkpt>
      <trkpt lat="48.65546" lon="7.28236">
        <ele>607.851807</ele>
        <time>2012-07-29T06:36:19Z</time>
      </trkpt>
      <trkpt lat="48.65523" lon="7.28237">
        <ele>608.664307</ele>
        <time>2012-07-29T06:36:34Z</time>
      </trkpt>
      <trkpt lat="48.65478" lon="7.28226">
        <ele>602.148682</ele>
        <time>2012-07-29T06:38:41Z</time>
      </trkpt>
      <trkpt lat="48.65455" lon="7.28233">
        <ele>606.398682</ele>
        <time>2012-07-29T06:38:53Z</time>
      </trkpt>
      <trkpt lat="48.65362" lon="7.28231">
        <ele>619.398682</ele>
        <time>2012-07-29T06:39:31Z</time>
      </trkpt>
      <trkpt lat="48.65339" lon="7.28239">
        <ele>620.523682</ele>
        <time>2012-07-29T06:39:41Z</time>
      </trkpt>
      <trkpt lat="48.65271" lon="7.28288">
        <ele>623.039307</ele>
        <time>2012-07-29T06:40:07Z</time>
      </trkpt>
      <trkpt lat="48.652" lon="7.28382">
        <ele>625.273682</ele>
        <time>2012-07-29T06:40:35Z</time>
      </trkpt>
      <trkpt lat="48.65025" lon="7.28561">
        <ele>638.351807</ele>
        <time>2012-07-29T06:41:43Z</time>
      </trkpt>
      <trkpt lat="48.65004" lon="7.28575">
        <ele>641.867432</ele>
        <time>2012-07-29T06:41:51Z</time>
      </trkpt>
      <trkpt lat="48.64958" lon="7.28591">
        <ele>645.726807</ele>
        <time>2012-07-29T06:42:08Z</time>
      </trkpt>
      <trkpt lat="48.64933" lon="7.28593">
        <ele>648.367432</ele>
        <time>2012-07-29T06:42:16Z</time>
      </trkpt>
      <trkpt lat="48.64912" lon="7.28579">
        <ele>654.039307</ele>
        <time>2012-07-29T06:42:25Z</time>
      </trkpt>
      <trkpt lat="48.64895" lon="7.28555">
        <ele>662.508057</ele>
        <time>2012-07-29T06:42:36Z</time>
      </trkpt>
      <trkpt lat="48.64872" lon="7.28492">
        <ele>668.554932</ele>
        <time>2012-07-29T06:42:55Z</time>
      </trkpt>
      <trkpt lat="48.64842" lon="7.28435">
        <ele>675.711182</ele>
        <time>2012-07-29T06:43:11Z</time>
      </trkpt>
      <trkpt lat="48.64828" lon="7.2833">
        <ele>667.133057</ele>
        <time>2012-07-29T06:43:36Z</time>
      </trkpt>
      <trkpt lat="48.64791" lon="7.28243">
        <ele>655.476807</ele>
        <time>2012-07-29T06:43:58Z</time>
      </trkpt>
      <trkpt lat="48.64776" lon="7.28212">
        <ele>660.320557</ele>
        <time>2012-07-29T06:44:05Z</time>
      </trkpt>
      <trkpt lat="48.64757" lon="7.28194">
        <ele>665.617432</ele>
        <time>2012-07-29T06:44:12Z</time>
      </trkpt>
      <trkpt lat="48.64711" lon="7.28173">
        <ele>663.101807</ele>
        <time>2012-07-29T06:45:37Z</time>
      </trkpt>
      <trkpt lat="48.64684" lon="7.28115">
        <ele>668.773682</ele>
        <time>2012-07-29T06:45:52Z</time>
      </trkpt>
      <trkpt lat="48.64646" lon="7.28055">
        <ele>666.992432</ele>
        <time>2012-07-29T06:46:10Z</time>
      </trkpt>
      <trkpt lat="48.64637" lon="7.2802">
        <ele>673.414307</ele>
        <time>2012-07-29T06:46:18Z</time>
      </trkpt>
      <trkpt lat="48.64607" lon="7.27965">
        <ele>666.008057</ele>
        <time>2012-07-29T06:46:34Z</time>
      </trkpt>
      <trkpt lat="48.64581" lon="7.27902">
        <ele>657.133057</ele>
        <time>2012-07-29T06:46:47Z</time>
      </trkpt>
      <trkpt lat="48.6455" lon="7.27762">
        <ele>654.367432</ele>
        <time>2012-07-29T06:47:13Z</time>
      </trkpt>
      <trkpt lat="48.64528" lon="7.27701">
        <ele>659.070557</ele>
        <time>2012-07-29T06:47:26Z</time>
      </trkpt>
      <trkpt lat="48.64514" lon="7.27671">
        <ele>657.742432</ele>
        <time>2012-07-29T06:47:34Z</time>
      </trkpt>
      <trkpt lat="48.645" lon="7.27603">
        <ele>662.898682</ele>
        <time>2012-07-29T06:47:47Z</time>
      </trkpt>
      <trkpt lat="48.64475" lon="7.27538">
        <ele>677.539307</ele>
        <time>2012-07-29T06:47:59Z</time>
      </trkpt>
      <trkpt lat="48.64457" lon="7.27518">
        <ele>681.664307</ele>
        <time>2012-07-29T06:48:05Z</time>
      </trkpt>
      <trkpt lat="48.64434" lon="7.27507">
        <ele>676.351807</ele>
        <time>2012-07-29T06:48:09Z</time>
      </trkpt>
      <trkpt lat="48.64379" lon="7.27516">
        <ele>657.195557</ele>
        <time>2012-07-29T06:48:18Z</time>
      </trkpt>
      <trkpt lat="48.64146" lon="7.27671">
        <ele>642.789307</ele>
        <time>2012-07-29T06:49:14Z</time>
      </trkpt>
      <trkpt lat="48.64051" lon="7.27692">
        <ele>646.398682</ele>
        <time>2012-07-29T06:49:36Z</time>
      </trkpt>
      <trkpt lat="48.64003" lon="7.27686">
        <ele>651.539307</ele>
        <time>2012-07-29T06:49:48Z</time>
      </trkpt>
      <trkpt lat="48.63953" lon="7.27567">
        <ele>688.320557</ele>
        <time>2012-07-29T06:50:15Z</time>
      </trkpt>
      <trkpt lat="48.63937" lon="7.275">
        <ele>697.054932</ele>
        <time>2012-07-29T06:50:30Z</time>
      </trkpt>
      <trkpt lat="48.63895" lon="7.27417">
        <ele>701.133057</ele>
        <time>2012-07-29T06:50:56Z</time>
      </trkpt>
      <trkpt lat="48.63885" lon="7.27347">
        <ele>708.570557</ele>
        <time>2012-07-29T06:51:14Z</time>
      </trkpt>
      <trkpt lat="48.63869" lon="7.27284">
        <ele>714.742432</ele>
        <time>2012-07-29T06:51:30Z</time>
      </trkpt>
      <trkpt lat="48.63858" lon="7.27181">
        <ele>733.758057</ele>
        <time>2012-07-29T06:51:55Z</time>
      </trkpt>
      <trkpt lat="48.63858" lon="7.27142">
        <ele>739.851807</ele>
        <time>2012-07-29T06:52:03Z</time>
      </trkpt>
      <trkpt lat="48.63885" lon="7.27044">
        <ele>753.258057</ele>
        <time>2012-07-29T06:52:21Z</time>
      </trkpt>
      <trkpt lat="48.63904" lon="7.26892">
        <ele>762.320557</ele>
        <time>2012-07-29T06:52:42Z</time>
      </trkpt>
      <trkpt lat="48.63882" lon="7.26553">
        <ele>753.851807</ele>
        <time>2012-07-29T06:53:27Z</time>
      </trkpt>
      <trkpt lat="48.63867" lon="7.26526">
        <ele>746.336182</ele>
        <time>2012-07-29T06:53:32Z</time>
      </trkpt>
      <trkpt lat="48.63714" lon="7.26484">
        <ele>704.226807</ele>
        <time>2012-07-29T06:53:59Z</time>
      </trkpt>
      <trkpt lat="48.63699" lon="7.26456">
        <ele>712.304932</ele>
        <time>2012-07-29T06:54:06Z</time>
      </trkpt>
      <trkpt lat="48.63668" lon="7.26359">
        <ele>728.992432</ele>
        <time>2012-07-29T06:54:24Z</time>
      </trkpt>
      <trkpt lat="48.63654" lon="7.26287">
        <ele>732.164307</ele>
        <time>2012-07-29T06:54:35Z</time>
      </trkpt>
      <trkpt lat="48.63648" lon="7.26211">
        <ele>735.804932</ele>
        <time>2012-07-29T06:54:45Z</time>
      </trkpt>
      <trkpt lat="48.63597" lon="7.26011">
        <ele>739.789307</ele>
        <time>2012-07-29T06:55:16Z</time>
      </trkpt>
      <trkpt lat="48.63597" lon="7.25973">
        <ele>738.211182</ele>
        <time>2012-07-29T06:55:21Z</time>
      </trkpt>
      <trkpt lat="48.63581" lon="7.25952">
        <ele>728.664307</ele>
        <time>2012-07-29T06:56:19Z</time>
      </trkpt>
      <trkpt lat="48.63461" lon="7.25988">
        <ele>709.304932</ele>
        <time>2012-07-29T06:57:43Z</time>
      </trkpt>
      <trkpt lat="48.63392" lon="7.26021">
        <ele>706.336182</ele>
        <time>2012-07-29T06:58:08Z</time>
      </trkpt>
      <trkpt lat="48.63248" lon="7.26018">
        <ele>700.023682</ele>
        <time>2012-07-29T06:59:00Z</time>
      </trkpt>
      <trkpt lat="48.63177" lon="7.26006">
        <ele>702.992432</ele>
        <time>2012-07-29T06:59:26Z</time>
      </trkpt>
      <trkpt lat="48.63131" lon="7.26008">
        <ele>709.726807</ele>
        <time>2012-07-29T06:59:43Z</time>
      </trkpt>
      <trkpt lat="48.63084" lon="7.26021">
        <ele>706.398682</ele>
        <time>2012-07-29T07:00:01Z</time>
      </trkpt>
      <trkpt lat="48.63074" lon="7.26054">
        <ele>702.242432</ele>
        <time>2012-07-29T07:00:09Z</time>
      </trkpt>
      <trkpt lat="48.63041" lon="7.26008">
        <ele>696.226807</ele>
        <time>2012-07-29T07:13:06Z</time>
      </trkpt>
      <trkpt lat="48.6303" lon="7.25978">
        <ele>703.867432</ele>
        <time>2012-07-29T07:13:16Z</time>
      </trkpt>
      <trkpt lat="48.62982" lon="7.25788">
        <ele>731.648682</ele>
        <time>2012-07-29T07:14:11Z</time>
      </trkpt>
      <trkpt lat="48.6296" lon="7.25656">
        <ele>751.742432</ele>
        <time>2012-07-29T07:14:50Z</time>
      </trkpt>
      <trkpt lat="48.62972" lon="7.25515">
        <ele>780.914307</ele>
        <time>2012-07-29T07:15:25Z</time>
      </trkpt>
      <trkpt lat="48.62963" lon="7.25446">
        <ele>786.617432</ele>
        <time>2012-07-29T07:15:43Z</time>
      </trkpt>
      <trkpt lat="48.62847" lon="7.25415">
        <ele>781.508057</ele>
        <time>2012-07-29T07:16:15Z</time>
      </trkpt>
      <trkpt lat="48.62824" lon="7.25403">
        <ele>778.164307</ele>
        <time>2012-07-29T07:16:21Z</time>
      </trkpt>
      <trkpt lat="48.62708" lon="7.25373">
        <ele>758.570557</ele>
        <time>2012-07-29T07:16:58Z</time>
      </trkpt>
      <trkpt lat="48.62661" lon="7.25354">
        <ele>757.664307</ele>
        <time>2012-07-29T07:17:14Z</time>
      </trkpt>
      <trkpt lat="48.62638" lon="7.25362">
        <ele>757.570557</ele>
        <time>2012-07-29T07:17:22Z</time>
      </trkpt>
      <trkpt lat="48.62617" lon="7.25383">
        <ele>754.398682</ele>
        <time>2012-07-29T07:17:29Z</time>
      </trkpt>
      <trkpt lat="48.62604" lon="7.25414">
        <ele>750.804932</ele>
        <time>2012-07-29T07:17:36Z</time>
      </trkpt>
      <trkpt lat="48.62574" lon="7.25518">
        <ele>736.961182</ele>
        <time>2012-07-29T07:17:56Z</time>
      </trkpt>
      <trkpt lat="48.62546" lon="7.25579">
        <ele>743.461182</ele>
        <time>2012-07-29T07:18:12Z</time>
      </trkpt>
      <trkpt lat="48.62526" lon="7.25645">
        <ele>748.445557</ele>
        <time>2012-07-29T07:18:31Z</time>
      </trkpt>
      <trkpt lat="48.62466" lon="7.25753">
        <ele>744.726807</ele>
        <time>2012-07-29T07:19:05Z</time>
      </trkpt>
      <trkpt lat="48.62457" lon="7.25784">
        <ele>739.914307</ele>
        <time>2012-07-29T07:19:13Z</time>
      </trkpt>
      <trkpt lat="48.62436" lon="7.25797">
        <ele>745.023682</ele>
        <time>2012-07-29T07:19:22Z</time>
      </trkpt>
      <trkpt lat="48.6239" lon="7.25809">
        <ele>760.742432</ele>
        <time>2012-07-29T07:19:40Z</time>
      </trkpt>
      <trkpt lat="48.62341" lon="7.25811">
        <ele>757.570557</ele>
        <time>2012-07-29T07:19:54Z</time>
      </trkpt>
      <trkpt lat="48.62271" lon="7.25803">
        <ele>748.211182</ele>
        <time>2012-07-29T07:20:17Z</time>
      </trkpt>
      <trkpt lat="48.62246" lon="7.25807">
        <ele>749.523682</ele>
        <time>2012-07-29T07:20:25Z</time>
      </trkpt>
      <trkpt lat="48.62201" lon="7.25842">
        <ele>747.601807</ele>
        <time>2012-07-29T07:20:40Z</time>
      </trkpt>
      <trkpt lat="48.6217" lon="7.25896">
        <ele>742.383057</ele>
        <time>2012-07-29T07:20:54Z</time>
      </trkpt>
      <trkpt lat="48.62116" lon="7.25959">
        <ele>758.867432</ele>
        <time>2012-07-29T07:21:19Z</time>
      </trkpt>
      <trkpt lat="48.62094" lon="7.25975">
        <ele>760.554932</ele>
        <time>2012-07-29T07:21:27Z</time>
      </trkpt>
      <trkpt lat="48.61999" lon="7.25992">
        <ele>766.742432</ele>
        <time>2012-07-29T07:21:56Z</time>
      </trkpt>
      <trkpt lat="48.61952" lon="7.25991">
        <ele>758.617432</ele>
        <time>2012-07-29T07:22:09Z</time>
      </trkpt>
      <trkpt lat="48.61861" lon="7.25978">
        <ele>741.664307</ele>
        <time>2012-07-29T07:22:36Z</time>
      </trkpt>
      <trkpt lat="48.61818" lon="7.25958">
        <ele>744.023682</ele>
        <time>2012-07-29T07:22:52Z</time>
      </trkpt>
      <trkpt lat="48.61777" lon="7.25916">
        <ele>761.023682</ele>
        <time>2012-07-29T07:23:09Z</time>
      </trkpt>
      <trkpt lat="48.61755" lon="7.25855">
        <ele>775.570557</ele>
        <time>2012-07-29T07:23:25Z</time>
      </trkpt>
      <trkpt lat="48.61709" lon="7.25773">
        <ele>784.320557</ele>
        <time>2012-07-29T07:23:50Z</time>
      </trkpt>
      <trkpt lat="48.61691" lon="7.25753">
        <ele>778.461182</ele>
        <time>2012-07-29T07:23:56Z</time>
      </trkpt>
      <trkpt lat="48.61642" lon="7.25725">
        <ele>777.867432</ele>
        <time>2012-07-29T07:24:09Z</time>
      </trkpt>
      <trkpt lat="48.61591" lon="7.25715">
        <ele>781.523682</ele>
        <time>2012-07-29T07:24:21Z</time>
      </trkpt>
      <trkpt lat="48.61568" lon="7.25722">
        <ele>782.976807</ele>
        <time>2012-07-29T07:24:27Z</time>
      </trkpt>
      <trkpt lat="48.61526" lon="7.25747">
        <ele>778.804932</ele>
        <time>2012-07-29T07:24:37Z</time>
      </trkpt>
      <trkpt lat="48.61482" lon="7.25785">
        <ele>774.195557</ele>
        <time>2012-07-29T07:24:51Z</time>
      </trkpt>
      <trkpt lat="48.61436" lon="7.25797">
        <ele>765.617432</ele>
        <time>2012-07-29T07:27:10Z</time>
      </trkpt>
      <trkpt lat="48.61371" lon="7.25748">
        <ele>769.695557</ele>
        <time>2012-07-29T07:27:37Z</time>
      </trkpt>
      <trkpt lat="48.61258" lon="7.25685">
        <ele>761.633057</ele>
        <time>2012-07-29T07:28:09Z</time>
      </trkpt>
      <trkpt lat="48.61234" lon="7.25678">
        <ele>763.789307</ele>
        <time>2012-07-29T07:28:16Z</time>
      </trkpt>
      <trkpt lat="48.61211" lon="7.2568">
        <ele>764.211182</ele>
        <time>2012-07-29T07:28:22Z</time>
      </trkpt>
      <trkpt lat="48.61117" lon="7.25648">
        <ele>771.664307</ele>
        <time>2012-07-29T07:28:49Z</time>
      </trkpt>
      <trkpt lat="48.61055" lon="7.25596">
        <ele>785.554932</ele>
        <time>2012-07-29T07:29:09Z</time>
      </trkpt>
      <trkpt lat="48.60984" lon="7.25558">
        <ele>783.523682</ele>
        <time>2012-07-29T07:29:28Z</time>
      </trkpt>
      <trkpt lat="48.60937" lon="7.25537">
        <ele>786.773682</ele>
        <time>2012-07-29T07:29:38Z</time>
      </trkpt>
      <trkpt lat="48.60913" lon="7.2554">
        <ele>788.929932</ele>
        <time>2012-07-29T07:29:44Z</time>
      </trkpt>
      <trkpt lat="48.60866" lon="7.25522">
        <ele>790.258057</ele>
        <time>2012-07-29T07:29:55Z</time>
      </trkpt>
      <trkpt lat="48.6084" lon="7.25522">
        <ele>791.586182</ele>
        <time>2012-07-29T07:30:02Z</time>
      </trkpt>
      <trkpt lat="48.60739" lon="7.25478">
        <ele>791.679932</ele>
        <time>2012-07-29T07:30:20Z</time>
      </trkpt>
      <trkpt lat="48.60717" lon="7.25463">
        <ele>797.242432</ele>
        <time>2012-07-29T07:30:31Z</time>
      </trkpt>
      <trkpt lat="48.6069" lon="7.25293">
        <ele>831.258057</ele>
        <time>2012-07-29T07:31:05Z</time>
      </trkpt>
      <trkpt lat="48.6067" lon="7.2527">
        <ele>832.445557</ele>
        <time>2012-07-29T07:31:11Z</time>
      </trkpt>
      <trkpt lat="48.60661" lon="7.25233">
        <ele>833.976807</ele>
        <time>2012-07-29T07:31:28Z</time>
      </trkpt>
      <trkpt lat="48.60677" lon="7.25131">
        <ele>818.679932</ele>
        <time>2012-07-29T07:31:50Z</time>
      </trkpt>
      <trkpt lat="48.60675" lon="7.25095">
        <ele>814.351807</ele>
        <time>2012-07-29T07:31:56Z</time>
      </trkpt>
      <trkpt lat="48.60664" lon="7.25063">
        <ele>813.008057</ele>
        <time>2012-07-29T07:32:04Z</time>
      </trkpt>
      <trkpt lat="48.60673" lon="7.24989">
        <ele>817.617432</ele>
        <time>2012-07-29T07:32:19Z</time>
      </trkpt>
      <trkpt lat="48.60658" lon="7.24957">
        <ele>821.258057</ele>
        <time>2012-07-29T07:32:25Z</time>
      </trkpt>
      <trkpt lat="48.60662" lon="7.24887">
        <ele>810.929932</ele>
        <time>2012-07-29T07:32:27Z</time>
      </trkpt>
      <trkpt lat="48.6065" lon="7.24869">
        <ele>792.351807</ele>
        <time>2012-07-29T07:32:32Z</time>
      </trkpt>
      <trkpt lat="48.60593" lon="7.24811">
        <ele>769.679932</ele>
        <time>2012-07-29T07:33:04Z</time>
      </trkpt>
      <trkpt lat="48.60571" lon="7.24795">
        <ele>768.508057</ele>
        <time>2012-07-29T07:33:25Z</time>
      </trkpt>
      <trkpt lat="48.60549" lon="7.24792">
        <ele>761.992432</ele>
        <time>2012-07-29T07:33:41Z</time>
      </trkpt>
      <trkpt lat="48.60508" lon="7.24765">
        <ele>769.273682</ele>
        <time>2012-07-29T07:34:03Z</time>
      </trkpt>
      <trkpt lat="48.60414" lon="7.24744">
        <ele>777.898682</ele>
        <time>2012-07-29T07:34:39Z</time>
      </trkpt>
      <trkpt lat="48.60318" lon="7.247">
        <ele>782.476807</ele>
        <time>2012-07-29T07:35:07Z</time>
      </trkpt>
      <trkpt lat="48.60301" lon="7.24717">
        <ele>770.711182</ele>
        <time>2012-07-29T07:37:28Z</time>
      </trkpt>
      <trkpt lat="48.60279" lon="7.24713">
        <ele>773.164307</ele>
        <time>2012-07-29T07:39:10Z</time>
      </trkpt>
      <trkpt lat="48.60213" lon="7.24674">
        <ele>784.383057</ele>
        <time>2012-07-29T07:39:46Z</time>
      </trkpt>
      <trkpt lat="48.6019" lon="7.24677">
        <ele>786.820557</ele>
        <time>2012-07-29T07:40:06Z</time>
      </trkpt>
      <trkpt lat="48.60121" lon="7.24651">
        <ele>789.914307</ele>
        <time>2012-07-29T07:41:02Z</time>
      </trkpt>
      <trkpt lat="48.59986" lon="7.24576">
        <ele>785.461182</ele>
        <time>2012-07-29T07:41:50Z</time>
      </trkpt>
      <trkpt lat="48.5994" lon="7.24571">
        <ele>777.945557</ele>
        <time>2012-07-29T07:42:05Z</time>
      </trkpt>
      <trkpt lat="48.59895" lon="7.24596">
        <ele>780.648682</ele>
        <time>2012-07-29T07:42:22Z</time>
      </trkpt>
      <trkpt lat="48.5985" lon="7.2456">
        <ele>773.867432</ele>
        <time>2012-07-29T07:43:01Z</time>
      </trkpt>
      <trkpt lat="48.598" lon="7.24485">
        <ele>763.742432</ele>
        <time>2012-07-29T07:43:29Z</time>
      </trkpt>
      <trkpt lat="48.59781" lon="7.24469">
        <ele>757.195557</ele>
        <time>2012-07-29T07:43:36Z</time>
      </trkpt>
      <trkpt lat="48.59763" lon="7.24405">
        <ele>757.961182</ele>
        <time>2012-07-29T07:43:55Z</time>
      </trkpt>
      <trkpt lat="48.59756" lon="7.24335">
        <ele>757.398682</ele>
        <time>2012-07-29T07:44:16Z</time>
      </trkpt>
      <trkpt lat="48.59777" lon="7.24308">
        <ele>760.586182</ele>
        <time>2012-07-29T07:44:38Z</time>
      </trkpt>
      <trkpt lat="48.59774" lon="7.24273">
        <ele>758.711182</ele>
        <time>2012-07-29T07:47:33Z</time>
      </trkpt>
      <trkpt lat="48.5982" lon="7.24193">
        <ele>759.914307</ele>
        <time>2012-07-29T07:47:56Z</time>
      </trkpt>
      <trkpt lat="48.59855" lon="7.24104">
        <ele>779.039307</ele>
        <time>2012-07-29T07:48:28Z</time>
      </trkpt>
      <trkpt lat="48.5988" lon="7.2401">
        <ele>787.883057</ele>
        <time>2012-07-29T07:49:06Z</time>
      </trkpt>
      <trkpt lat="48.59859" lon="7.2402">
        <ele>794.601807</ele>
        <time>2012-07-29T07:49:36Z</time>
      </trkpt>
      <trkpt lat="48.59823" lon="7.24062">
        <ele>796.304932</ele>
        <time>2012-07-29T07:50:14Z</time>
      </trkpt>
      <trkpt lat="48.59756" lon="7.24094">
        <ele>798.726807</ele>
        <time>2012-07-29T07:50:58Z</time>
      </trkpt>
      <trkpt lat="48.59699" lon="7.24147">
        <ele>799.086182</ele>
        <time>2012-07-29T07:51:54Z</time>
      </trkpt>
      <trkpt lat="48.59684" lon="7.24174">
        <ele>799.414307</ele>
        <time>2012-07-29T07:52:13Z</time>
      </trkpt>
      <trkpt lat="48.59663" lon="7.24192">
        <ele>801.336182</ele>
        <time>2012-07-29T07:52:25Z</time>
      </trkpt>
      <trkpt lat="48.59598" lon="7.24226">
        <ele>803.945557</ele>
        <time>2012-07-29T07:53:03Z</time>
      </trkpt>
      <trkpt lat="48.59536" lon="7.24326">
        <ele>811.039307</ele>
        <time>2012-07-29T07:54:21Z</time>
      </trkpt>
      <trkpt lat="48.5949" lon="7.2432">
        <ele>822.929932</ele>
        <time>2012-07-29T07:54:57Z</time>
      </trkpt>
      <trkpt lat="48.59379" lon="7.2435">
        <ele>848.133057</ele>
        <time>2012-07-29T07:56:34Z</time>
      </trkpt>
      <trkpt lat="48.59309" lon="7.2435">
        <ele>856.976807</ele>
        <time>2012-07-29T07:57:43Z</time>
      </trkpt>
      <trkpt lat="48.59238" lon="7.24337">
        <ele>865.242432</ele>
        <time>2012-07-29T07:58:33Z</time>
      </trkpt>
      <trkpt lat="48.59193" lon="7.2434">
        <ele>875.117432</ele>
        <time>2012-07-29T07:59:10Z</time>
      </trkpt>
      <trkpt lat="48.59171" lon="7.24355">
        <ele>879.054932</ele>
        <time>2012-07-29T07:59:32Z</time>
      </trkpt>
      <trkpt lat="48.59136" lon="7.24401">
        <ele>877.461182</ele>
        <time>2012-07-29T08:00:11Z</time>
      </trkpt>
      <trkpt lat="48.59134" lon="7.24435">
        <ele>880.789307</ele>
        <time>2012-07-29T08:00:30Z</time>
      </trkpt>
      <trkpt lat="48.59144" lon="7.24473">
        <ele>877.851807</ele>
        <time>2012-07-29T08:00:41Z</time>
      </trkpt>
      <trkpt lat="48.59161" lon="7.24494">
        <ele>871.492432</ele>
        <time>2012-07-29T08:04:08Z</time>
      </trkpt>
      <trkpt lat="48.59177" lon="7.24666">
        <ele>883.117432</ele>
        <time>2012-07-29T08:08:55Z</time>
      </trkpt>
      <trkpt lat="48.59211" lon="7.24756">
        <ele>898.945557</ele>
        <time>2012-07-29T08:09:20Z</time>
      </trkpt>
      <trkpt lat="48.59256" lon="7.24838">
        <ele>911.023682</ele>
        <time>2012-07-29T08:09:46Z</time>
      </trkpt>
      <trkpt lat="48.59263" lon="7.24874">
        <ele>904.070557</ele>
        <time>2012-07-29T08:09:52Z</time>
      </trkpt>
      <trkpt lat="48.59256" lon="7.24935">
        <ele>882.508057</ele>
        <time>2012-07-29T08:27:35Z</time>
      </trkpt>
      <trkpt lat="48.59232" lon="7.24995">
        <ele>877.445557</ele>
        <time>2012-07-29T08:38:25Z</time>
      </trkpt>
      <trkpt lat="48.59244" lon="7.25023">
        <ele>880.914307</ele>
        <time>2012-07-29T08:38:43Z</time>
      </trkpt>
      <trkpt lat="48.59241" lon="7.25057">
        <ele>885.633057</ele>
        <time>2012-07-29T08:39:01Z</time>
      </trkpt>
      <trkpt lat="48.59203" lon="7.25261">
        <ele>893.523682</ele>
        <time>2012-07-29T08:40:19Z</time>
      </trkpt>
      <trkpt lat="48.59191" lon="7.25292">
        <ele>896.195557</ele>
        <time>2012-07-29T08:40:30Z</time>
      </trkpt>
      <trkpt lat="48.59155" lon="7.25342">
        <ele>901.383057</ele>
        <time>2012-07-29T08:40:50Z</time>
      </trkpt>
      <trkpt lat="48.59148" lon="7.25377">
        <ele>904.617432</ele>
        <time>2012-07-29T08:41:00Z</time>
      </trkpt>
      <trkpt lat="48.59151" lon="7.25446">
        <ele>905.554932</ele>
        <time>2012-07-29T08:41:17Z</time>
      </trkpt>
      <trkpt lat="48.59144" lon="7.25589">
        <ele>908.554932</ele>
        <time>2012-07-29T08:41:52Z</time>
      </trkpt>
      <trkpt lat="48.59188" lon="7.2594">
        <ele>906.226807</ele>
        <time>2012-07-29T08:43:20Z</time>
      </trkpt>
      <trkpt lat="48.59193" lon="7.26079">
        <ele>909.383057</ele>
        <time>2012-07-29T08:43:55Z</time>
      </trkpt>
      <trkpt lat="48.59221" lon="7.26248">
        <ele>910.601807</ele>
        <time>2012-07-29T08:44:37Z</time>
      </trkpt>
      <trkpt lat="48.59211" lon="7.26352">
        <ele>903.929932</ele>
        <time>2012-07-29T08:45:04Z</time>
      </trkpt>
      <trkpt lat="48.59216" lon="7.26422">
        <ele>908.242432</ele>
        <time>2012-07-29T08:45:24Z</time>
      </trkpt>
      <trkpt lat="48.59194" lon="7.26484">
        <ele>905.570557</ele>
        <time>2012-07-29T08:45:44Z</time>
      </trkpt>
      <trkpt lat="48.59171" lon="7.26489">
        <ele>903.351807</ele>
        <time>2012-07-29T08:46:30Z</time>
      </trkpt>
      <trkpt lat="48.59146" lon="7.26433">
        <ele>912.586182</ele>
        <time>2012-07-29T08:47:51Z</time>
      </trkpt>
      <trkpt lat="48.59109" lon="7.26393">
        <ele>921.398682</ele>
        <time>2012-07-29T08:48:33Z</time>
      </trkpt>
      <trkpt lat="48.59066" lon="7.26373">
        <ele>933.101807</ele>
        <time>2012-07-29T08:49:07Z</time>
      </trkpt>
      <trkpt lat="48.59013" lon="7.26304">
        <ele>946.586182</ele>
        <time>2012-07-29T08:51:16Z</time>
      </trkpt>
      <trkpt lat="48.59007" lon="7.26198">
        <ele>952.367432</ele>
        <time>2012-07-29T08:51:51Z</time>
      </trkpt>
      <trkpt lat="48.58991" lon="7.2613">
        <ele>961.086182</ele>
        <time>2012-07-29T08:52:03Z</time>
      </trkpt>
      <trkpt lat="48.58994" lon="7.26065">
        <ele>953.320557</ele>
        <time>2012-07-29T08:53:03Z</time>
      </trkpt>
      <trkpt lat="48.58975" lon="7.26">
        <ele>952.304932</ele>
        <time>2012-07-29T08:54:48Z</time>
      </trkpt>
      <trkpt lat="48.58972" lon="7.25965">
        <ele>947.554932</ele>
        <time>2012-07-29T08:55:31Z</time>
      </trkpt>
      <trkpt lat="48.58958" lon="7.25938">
        <ele>946.445557</ele>
        <time>2012-07-29T08:55:42Z</time>
      </trkpt>
      <trkpt lat="48.58937" lon="7.25918">
        <ele>947.492432</ele>
        <time>2012-07-29T08:55:56Z</time>
      </trkpt>
      <trkpt lat="48.58891" lon="7.2584">
        <ele>943.429932</ele>
        <time>2012-07-29T08:56:23Z</time>
      </trkpt>
      <trkpt lat="48.58868" lon="7.25827">
        <ele>943.039307</ele>
        <time>2012-07-29T08:56:30Z</time>
      </trkpt>
      <trkpt lat="48.58858" lon="7.25795">
        <ele>945.383057</ele>
        <time>2012-07-29T08:56:37Z</time>
      </trkpt>
      <trkpt lat="48.58835" lon="7.25785">
        <ele>946.492432</ele>
        <time>2012-07-29T08:56:42Z</time>
      </trkpt>
      <trkpt lat="48.58817" lon="7.25762">
        <ele>942.976807</ele>
        <time>2012-07-29T08:56:52Z</time>
      </trkpt>
      <trkpt lat="48.58754" lon="7.25647">
        <ele>946.648682</ele>
        <time>2012-07-29T08:57:20Z</time>
      </trkpt>
      <trkpt lat="48.58718" lon="7.25601">
        <ele>937.820557</ele>
        <time>2012-07-29T08:57:36Z</time>
      </trkpt>
      <trkpt lat="48.58675" lon="7.25572">
        <ele>940.273682</ele>
        <time>2012-07-29T08:57:49Z</time>
      </trkpt>
      <trkpt lat="48.58642" lon="7.25517">
        <ele>928.570557</ele>
        <time>2012-07-29T08:58:06Z</time>
      </trkpt>
      <trkpt lat="48.58582" lon="7.25462">
        <ele>928.726807</ele>
        <time>2012-07-29T08:58:34Z</time>
      </trkpt>
      <trkpt lat="48.58543" lon="7.2541">
        <ele>929.164307</ele>
        <time>2012-07-29T08:58:49Z</time>
      </trkpt>
      <trkpt lat="48.5852" lon="7.2535">
        <ele>923.273682</ele>
        <time>2012-07-29T08:59:03Z</time>
      </trkpt>
      <trkpt lat="48.58515" lon="7.25315">
        <ele>916.148682</ele>
        <time>2012-07-29T09:02:05Z</time>
      </trkpt>
      <trkpt lat="48.58497" lon="7.25295">
        <ele>916.117432</ele>
        <time>2012-07-29T09:02:11Z</time>
      </trkpt>
      <trkpt lat="48.5848" lon="7.25228">
        <ele>914.508057</ele>
        <time>2012-07-29T09:02:22Z</time>
      </trkpt>
      <trkpt lat="48.58414" lon="7.25111">
        <ele>917.617432</ele>
        <time>2012-07-29T09:02:44Z</time>
      </trkpt>
      <trkpt lat="48.58393" lon="7.25091">
        <ele>918.242432</ele>
        <time>2012-07-29T09:02:50Z</time>
      </trkpt>
      <trkpt lat="48.58349" lon="7.25067">
        <ele>930.773682</ele>
        <time>2012-07-29T09:03:05Z</time>
      </trkpt>
      <trkpt lat="48.58276" lon="7.25058">
        <ele>945.398682</ele>
        <time>2012-07-29T09:03:22Z</time>
      </trkpt>
      <trkpt lat="48.58253" lon="7.2505">
        <ele>947.976807</ele>
        <time>2012-07-29T09:03:28Z</time>
      </trkpt>
      <trkpt lat="48.58228" lon="7.25056">
        <ele>951.383057</ele>
        <time>2012-07-29T09:03:33Z</time>
      </trkpt>
      <trkpt lat="48.58203" lon="7.25054">
        <ele>954.461182</ele>
        <time>2012-07-29T09:03:37Z</time>
      </trkpt>
      <trkpt lat="48.58176" lon="7.25042">
        <ele>956.695557</ele>
        <time>2012-07-29T09:03:42Z</time>
      </trkpt>
      <trkpt lat="48.58154" lon="7.25021">
        <ele>957.383057</ele>
        <time>2012-07-29T09:03:48Z</time>
      </trkpt>
      <trkpt lat="48.58139" lon="7.24992">
        <ele>954.367432</ele>
        <time>2012-07-29T09:03:53Z</time>
      </trkpt>
      <trkpt lat="48.58125" lon="7.24922">
        <ele>956.336182</ele>
        <time>2012-07-29T09:04:05Z</time>
      </trkpt>
      <trkpt lat="48.58057" lon="7.24868">
        <ele>954.242432</ele>
        <time>2012-07-29T09:04:14Z</time>
      </trkpt>
      <trkpt lat="48.58004" lon="7.2473">
        <ele>953.008057</ele>
        <time>2012-07-29T09:04:27Z</time>
      </trkpt>
      <trkpt lat="48.57995" lon="7.2469">
        <ele>945.148682</ele>
        <time>2012-07-29T09:04:31Z</time>
      </trkpt>
      <trkpt lat="48.5793" lon="7.24572">
        <ele>910.976807</ele>
        <time>2012-07-29T09:04:47Z</time>
      </trkpt>
      <trkpt lat="48.57889" lon="7.24458">
        <ele>880.226807</ele>
        <time>2012-07-29T09:05:38Z</time>
      </trkpt>
      <trkpt lat="48.57855" lon="7.24404">
        <ele>868.164307</ele>
        <time>2012-07-29T09:05:48Z</time>
      </trkpt>
      <trkpt lat="48.578" lon="7.24336">
        <ele>861.883057</ele>
        <time>2012-07-29T09:06:04Z</time>
      </trkpt>
      <trkpt lat="48.57756" lon="7.24251">
        <ele>847.445557</ele>
        <time>2012-07-29T09:06:21Z</time>
      </trkpt>
      <trkpt lat="48.57707" lon="7.24178">
        <ele>839.289307</ele>
        <time>2012-07-29T09:07:16Z</time>
      </trkpt>
      <trkpt lat="48.57683" lon="7.24172">
        <ele>837.445557</ele>
        <time>2012-07-29T09:07:28Z</time>
      </trkpt>
      <trkpt lat="48.57612" lon="7.24185">
        <ele>835.523682</ele>
        <time>2012-07-29T09:09:04Z</time>
      </trkpt>
      <trkpt lat="48.57537" lon="7.24164">
        <ele>826.258057</ele>
        <time>2012-07-29T09:09:20Z</time>
      </trkpt>
      <trkpt lat="48.57438" lon="7.24123">
        <ele>821.445557</ele>
        <time>2012-07-29T09:09:39Z</time>
      </trkpt>
      <trkpt lat="48.57395" lon="7.24085">
        <ele>820.601807</ele>
        <time>2012-07-29T09:09:46Z</time>
      </trkpt>
      <trkpt lat="48.57345" lon="7.23994">
        <ele>820.101807</ele>
        <time>2012-07-29T09:10:00Z</time>
      </trkpt>
      <trkpt lat="48.57307" lon="7.23944">
        <ele>817.336182</ele>
        <time>2012-07-29T09:10:09Z</time>
      </trkpt>
      <trkpt lat="48.57187" lon="7.23811">
        <ele>822.758057</ele>
        <time>2012-07-29T09:10:38Z</time>
      </trkpt>
      <trkpt lat="48.57079" lon="7.2372">
        <ele>825.101807</ele>
        <time>2012-07-29T09:11:06Z</time>
      </trkpt>
      <trkpt lat="48.57057" lon="7.23709">
        <ele>823.898682</ele>
        <time>2012-07-29T09:12:00Z</time>
      </trkpt>
      <trkpt lat="48.56985" lon="7.23707">
        <ele>823.976807</ele>
        <time>2012-07-29T09:13:10Z</time>
      </trkpt>
      <trkpt lat="48.56942" lon="7.23685">
        <ele>824.961182</ele>
        <time>2012-07-29T09:13:41Z</time>
      </trkpt>
      <trkpt lat="48.56902" lon="7.23653">
        <ele>825.664307</ele>
        <time>2012-07-29T09:14:05Z</time>
      </trkpt>
      <trkpt lat="48.56879" lon="7.23646">
        <ele>825.429932</ele>
        <time>2012-07-29T09:15:41Z</time>
      </trkpt>
      <trkpt lat="48.56837" lon="7.23562">
        <ele>827.554932</ele>
        <time>2012-07-29T09:16:27Z</time>
      </trkpt>
      <trkpt lat="48.56816" lon="7.23548">
        <ele>830.008057</ele>
        <time>2012-07-29T09:16:49Z</time>
      </trkpt>
      <trkpt lat="48.56806" lon="7.23517">
        <ele>833.351807</ele>
        <time>2012-07-29T09:17:27Z</time>
      </trkpt>
      <trkpt lat="48.56802" lon="7.23447">
        <ele>840.148682</ele>
        <time>2012-07-29T09:18:02Z</time>
      </trkpt>
      <trkpt lat="48.56809" lon="7.23414">
        <ele>844.039307</ele>
        <time>2012-07-29T09:18:13Z</time>
      </trkpt>
      <trkpt lat="48.56802" lon="7.23382">
        <ele>846.242432</ele>
        <time>2012-07-29T09:18:26Z</time>
      </trkpt>
      <trkpt lat="48.56755" lon="7.23308">
        <ele>859.929932</ele>
        <time>2012-07-29T09:19:15Z</time>
      </trkpt>
      <trkpt lat="48.56738" lon="7.23242">
        <ele>861.914307</ele>
        <time>2012-07-29T09:19:53Z</time>
      </trkpt>
      <trkpt lat="48.56733" lon="7.23174">
        <ele>858.023682</ele>
        <time>2012-07-29T09:20:21Z</time>
      </trkpt>
      <trkpt lat="48.56692" lon="7.23091">
        <ele>863.570557</ele>
        <time>2012-07-29T09:21:16Z</time>
      </trkpt>
      <trkpt lat="48.56672" lon="7.23077">
        <ele>866.367432</ele>
        <time>2012-07-29T09:21:54Z</time>
      </trkpt>
      <trkpt lat="48.56657" lon="7.23052">
        <ele>870.101807</ele>
        <time>2012-07-29T09:22:11Z</time>
      </trkpt>
      <trkpt lat="48.56593" lon="7.23016">
        <ele>885.992432</ele>
        <time>2012-07-29T09:23:07Z</time>
      </trkpt>
      <trkpt lat="48.5657" lon="7.23011">
        <ele>889.367432</ele>
        <time>2012-07-29T09:23:24Z</time>
      </trkpt>
      <trkpt lat="48.56547" lon="7.23019">
        <ele>892.773682</ele>
        <time>2012-07-29T09:24:23Z</time>
      </trkpt>
      <trkpt lat="48.56528" lon="7.23">
        <ele>895.367432</ele>
        <time>2012-07-29T09:24:45Z</time>
      </trkpt>
      <trkpt lat="48.5648" lon="7.22996">
        <ele>902.508057</ele>
        <time>2012-07-29T09:26:15Z</time>
      </trkpt>
      <trkpt lat="48.56456" lon="7.22998">
        <ele>904.570557</ele>
        <time>2012-07-29T09:26:33Z</time>
      </trkpt>
      <trkpt lat="48.56436" lon="7.23016">
        <ele>903.476807</ele>
        <time>2012-07-29T09:26:48Z</time>
      </trkpt>
      <trkpt lat="48.56392" lon="7.22995">
        <ele>907.101807</ele>
        <time>2012-07-29T09:27:25Z</time>
      </trkpt>
      <trkpt lat="48.56379" lon="7.22966">
        <ele>911.008057</ele>
        <time>2012-07-29T09:27:42Z</time>
      </trkpt>
      <trkpt lat="48.56356" lon="7.22958">
        <ele>911.414307</ele>
        <time>2012-07-29T09:28:55Z</time>
      </trkpt>
      <trkpt lat="48.56339" lon="7.22922">
        <ele>902.289307</ele>
        <time>2012-07-29T09:33:25Z</time>
      </trkpt>
      <trkpt lat="48.56279" lon="7.22851">
        <ele>919.273682</ele>
        <time>2012-07-29T09:33:47Z</time>
      </trkpt>
      <trkpt lat="48.56265" lon="7.22822">
        <ele>924.820557</ele>
        <time>2012-07-29T09:33:54Z</time>
      </trkpt>
      <trkpt lat="48.56247" lon="7.22803">
        <ele>930.508057</ele>
        <time>2012-07-29T09:33:59Z</time>
      </trkpt>
      <trkpt lat="48.56201" lon="7.22782">
        <ele>940.601807</ele>
        <time>2012-07-29T09:34:16Z</time>
      </trkpt>
      <trkpt lat="48.56131" lon="7.22781">
        <ele>941.039307</ele>
        <time>2012-07-29T09:34:52Z</time>
      </trkpt>
      <trkpt lat="48.56087" lon="7.22761">
        <ele>943.179932</ele>
        <time>2012-07-29T09:35:19Z</time>
      </trkpt>
      <trkpt lat="48.56074" lon="7.22733">
        <ele>946.164307</ele>
        <time>2012-07-29T09:35:35Z</time>
      </trkpt>
      <trkpt lat="48.56055" lon="7.22711">
        <ele>951.133057</ele>
        <time>2012-07-29T09:35:55Z</time>
      </trkpt>
      <trkpt lat="48.56031" lon="7.22651">
        <ele>953.883057</ele>
        <time>2012-07-29T09:36:30Z</time>
      </trkpt>
      <trkpt lat="48.55982" lon="7.22578">
        <ele>960.554932</ele>
        <time>2012-07-29T09:37:34Z</time>
      </trkpt>
      <trkpt lat="48.55974" lon="7.22546">
        <ele>963.070557</ele>
        <time>2012-07-29T09:38:00Z</time>
      </trkpt>
      <trkpt lat="48.55903" lon="7.2246">
        <ele>961.992432</ele>
        <time>2012-07-29T09:39:14Z</time>
      </trkpt>
      <trkpt lat="48.55888" lon="7.22434">
        <ele>965.039307</ele>
        <time>2012-07-29T09:39:38Z</time>
      </trkpt>
      <trkpt lat="48.55867" lon="7.2242">
        <ele>967.023682</ele>
        <time>2012-07-29T09:39:57Z</time>
      </trkpt>
      <trkpt lat="48.5584" lon="7.22366">
        <ele>970.398682</ele>
        <time>2012-07-29T09:40:32Z</time>
      </trkpt>
      <trkpt lat="48.55822" lon="7.22344">
        <ele>971.023682</ele>
        <time>2012-07-29T09:40:48Z</time>
      </trkpt>
      <trkpt lat="48.55801" lon="7.22331">
        <ele>972.836182</ele>
        <time>2012-07-29T09:41:32Z</time>
      </trkpt>
      <trkpt lat="48.5577" lon="7.2219">
        <ele>965.164307</ele>
        <time>2012-07-29T09:45:05Z</time>
      </trkpt>
      <trkpt lat="48.55708" lon="7.22137">
        <ele>983.617432</ele>
        <time>2012-07-29T09:45:27Z</time>
      </trkpt>
      <trkpt lat="48.55695" lon="7.22064">
        <ele>994.601807</ele>
        <time>2012-07-29T09:45:41Z</time>
      </trkpt>
      <trkpt lat="48.55675" lon="7.22046">
        <ele>999.648682</ele>
        <time>2012-07-29T09:45:47Z</time>
      </trkpt>
      <trkpt lat="48.55629" lon="7.22019">
        <ele>1004.101807</ele>
        <time>2012-07-29T09:45:57Z</time>
      </trkpt>
      <trkpt lat="48.55603" lon="7.22014">
        <ele>1004.086182</ele>
        <time>2012-07-29T09:46:04Z</time>
      </trkpt>
      <trkpt lat="48.55581" lon="7.22024">
        <ele>1004.945557</ele>
        <time>2012-07-29T09:46:34Z</time>
      </trkpt>
      <trkpt lat="48.55522" lon="7.22029">
        <ele>1003.164307</ele>
        <time>2012-07-29T09:46:38Z</time>
      </trkpt>
      <trkpt lat="48.55441" lon="7.22026">
        <ele>996.179932</ele>
        <time>2012-07-29T09:46:48Z</time>
      </trkpt>
      <trkpt lat="48.5539" lon="7.22036">
        <ele>993.336182</ele>
        <time>2012-07-29T09:47:01Z</time>
      </trkpt>
      <trkpt lat="48.55344" lon="7.22036">
        <ele>981.461182</ele>
        <time>2012-07-29T09:47:09Z</time>
      </trkpt>
      <trkpt lat="48.55298" lon="7.22015">
        <ele>969.914307</ele>
        <time>2012-07-29T09:47:17Z</time>
      </trkpt>
      <trkpt lat="48.55255" lon="7.21975">
        <ele>962.851807</ele>
        <time>2012-07-29T09:47:25Z</time>
      </trkpt>
      <trkpt lat="48.55239" lon="7.21946">
        <ele>958.383057</ele>
        <time>2012-07-29T09:47:29Z</time>
      </trkpt>
      <trkpt lat="48.55216" lon="7.21936">
        <ele>955.101807</ele>
        <time>2012-07-29T09:47:32Z</time>
      </trkpt>
      <trkpt lat="48.55191" lon="7.21933">
        <ele>951.476807</ele>
        <time>2012-07-29T09:47:35Z</time>
      </trkpt>
      <trkpt lat="48.5516" lon="7.21939">
        <ele>949.773682</ele>
        <time>2012-07-29T09:47:38Z</time>
      </trkpt>
      <trkpt lat="48.5514" lon="7.21958">
        <ele>947.648682</ele>
        <time>2012-07-29T09:47:41Z</time>
      </trkpt>
      <trkpt lat="48.55057" lon="7.22103">
        <ele>938.101807</ele>
        <time>2012-07-29T09:48:05Z</time>
      </trkpt>
      <trkpt lat="48.55022" lon="7.22203">
        <ele>937.726807</ele>
        <time>2012-07-29T09:48:24Z</time>
      </trkpt>
      <trkpt lat="48.55017" lon="7.22237">
        <ele>938.617432</ele>
        <time>2012-07-29T09:48:30Z</time>
      </trkpt>
      <trkpt lat="48.5502" lon="7.22421">
        <ele>932.398682</ele>
        <time>2012-07-29T09:49:00Z</time>
      </trkpt>
      <trkpt lat="48.54993" lon="7.22602">
        <ele>932.070557</ele>
        <time>2012-07-29T09:49:30Z</time>
      </trkpt>
      <trkpt lat="48.54968" lon="7.22667">
        <ele>932.867432</ele>
        <time>2012-07-29T09:49:42Z</time>
      </trkpt>
      <trkpt lat="48.54888" lon="7.22801">
        <ele>927.383057</ele>
        <time>2012-07-29T09:50:10Z</time>
      </trkpt>
      <trkpt lat="48.54844" lon="7.22828">
        <ele>926.945557</ele>
        <time>2012-07-29T09:50:21Z</time>
      </trkpt>
      <trkpt lat="48.54822" lon="7.22888">
        <ele>925.508057</ele>
        <time>2012-07-29T09:51:14Z</time>
      </trkpt>
      <trkpt lat="48.54853" lon="7.22938">
        <ele>928.898682</ele>
        <time>2012-07-29T09:52:22Z</time>
      </trkpt>
      <trkpt lat="48.54866" lon="7.2304">
        <ele>920.914307</ele>
        <time>2012-07-29T09:53:22Z</time>
      </trkpt>
      <trkpt lat="48.54922" lon="7.23157">
        <ele>922.883057</ele>
        <time>2012-07-29T09:54:44Z</time>
      </trkpt>
      <trkpt lat="48.54916" lon="7.23226">
        <ele>927.929932</ele>
        <time>2012-07-29T09:55:23Z</time>
      </trkpt>
      <trkpt lat="48.5492" lon="7.23328">
        <ele>937.914307</ele>
        <time>2012-07-29T09:56:24Z</time>
      </trkpt>
      <trkpt lat="48.54942" lon="7.23497">
        <ele>957.273682</ele>
        <time>2012-07-29T09:58:07Z</time>
      </trkpt>
      <trkpt lat="48.54967" lon="7.2363">
        <ele>967.226807</ele>
        <time>2012-07-29T09:59:26Z</time>
      </trkpt>
      <trkpt lat="48.54969" lon="7.23768">
        <ele>973.179932</ele>
        <time>2012-07-29T10:00:39Z</time>
      </trkpt>
      <trkpt lat="48.54961" lon="7.23835">
        <ele>981.648682</ele>
        <time>2012-07-29T10:01:22Z</time>
      </trkpt>
      <trkpt lat="48.54942" lon="7.23855">
        <ele>981.336182</ele>
        <time>2012-07-29T10:01:48Z</time>
      </trkpt>
      <trkpt lat="48.5488" lon="7.23897">
        <ele>991.789307</ele>
        <time>2012-07-29T10:02:43Z</time>
      </trkpt>
      <trkpt lat="48.54873" lon="7.23929">
        <ele>987.039307</ele>
        <time>2012-07-29T10:02:52Z</time>
      </trkpt>
      <trkpt lat="48.54873" lon="7.23998">
        <ele>988.476807</ele>
        <time>2012-07-29T10:03:40Z</time>
      </trkpt>
      <trkpt lat="48.54893" lon="7.24014">
        <ele>994.867432</ele>
        <time>2012-07-29T10:03:59Z</time>
      </trkpt>
      <trkpt lat="48.54928" lon="7.23971">
        <ele>1005.148682</ele>
        <time>2012-07-29T10:04:48Z</time>
      </trkpt>
      <trkpt lat="48.54921" lon="7.24003">
        <ele>1009.617432</ele>
        <time>2012-07-29T10:06:06Z</time>
      </trkpt>
      <trkpt lat="48.54943" lon="7.23997">
        <ele>999.226807</ele>
        <time>2012-07-29T10:14:50Z</time>
      </trkpt>
      <trkpt lat="48.54937" lon="7.23964">
        <ele>996.429932</ele>
        <time>2012-07-29T10:15:12Z</time>
      </trkpt>
      <trkpt lat="48.54914" lon="7.23967">
        <ele>995.242432</ele>
        <time>2012-07-29T10:15:39Z</time>
      </trkpt>
      <trkpt lat="48.54888" lon="7.2402">
        <ele>980.226807</ele>
        <time>2012-07-29T10:16:17Z</time>
      </trkpt>
      <trkpt lat="48.54883" lon="7.23954">
        <ele>971.679932</ele>
        <time>2012-07-29T10:17:26Z</time>
      </trkpt>
      <trkpt lat="48.5491" lon="7.23898">
        <ele>969.586182</ele>
        <time>2012-07-29T10:18:14Z</time>
      </trkpt>
      <trkpt lat="48.54931" lon="7.23881">
        <ele>964.945557</ele>
        <time>2012-07-29T10:18:30Z</time>
      </trkpt>
      <trkpt lat="48.54953" lon="7.23875">
        <ele>960.523682</ele>
        <time>2012-07-29T10:18:48Z</time>
      </trkpt>
      <trkpt lat="48.54966" lon="7.23849">
        <ele>951.148682</ele>
        <time>2012-07-29T10:19:05Z</time>
      </trkpt>
      <trkpt lat="48.54972" lon="7.23817">
        <ele>944.570557</ele>
        <time>2012-07-29T10:19:29Z</time>
      </trkpt>
      <trkpt lat="48.54967" lon="7.23715">
        <ele>944.726807</ele>
        <time>2012-07-29T10:20:31Z</time>
      </trkpt>
      <trkpt lat="48.54974" lon="7.23646">
        <ele>945.820557</ele>
        <time>2012-07-29T10:21:05Z</time>
      </trkpt>
      <trkpt lat="48.54963" lon="7.23616">
        <ele>944.523682</ele>
        <time>2012-07-29T10:21:27Z</time>
      </trkpt>
      <trkpt lat="48.54971" lon="7.23582">
        <ele>946.414307</ele>
        <time>2012-07-29T10:21:40Z</time>
      </trkpt>
      <trkpt lat="48.54951" lon="7.2352">
        <ele>945.679932</ele>
        <time>2012-07-29T10:22:32Z</time>
      </trkpt>
      <trkpt lat="48.54947" lon="7.23486">
        <ele>947.273682</ele>
        <time>2012-07-29T10:22:47Z</time>
      </trkpt>
      <trkpt lat="48.54949" lon="7.23377">
        <ele>947.289307</ele>
        <time>2012-07-29T10:23:46Z</time>
      </trkpt>
      <trkpt lat="48.54924" lon="7.23313">
        <ele>942.429932</ele>
        <time>2012-07-29T10:24:23Z</time>
      </trkpt>
      <trkpt lat="48.54928" lon="7.2314">
        <ele>935.461182</ele>
        <time>2012-07-29T10:26:01Z</time>
      </trkpt>
      <trkpt lat="48.54875" lon="7.23027">
        <ele>933.851807</ele>
        <time>2012-07-29T10:27:13Z</time>
      </trkpt>
      <trkpt lat="48.54864" lon="7.22924">
        <ele>926.523682</ele>
        <time>2012-07-29T10:28:12Z</time>
      </trkpt>
      <trkpt lat="48.54842" lon="7.22914">
        <ele>923.961182</ele>
        <time>2012-07-29T10:29:12Z</time>
      </trkpt>
      <trkpt lat="48.5482" lon="7.22852">
        <ele>936.070557</ele>
        <time>2012-07-29T10:31:57Z</time>
      </trkpt>
      <trkpt lat="48.54787" lon="7.22806">
        <ele>943.117432</ele>
        <time>2012-07-29T10:32:18Z</time>
      </trkpt>
      <trkpt lat="48.54736" lon="7.2265">
        <ele>969.976807</ele>
        <time>2012-07-29T10:33:00Z</time>
      </trkpt>
      <trkpt lat="48.54642" lon="7.22487">
        <ele>987.726807</ele>
        <time>2012-07-29T10:33:48Z</time>
      </trkpt>
      <trkpt lat="48.54639" lon="7.22455">
        <ele>995.101807</ele>
        <time>2012-07-29T10:33:57Z</time>
      </trkpt>
      <trkpt lat="48.5462" lon="7.22436">
        <ele>998.054932</ele>
        <time>2012-07-29T10:34:02Z</time>
      </trkpt>
      <trkpt lat="48.54596" lon="7.22433">
        <ele>988.867432</ele>
        <time>2012-07-29T10:34:06Z</time>
      </trkpt>
      <trkpt lat="48.54578" lon="7.22407">
        <ele>985.773682</ele>
        <time>2012-07-29T10:34:12Z</time>
      </trkpt>
      <trkpt lat="48.5457" lon="7.22336">
        <ele>983.586182</ele>
        <time>2012-07-29T10:34:28Z</time>
      </trkpt>
      <trkpt lat="48.54577" lon="7.22189">
        <ele>994.617432</ele>
        <time>2012-07-29T10:34:56Z</time>
      </trkpt>
      <trkpt lat="48.54572" lon="7.22112">
        <ele>994.023682</ele>
        <time>2012-07-29T10:35:08Z</time>
      </trkpt>
      <trkpt lat="48.54576" lon="7.22003">
        <ele>978.211182</ele>
        <time>2012-07-29T10:35:28Z</time>
      </trkpt>
      <trkpt lat="48.54599" lon="7.21905">
        <ele>978.836182</ele>
        <time>2012-07-29T10:35:49Z</time>
      </trkpt>
      <trkpt lat="48.54628" lon="7.21846">
        <ele>978.773682</ele>
        <time>2012-07-29T10:36:05Z</time>
      </trkpt>
      <trkpt lat="48.54631" lon="7.21811">
        <ele>985.289307</ele>
        <time>2012-07-29T10:36:17Z</time>
      </trkpt>
      <trkpt lat="48.54623" lon="7.21779">
        <ele>992.258057</ele>
        <time>2012-07-29T10:36:24Z</time>
      </trkpt>
      <trkpt lat="48.54636" lon="7.21674">
        <ele>1000.445557</ele>
        <time>2012-07-29T10:36:43Z</time>
      </trkpt>
      <trkpt lat="48.54639" lon="7.21563">
        <ele>998.851807</ele>
        <time>2012-07-29T10:37:01Z</time>
      </trkpt>
      <trkpt lat="48.54632" lon="7.21494">
        <ele>1003.242432</ele>
        <time>2012-07-29T10:37:13Z</time>
      </trkpt>
      <trkpt lat="48.5464" lon="7.21389">
        <ele>1013.554932</ele>
        <time>2012-07-29T10:37:31Z</time>
      </trkpt>
      <trkpt lat="48.54628" lon="7.21284">
        <ele>1008.398682</ele>
        <time>2012-07-29T10:37:46Z</time>
      </trkpt>
      <trkpt lat="48.54631" lon="7.21177">
        <ele>993.304932</ele>
        <time>2012-07-29T10:38:01Z</time>
      </trkpt>
      <trkpt lat="48.54625" lon="7.21139">
        <ele>988.554932</ele>
        <time>2012-07-29T10:38:08Z</time>
      </trkpt>
      <trkpt lat="48.54648" lon="7.21122">
        <ele>974.414307</ele>
        <time>2012-07-29T10:38:13Z</time>
      </trkpt>
      <trkpt lat="48.54701" lon="7.21044">
        <ele>959.273682</ele>
        <time>2012-07-29T10:38:31Z</time>
      </trkpt>
      <trkpt lat="48.54722" lon="7.21028">
        <ele>955.258057</ele>
        <time>2012-07-29T10:38:54Z</time>
      </trkpt>
      <trkpt lat="48.54791" lon="7.2106">
        <ele>975.164307</ele>
        <time>2012-07-29T10:39:15Z</time>
      </trkpt>
      <trkpt lat="48.54889" lon="7.21073">
        <ele>984.242432</ele>
        <time>2012-07-29T10:39:40Z</time>
      </trkpt>
      <trkpt lat="48.54936" lon="7.21091">
        <ele>969.086182</ele>
        <time>2012-07-29T10:39:51Z</time>
      </trkpt>
      <trkpt lat="48.54985" lon="7.21087">
        <ele>965.117432</ele>
        <time>2012-07-29T10:40:04Z</time>
      </trkpt>
      <trkpt lat="48.55035" lon="7.21073">
        <ele>968.820557</ele>
        <time>2012-07-29T10:40:18Z</time>
      </trkpt>
      <trkpt lat="48.55095" lon="7.21023">
        <ele>945.617432</ele>
        <time>2012-07-29T10:40:35Z</time>
      </trkpt>
      <trkpt lat="48.55142" lon="7.20897">
        <ele>937.117432</ele>
        <time>2012-07-29T10:40:51Z</time>
      </trkpt>
      <trkpt lat="48.55165" lon="7.20787">
        <ele>932.117432</ele>
        <time>2012-07-29T10:41:02Z</time>
      </trkpt>
      <trkpt lat="48.55157" lon="7.20302">
        <ele>911.570557</ele>
        <time>2012-07-29T10:41:47Z</time>
      </trkpt>
      <trkpt lat="48.55152" lon="7.20234">
        <ele>899.648682</ele>
        <time>2012-07-29T10:41:58Z</time>
      </trkpt>
      <trkpt lat="48.5513" lon="7.20258">
        <ele>894.711182</ele>
        <time>2012-07-29T10:42:26Z</time>
      </trkpt>
      <trkpt lat="48.5505" lon="7.20416">
        <ele>887.133057</ele>
        <time>2012-07-29T10:42:46Z</time>
      </trkpt>
      <trkpt lat="48.54965" lon="7.20605">
        <ele>871.414307</ele>
        <time>2012-07-29T10:43:10Z</time>
      </trkpt>
      <trkpt lat="48.5494" lon="7.20614">
        <ele>867.883057</ele>
        <time>2012-07-29T10:43:16Z</time>
      </trkpt>
      <trkpt lat="48.54922" lon="7.20594">
        <ele>864.929932</ele>
        <time>2012-07-29T10:43:22Z</time>
      </trkpt>
      <trkpt lat="48.54858" lon="7.20479">
        <ele>858.429932</ele>
        <time>2012-07-29T10:43:40Z</time>
      </trkpt>
      <trkpt lat="48.54812" lon="7.20425">
        <ele>851.008057</ele>
        <time>2012-07-29T10:43:48Z</time>
      </trkpt>
      <trkpt lat="48.54698" lon="7.20321">
        <ele>841.383057</ele>
        <time>2012-07-29T10:44:04Z</time>
      </trkpt>
      <trkpt lat="48.54619" lon="7.20269">
        <ele>831.336182</ele>
        <time>2012-07-29T10:44:13Z</time>
      </trkpt>
      <trkpt lat="48.54565" lon="7.20247">
        <ele>825.758057</ele>
        <time>2012-07-29T10:44:19Z</time>
      </trkpt>
      <trkpt lat="48.54483" lon="7.20242">
        <ele>824.242432</ele>
        <time>2012-07-29T10:44:27Z</time>
      </trkpt>
      <trkpt lat="48.54455" lon="7.20249">
        <ele>824.226807</ele>
        <time>2012-07-29T10:44:30Z</time>
      </trkpt>
      <trkpt lat="48.54405" lon="7.20274">
        <ele>821.867432</ele>
        <time>2012-07-29T10:44:36Z</time>
      </trkpt>
      <trkpt lat="48.54384" lon="7.20301">
        <ele>820.570557</ele>
        <time>2012-07-29T10:44:39Z</time>
      </trkpt>
      <trkpt lat="48.54349" lon="7.20376">
        <ele>814.929932</ele>
        <time>2012-07-29T10:44:45Z</time>
      </trkpt>
      <trkpt lat="48.54321" lon="7.20492">
        <ele>798.164307</ele>
        <time>2012-07-29T10:44:52Z</time>
      </trkpt>
      <trkpt lat="48.54313" lon="7.20578">
        <ele>787.320557</ele>
        <time>2012-07-29T10:44:58Z</time>
      </trkpt>
      <trkpt lat="48.54315" lon="7.2066">
        <ele>780.601807</ele>
        <time>2012-07-29T10:45:04Z</time>
      </trkpt>
      <trkpt lat="48.54294" lon="7.20585">
        <ele>777.476807</ele>
        <time>2012-07-29T10:46:05Z</time>
      </trkpt>
      <trkpt lat="48.5429" lon="7.20545">
        <ele>778.758057</ele>
        <time>2012-07-29T10:46:10Z</time>
      </trkpt>
      <trkpt lat="48.54293" lon="7.20467">
        <ele>781.695557</ele>
        <time>2012-07-29T10:46:18Z</time>
      </trkpt>
      <trkpt lat="48.54319" lon="7.20321">
        <ele>785.898682</ele>
        <time>2012-07-29T10:46:35Z</time>
      </trkpt>
      <trkpt lat="48.54358" lon="7.20259">
        <ele>790.148682</ele>
        <time>2012-07-29T10:46:45Z</time>
      </trkpt>
      <trkpt lat="48.54443" lon="7.20197">
        <ele>815.008057</ele>
        <time>2012-07-29T10:47:02Z</time>
      </trkpt>
      <trkpt lat="48.54538" lon="7.20166">
        <ele>828.351807</ele>
        <time>2012-07-29T10:47:18Z</time>
      </trkpt>
      <trkpt lat="48.54562" lon="7.2017">
        <ele>827.508057</ele>
        <time>2012-07-29T10:47:22Z</time>
      </trkpt>
      <trkpt lat="48.54611" lon="7.20183">
        <ele>825.617432</ele>
        <time>2012-07-29T10:47:32Z</time>
      </trkpt>
      <trkpt lat="48.5466" lon="7.20208">
        <ele>822.976807</ele>
        <time>2012-07-29T10:47:41Z</time>
      </trkpt>
      <trkpt lat="48.54726" lon="7.20262">
        <ele>832.039307</ele>
        <time>2012-07-29T10:47:55Z</time>
      </trkpt>
      <trkpt lat="48.54826" lon="7.20323">
        <ele>849.648682</ele>
        <time>2012-07-29T10:48:14Z</time>
      </trkpt>
      <trkpt lat="48.54849" lon="7.20317">
        <ele>853.554932</ele>
        <time>2012-07-29T10:48:18Z</time>
      </trkpt>
      <trkpt lat="48.5486" lon="7.20287">
        <ele>862.851807</ele>
        <time>2012-07-29T10:48:27Z</time>
      </trkpt>
      <trkpt lat="48.5486" lon="7.20247">
        <ele>870.070557</ele>
        <time>2012-07-29T10:48:35Z</time>
      </trkpt>
      <trkpt lat="48.5485" lon="7.20216">
        <ele>875.023682</ele>
        <time>2012-07-29T10:48:40Z</time>
      </trkpt>
      <trkpt lat="48.54856" lon="7.20108">
        <ele>882.273682</ele>
        <time>2012-07-29T10:48:50Z</time>
      </trkpt>
      <trkpt lat="48.54869" lon="7.20046">
        <ele>877.570557</ele>
        <time>2012-07-29T10:48:58Z</time>
      </trkpt>
      <trkpt lat="48.5487" lon="7.19975">
        <ele>863.445557</ele>
        <time>2012-07-29T10:49:12Z</time>
      </trkpt>
      <trkpt lat="48.5486" lon="7.19906">
        <ele>853.742432</ele>
        <time>2012-07-29T10:49:21Z</time>
      </trkpt>
      <trkpt lat="48.54865" lon="7.19872">
        <ele>849.429932</ele>
        <time>2012-07-29T10:49:24Z</time>
      </trkpt>
      <trkpt lat="48.54844" lon="7.19809">
        <ele>841.101807</ele>
        <time>2012-07-29T10:49:32Z</time>
      </trkpt>
      <trkpt lat="48.54844" lon="7.19769">
        <ele>839.398682</ele>
        <time>2012-07-29T10:49:37Z</time>
      </trkpt>
      <trkpt lat="48.54832" lon="7.19738">
        <ele>837.867432</ele>
        <time>2012-07-29T10:49:41Z</time>
      </trkpt>
      <trkpt lat="48.54827" lon="7.19696">
        <ele>836.539307</ele>
        <time>2012-07-29T10:49:46Z</time>
      </trkpt>
      <trkpt lat="48.54786" lon="7.19562">
        <ele>832.117432</ele>
        <time>2012-07-29T10:50:04Z</time>
      </trkpt>
      <trkpt lat="48.54785" lon="7.19528">
        <ele>828.476807</ele>
        <time>2012-07-29T10:50:08Z</time>
      </trkpt>
      <trkpt lat="48.54754" lon="7.19428">
        <ele>826.195557</ele>
        <time>2012-07-29T10:50:21Z</time>
      </trkpt>
      <trkpt lat="48.5474" lon="7.19283">
        <ele>818.898682</ele>
        <time>2012-07-29T10:50:45Z</time>
      </trkpt>
      <trkpt lat="48.54725" lon="7.19255">
        <ele>828.586182</ele>
        <time>2012-07-29T10:50:52Z</time>
      </trkpt>
      <trkpt lat="48.54653" lon="7.19217">
        <ele>853.367432</ele>
        <time>2012-07-29T10:51:03Z</time>
      </trkpt>
      <trkpt lat="48.54614" lon="7.19172">
        <ele>864.039307</ele>
        <time>2012-07-29T10:51:11Z</time>
      </trkpt>
      <trkpt lat="48.54591" lon="7.19155">
        <ele>868.617432</ele>
        <time>2012-07-29T10:51:20Z</time>
      </trkpt>
      <trkpt lat="48.54565" lon="7.1906">
        <ele>868.508057</ele>
        <time>2012-07-29T10:52:43Z</time>
      </trkpt>
      <trkpt lat="48.54551" lon="7.19035">
        <ele>862.851807</ele>
        <time>2012-07-29T10:54:07Z</time>
      </trkpt>
      <trkpt lat="48.5448" lon="7.19066">
        <ele>853.211182</ele>
        <time>2012-07-29T10:56:01Z</time>
      </trkpt>
      <trkpt lat="48.54459" lon="7.19085">
        <ele>850.711182</ele>
        <time>2012-07-29T10:56:07Z</time>
      </trkpt>
      <trkpt lat="48.54446" lon="7.19115">
        <ele>846.804932</ele>
        <time>2012-07-29T10:56:20Z</time>
      </trkpt>
      <trkpt lat="48.54381" lon="7.19158">
        <ele>845.883057</ele>
        <time>2012-07-29T10:56:39Z</time>
      </trkpt>
      <trkpt lat="48.54331" lon="7.19176">
        <ele>840.804932</ele>
        <time>2012-07-29T10:56:50Z</time>
      </trkpt>
      <trkpt lat="48.54237" lon="7.19186">
        <ele>848.008057</ele>
        <time>2012-07-29T10:57:20Z</time>
      </trkpt>
      <trkpt lat="48.54161" lon="7.19167">
        <ele>834.961182</ele>
        <time>2012-07-29T10:57:34Z</time>
      </trkpt>
      <trkpt lat="48.54114" lon="7.19164">
        <ele>843.242432</ele>
        <time>2012-07-29T10:57:47Z</time>
      </trkpt>
      <trkpt lat="48.54069" lon="7.19147">
        <ele>852.773682</ele>
        <time>2012-07-29T10:58:03Z</time>
      </trkpt>
      <trkpt lat="48.5401" lon="7.19078">
        <ele>857.820557</ele>
        <time>2012-07-29T10:58:18Z</time>
      </trkpt>
      <trkpt lat="48.53987" lon="7.1906">
        <ele>857.820557</ele>
        <time>2012-07-29T10:58:23Z</time>
      </trkpt>
      <trkpt lat="48.53963" lon="7.19055">
        <ele>861.414307</ele>
        <time>2012-07-29T10:58:29Z</time>
      </trkpt>
      <trkpt lat="48.53947" lon="7.19026">
        <ele>862.773682</ele>
        <time>2012-07-29T10:58:35Z</time>
      </trkpt>
      <trkpt lat="48.53902" lon="7.19004">
        <ele>869.664307</ele>
        <time>2012-07-29T10:58:47Z</time>
      </trkpt>
      <trkpt lat="48.53859" lon="7.18974">
        <ele>871.023682</ele>
        <time>2012-07-29T10:58:58Z</time>
      </trkpt>
      <trkpt lat="48.53806" lon="7.18964">
        <ele>872.945557</ele>
        <time>2012-07-29T10:59:07Z</time>
      </trkpt>
      <trkpt lat="48.53787" lon="7.18943">
        <ele>868.726807</ele>
        <time>2012-07-29T10:59:12Z</time>
      </trkpt>
      <trkpt lat="48.53761" lon="7.18928">
        <ele>869.695557</ele>
        <time>2012-07-29T10:59:19Z</time>
      </trkpt>
      <trkpt lat="48.53688" lon="7.18922">
        <ele>877.226807</ele>
        <time>2012-07-29T10:59:32Z</time>
      </trkpt>
      <trkpt lat="48.53685" lon="7.18849">
        <ele>885.773682</ele>
        <time>2012-07-29T10:59:44Z</time>
      </trkpt>
      <trkpt lat="48.53658" lon="7.18714">
        <ele>906.742432</ele>
        <time>2012-07-29T11:00:08Z</time>
      </trkpt>
      <trkpt lat="48.53659" lon="7.18679">
        <ele>911.289307</ele>
        <time>2012-07-29T11:00:14Z</time>
      </trkpt>
      <trkpt lat="48.53619" lon="7.18539">
        <ele>929.508057</ele>
        <time>2012-07-29T11:00:40Z</time>
      </trkpt>
      <trkpt lat="48.53596" lon="7.18475">
        <ele>943.289307</ele>
        <time>2012-07-29T11:00:54Z</time>
      </trkpt>
      <trkpt lat="48.53538" lon="7.18408">
        <ele>960.945557</ele>
        <time>2012-07-29T11:01:04Z</time>
      </trkpt>
      <trkpt lat="48.53518" lon="7.18342">
        <ele>976.898682</ele>
        <time>2012-07-29T11:01:14Z</time>
      </trkpt>
      <trkpt lat="48.53508" lon="7.18271">
        <ele>988.539307</ele>
        <time>2012-07-29T11:01:23Z</time>
      </trkpt>
      <trkpt lat="48.53495" lon="7.18239">
        <ele>994.070557</ele>
        <time>2012-07-29T11:01:28Z</time>
      </trkpt>
      <trkpt lat="48.53473" lon="7.18212">
        <ele>998.711182</ele>
        <time>2012-07-29T11:01:32Z</time>
      </trkpt>
      <trkpt lat="48.53479" lon="7.18137">
        <ele>1008.429932</ele>
        <time>2012-07-29T11:01:43Z</time>
      </trkpt>
      <trkpt lat="48.53471" lon="7.181">
        <ele>1014.273682</ele>
        <time>2012-07-29T11:01:49Z</time>
      </trkpt>
      <trkpt lat="48.53452" lon="7.17997">
        <ele>1031.922363</ele>
        <time>2012-07-29T11:02:06Z</time>
      </trkpt>
      <trkpt lat="48.53419" lon="7.17893">
        <ele>1044.547363</ele>
        <time>2012-07-29T11:02:23Z</time>
      </trkpt>
      <trkpt lat="48.53423" lon="7.17818">
        <ele>1053.578613</ele>
        <time>2012-07-29T11:02:33Z</time>
      </trkpt>
      <trkpt lat="48.53413" lon="7.17783">
        <ele>1057.391113</ele>
        <time>2012-07-29T11:02:38Z</time>
      </trkpt>
      <trkpt lat="48.53391" lon="7.17762">
        <ele>1059.547363</ele>
        <time>2012-07-29T11:02:41Z</time>
      </trkpt>
      <trkpt lat="48.5336" lon="7.17702">
        <ele>1063.547363</ele>
        <time>2012-07-29T11:02:51Z</time>
      </trkpt>
      <trkpt lat="48.53371" lon="7.17666">
        <ele>1055.047363</ele>
        <time>2012-07-29T11:02:54Z</time>
      </trkpt>
      <trkpt lat="48.53344" lon="7.17651">
        <ele>1049.641113</ele>
        <time>2012-07-29T11:02:57Z</time>
      </trkpt>
      <trkpt lat="48.53327" lon="7.17625">
        <ele>1048.141113</ele>
        <time>2012-07-29T11:03:04Z</time>
      </trkpt>
      <trkpt lat="48.53321" lon="7.17593">
        <ele>1046.109863</ele>
        <time>2012-07-29T11:03:12Z</time>
      </trkpt>
      <trkpt lat="48.53291" lon="7.17542">
        <ele>1053.328613</ele>
        <time>2012-07-29T11:03:40Z</time>
      </trkpt>
      <trkpt lat="48.53288" lon="7.17473">
        <ele>1053.984863</ele>
        <time>2012-07-29T11:04:11Z</time>
      </trkpt>
      <trkpt lat="48.53275" lon="7.17444">
        <ele>1053.047363</ele>
        <time>2012-07-29T11:04:29Z</time>
      </trkpt>
      <trkpt lat="48.532" lon="7.17367">
        <ele>1026.047363</ele>
        <time>2012-07-29T11:04:59Z</time>
      </trkpt>
      <trkpt lat="48.53142" lon="7.17272">
        <ele>987.492432</ele>
        <time>2012-07-29T11:05:49Z</time>
      </trkpt>
      <trkpt lat="48.53122" lon="7.1721">
        <ele>968.133057</ele>
        <time>2012-07-29T11:06:16Z</time>
      </trkpt>
      <trkpt lat="48.53098" lon="7.17196">
        <ele>959.054932</ele>
        <time>2012-07-29T11:06:22Z</time>
      </trkpt>
      <trkpt lat="48.53063" lon="7.17145">
        <ele>934.586182</ele>
        <time>2012-07-29T11:06:38Z</time>
      </trkpt>
      <trkpt lat="48.52903" lon="7.16956">
        <ele>815.070557</ele>
        <time>2012-07-29T11:08:01Z</time>
      </trkpt>
      <trkpt lat="48.52843" lon="7.16904">
        <ele>809.898682</ele>
        <time>2012-07-29T11:08:46Z</time>
      </trkpt>
      <trkpt lat="48.52781" lon="7.16863">
        <ele>808.164307</ele>
        <time>2012-07-29T11:09:31Z</time>
      </trkpt>
      <trkpt lat="48.52771" lon="7.16795">
        <ele>804.445557</ele>
        <time>2012-07-29T11:12:08Z</time>
      </trkpt>
      <trkpt lat="48.52741" lon="7.16745">
        <ele>817.523682</ele>
        <time>2012-07-29T11:12:38Z</time>
      </trkpt>
      <trkpt lat="48.5272" lon="7.16729">
        <ele>821.804932</ele>
        <time>2012-07-29T11:12:49Z</time>
      </trkpt>
      <trkpt lat="48.52654" lon="7.16691">
        <ele>831.320557</ele>
        <time>2012-07-29T11:13:24Z</time>
      </trkpt>
      <trkpt lat="48.52608" lon="7.16677">
        <ele>838.586182</ele>
        <time>2012-07-29T11:13:44Z</time>
      </trkpt>
      <trkpt lat="48.5254" lon="7.16697">
        <ele>845.914307</ele>
        <time>2012-07-29T11:14:17Z</time>
      </trkpt>
      <trkpt lat="48.52492" lon="7.16697">
        <ele>850.601807</ele>
        <time>2012-07-29T11:14:41Z</time>
      </trkpt>
      <trkpt lat="48.52468" lon="7.16703">
        <ele>853.851807</ele>
        <time>2012-07-29T11:14:53Z</time>
      </trkpt>
      <trkpt lat="48.52364" lon="7.16772">
        <ele>871.367432</ele>
        <time>2012-07-29T11:15:49Z</time>
      </trkpt>
      <trkpt lat="48.52318" lon="7.16788">
        <ele>880.179932</ele>
        <time>2012-07-29T11:16:16Z</time>
      </trkpt>
      <trkpt lat="48.52261" lon="7.16844">
        <ele>898.289307</ele>
        <time>2012-07-29T11:16:56Z</time>
      </trkpt>
      <trkpt lat="48.52188" lon="7.16932">
        <ele>905.258057</ele>
        <time>2012-07-29T11:17:51Z</time>
      </trkpt>
      <trkpt lat="48.52165" lon="7.1694">
        <ele>909.586182</ele>
        <time>2012-07-29T11:18:04Z</time>
      </trkpt>
      <trkpt lat="48.52145" lon="7.16957">
        <ele>917.758057</ele>
        <time>2012-07-29T11:18:18Z</time>
      </trkpt>
      <trkpt lat="48.52076" lon="7.17049">
        <ele>939.023682</ele>
        <time>2012-07-29T11:18:57Z</time>
      </trkpt>
      <trkpt lat="48.52006" lon="7.17068">
        <ele>959.273682</ele>
        <time>2012-07-29T11:19:19Z</time>
      </trkpt>
      <trkpt lat="48.51994" lon="7.17094">
        <ele>968.961182</ele>
        <time>2012-07-29T11:19:30Z</time>
      </trkpt>
      <trkpt lat="48.5197" lon="7.17098">
        <ele>978.586182</ele>
        <time>2012-07-29T11:19:40Z</time>
      </trkpt>
      <trkpt lat="48.51937" lon="7.17048">
        <ele>999.367432</ele>
        <time>2012-07-29T11:20:14Z</time>
      </trkpt>
      <trkpt lat="48.51892" lon="7.17024">
        <ele>1001.867432</ele>
        <time>2012-07-29T11:20:37Z</time>
      </trkpt>
      <trkpt lat="48.51859" lon="7.17027">
        <ele>1004.414307</ele>
        <time>2012-07-29T11:20:41Z</time>
      </trkpt>
      <trkpt lat="48.51743" lon="7.17073">
        <ele>1007.679932</ele>
        <time>2012-07-29T11:21:24Z</time>
      </trkpt>
      <trkpt lat="48.51685" lon="7.17083">
        <ele>1002.820557</ele>
        <time>2012-07-29T11:21:26Z</time>
      </trkpt>
      <trkpt lat="48.51612" lon="7.1707">
        <ele>990.101807</ele>
        <time>2012-07-29T11:21:30Z</time>
      </trkpt>
      <trkpt lat="48.51593" lon="7.17077">
        <ele>976.320557</ele>
        <time>2012-07-29T11:21:39Z</time>
      </trkpt>
      <trkpt lat="48.51571" lon="7.17062">
        <ele>957.554932</ele>
        <time>2012-07-29T11:22:05Z</time>
      </trkpt>
      <trkpt lat="48.51584" lon="7.17041">
        <ele>941.179932</ele>
        <time>2012-07-29T11:23:17Z</time>
      </trkpt>
      <trkpt lat="48.51596" lon="7.17042">
        <ele>919.523682</ele>
        <time>2012-07-29T11:23:29Z</time>
      </trkpt>
      <trkpt lat="48.51591" lon="7.17029">
        <ele>897.133057</ele>
        <time>2012-07-29T11:26:14Z</time>
      </trkpt>
      <trkpt lat="48.51582" lon="7.17025">
        <ele>874.336182</ele>
        <time>2012-07-29T11:32:10Z</time>
      </trkpt>
      <trkpt lat="48.51591" lon="7.17016">
        <ele>852.523682</ele>
        <time>2012-07-29T12:02:30Z</time>
      </trkpt>
      <trkpt lat="48.51585" lon="7.16986">
        <ele>840.867432</ele>
        <time>2012-07-29T12:26:09Z</time>
      </trkpt>
      <trkpt lat="48.51569" lon="7.16957">
        <ele>832.945557</ele>
        <time>2012-07-29T12:26:19Z</time>
      </trkpt>
      <trkpt lat="48.51481" lon="7.16899">
        <ele>833.054932</ele>
        <time>2012-07-29T12:26:48Z</time>
      </trkpt>
      <trkpt lat="48.51433" lon="7.16904">
        <ele>832.804932</ele>
        <time>2012-07-29T12:27:12Z</time>
      </trkpt>
      <trkpt lat="48.51411" lon="7.16913">
        <ele>832.836182</ele>
        <time>2012-07-29T12:27:20Z</time>
      </trkpt>
      <trkpt lat="48.51343" lon="7.16959">
        <ele>840.836182</ele>
        <time>2012-07-29T12:27:42Z</time>
      </trkpt>
      <trkpt lat="48.51307" lon="7.17">
        <ele>842.398682</ele>
        <time>2012-07-29T12:27:56Z</time>
      </trkpt>
      <trkpt lat="48.51263" lon="7.17032">
        <ele>841.961182</ele>
        <time>2012-07-29T12:28:14Z</time>
      </trkpt>
      <trkpt lat="48.51217" lon="7.17044">
        <ele>837.883057</ele>
        <time>2012-07-29T12:28:30Z</time>
      </trkpt>
      <trkpt lat="48.51101" lon="7.1701">
        <ele>824.414307</ele>
        <time>2012-07-29T12:29:04Z</time>
      </trkpt>
      <trkpt lat="48.51025" lon="7.16922">
        <ele>826.679932</ele>
        <time>2012-07-29T12:29:35Z</time>
      </trkpt>
      <trkpt lat="48.50909" lon="7.16737">
        <ele>820.742432</ele>
        <time>2012-07-29T12:30:27Z</time>
      </trkpt>
      <trkpt lat="48.50874" lon="7.16607">
        <ele>820.367432</ele>
        <time>2012-07-29T12:30:55Z</time>
      </trkpt>
      <trkpt lat="48.50837" lon="7.16566">
        <ele>817.008057</ele>
        <time>2012-07-29T12:31:14Z</time>
      </trkpt>
      <trkpt lat="48.50769" lon="7.16533">
        <ele>823.773682</ele>
        <time>2012-07-29T12:31:31Z</time>
      </trkpt>
      <trkpt lat="48.50749" lon="7.16508">
        <ele>824.773682</ele>
        <time>2012-07-29T12:31:38Z</time>
      </trkpt>
      <trkpt lat="48.50722" lon="7.16451">
        <ele>824.617432</ele>
        <time>2012-07-29T12:31:52Z</time>
      </trkpt>
      <trkpt lat="48.50676" lon="7.16285">
        <ele>825.461182</ele>
        <time>2012-07-29T12:32:26Z</time>
      </trkpt>
      <trkpt lat="48.50702" lon="7.16335">
        <ele>843.336182</ele>
        <time>2012-07-29T12:33:17Z</time>
      </trkpt>
      <trkpt lat="48.50826" lon="7.16421">
        <ele>866.539307</ele>
        <time>2012-07-29T12:35:04Z</time>
      </trkpt>
      <trkpt lat="48.50901" lon="7.16503">
        <ele>875.414307</ele>
        <time>2012-07-29T12:36:18Z</time>
      </trkpt>
      <trkpt lat="48.50922" lon="7.16516">
        <ele>879.008057</ele>
        <time>2012-07-29T12:36:35Z</time>
      </trkpt>
      <trkpt lat="48.50944" lon="7.16517">
        <ele>884.273682</ele>
        <time>2012-07-29T12:36:51Z</time>
      </trkpt>
      <trkpt lat="48.50983" lon="7.1655">
        <ele>892.273682</ele>
        <time>2012-07-29T12:39:23Z</time>
      </trkpt>
      <trkpt lat="48.50998" lon="7.16576">
        <ele>890.461182</ele>
        <time>2012-07-29T12:39:45Z</time>
      </trkpt>
      <trkpt lat="48.51005" lon="7.16609">
        <ele>884.211182</ele>
        <time>2012-07-29T12:40:00Z</time>
      </trkpt>
      <trkpt lat="48.51101" lon="7.16706">
        <ele>892.398682</ele>
        <time>2012-07-29T12:40:59Z</time>
      </trkpt>
      <trkpt lat="48.51156" lon="7.16771">
        <ele>914.242432</ele>
        <time>2012-07-29T12:41:26Z</time>
      </trkpt>
      <trkpt lat="48.51204" lon="7.16797">
        <ele>913.867432</ele>
        <time>2012-07-29T12:41:44Z</time>
      </trkpt>
      <trkpt lat="48.51228" lon="7.16799">
        <ele>911.211182</ele>
        <time>2012-07-29T12:41:53Z</time>
      </trkpt>
      <trkpt lat="48.51215" lon="7.1677">
        <ele>909.117432</ele>
        <time>2012-07-29T12:42:18Z</time>
      </trkpt>
      <trkpt lat="48.51178" lon="7.16731">
        <ele>915.383057</ele>
        <time>2012-07-29T12:42:40Z</time>
      </trkpt>
      <trkpt lat="48.51151" lon="7.16674">
        <ele>911.242432</ele>
        <time>2012-07-29T12:43:02Z</time>
      </trkpt>
      <trkpt lat="48.51107" lon="7.16474">
        <ele>916.320557</ele>
        <time>2012-07-29T12:44:23Z</time>
      </trkpt>
      <trkpt lat="48.51078" lon="7.16381">
        <ele>932.836182</ele>
        <time>2012-07-29T12:44:59Z</time>
      </trkpt>
      <trkpt lat="48.51066" lon="7.16355">
        <ele>942.976807</ele>
        <time>2012-07-29T12:45:12Z</time>
      </trkpt>
      <trkpt lat="48.50981" lon="7.1623">
        <ele>941.804932</ele>
        <time>2012-07-29T12:46:20Z</time>
      </trkpt>
      <trkpt lat="48.50962" lon="7.16167">
        <ele>942.867432</ele>
        <time>2012-07-29T12:46:44Z</time>
      </trkpt>
      <trkpt lat="48.50957" lon="7.16131">
        <ele>945.945557</ele>
        <time>2012-07-29T12:46:55Z</time>
      </trkpt>
      <trkpt lat="48.50967" lon="7.161">
        <ele>949.711182</ele>
        <time>2012-07-29T12:47:07Z</time>
      </trkpt>
      <trkpt lat="48.50986" lon="7.16079">
        <ele>955.289307</ele>
        <time>2012-07-29T12:47:22Z</time>
      </trkpt>
      <trkpt lat="48.51009" lon="7.16078">
        <ele>955.226807</ele>
        <time>2012-07-29T12:47:34Z</time>
      </trkpt>
      <trkpt lat="48.51053" lon="7.16105">
        <ele>959.320557</ele>
        <time>2012-07-29T12:47:58Z</time>
      </trkpt>
      <trkpt lat="48.51086" lon="7.16155">
        <ele>961.164307</ele>
        <time>2012-07-29T12:48:22Z</time>
      </trkpt>
      <trkpt lat="48.51091" lon="7.16188">
        <ele>953.211182</ele>
        <time>2012-07-29T12:52:52Z</time>
      </trkpt>
      <trkpt lat="48.51129" lon="7.16226">
        <ele>954.445557</ele>
        <time>2012-07-29T12:54:17Z</time>
      </trkpt>
      <trkpt lat="48.51129" lon="7.16261">
        <ele>955.648682</ele>
        <time>2012-07-29T12:54:51Z</time>
      </trkpt>
      <trkpt lat="48.51144" lon="7.16287">
        <ele>960.633057</ele>
        <time>2012-07-29T12:55:27Z</time>
      </trkpt>
      <trkpt lat="48.51183" lon="7.1632">
        <ele>961.820557</ele>
        <time>2012-07-29T12:56:48Z</time>
      </trkpt>
      <trkpt lat="48.51197" lon="7.16345">
        <ele>966.914307</ele>
        <time>2012-07-29T12:57:29Z</time>
      </trkpt>
      <trkpt lat="48.5125" lon="7.16402">
        <ele>989.289307</ele>
        <time>2012-07-29T12:59:40Z</time>
      </trkpt>
      <trkpt lat="48.51263" lon="7.16429">
        <ele>990.929932</ele>
        <time>2012-07-29T13:00:19Z</time>
      </trkpt>
      <trkpt lat="48.51253" lon="7.16401">
        <ele>999.351807</ele>
        <time>2012-07-29T13:21:03Z</time>
      </trkpt>
      <trkpt lat="48.51211" lon="7.16368">
        <ele>994.648682</ele>
        <time>2012-07-29T13:22:40Z</time>
      </trkpt>
      <trkpt lat="48.51179" lon="7.1632">
        <ele>985.570557</ele>
        <time>2012-07-29T13:23:51Z</time>
      </trkpt>
      <trkpt lat="48.51155" lon="7.1631">
        <ele>981.320557</ele>
        <time>2012-07-29T13:24:31Z</time>
      </trkpt>
      <trkpt lat="48.51143" lon="7.16282">
        <ele>979.211182</ele>
        <time>2012-07-29T13:25:03Z</time>
      </trkpt>
      <trkpt lat="48.51103" lon="7.16248">
        <ele>975.414307</ele>
        <time>2012-07-29T13:25:49Z</time>
      </trkpt>
      <trkpt lat="48.51099" lon="7.16179">
        <ele>975.008057</ele>
        <time>2012-07-29T13:28:30Z</time>
      </trkpt>
      <trkpt lat="48.5109" lon="7.16144">
        <ele>975.758057</ele>
        <time>2012-07-29T13:28:40Z</time>
      </trkpt>
      <trkpt lat="48.51073" lon="7.16117">
        <ele>975.133057</ele>
        <time>2012-07-29T13:28:45Z</time>
      </trkpt>
      <trkpt lat="48.51028" lon="7.16078">
        <ele>970.679932</ele>
        <time>2012-07-29T13:28:53Z</time>
      </trkpt>
      <trkpt lat="48.51001" lon="7.16069">
        <ele>968.258057</ele>
        <time>2012-07-29T13:28:57Z</time>
      </trkpt>
      <trkpt lat="48.50978" lon="7.16074">
        <ele>965.976807</ele>
        <time>2012-07-29T13:28:59Z</time>
      </trkpt>
      <trkpt lat="48.50961" lon="7.16098">
        <ele>963.367432</ele>
        <time>2012-07-29T13:29:02Z</time>
      </trkpt>
      <trkpt lat="48.50965" lon="7.16173">
        <ele>958.773682</ele>
        <time>2012-07-29T13:29:08Z</time>
      </trkpt>
      <trkpt lat="48.50986" lon="7.16242">
        <ele>954.539307</ele>
        <time>2012-07-29T13:29:14Z</time>
      </trkpt>
      <trkpt lat="48.51056" lon="7.16365">
        <ele>948.914307</ele>
        <time>2012-07-29T13:29:26Z</time>
      </trkpt>
      <trkpt lat="48.51068" lon="7.164">
        <ele>947.539307</ele>
        <time>2012-07-29T13:29:29Z</time>
      </trkpt>
      <trkpt lat="48.51106" lon="7.16613">
        <ele>941.773682</ele>
        <time>2012-07-29T13:29:43Z</time>
      </trkpt>
      <trkpt lat="48.51131" lon="7.16689">
        <ele>939.664307</ele>
        <time>2012-07-29T13:29:48Z</time>
      </trkpt>
      <trkpt lat="48.51151" lon="7.16729">
        <ele>938.492432</ele>
        <time>2012-07-29T13:29:51Z</time>
      </trkpt>
      <trkpt lat="48.51177" lon="7.16757">
        <ele>937.695557</ele>
        <time>2012-07-29T13:29:54Z</time>
      </trkpt>
      <trkpt lat="48.51204" lon="7.16774">
        <ele>937.273682</ele>
        <time>2012-07-29T13:29:57Z</time>
      </trkpt>
      <trkpt lat="48.51129" lon="7.16731">
        <ele>939.336182</ele>
        <time>2012-07-29T13:30:23Z</time>
      </trkpt>
      <trkpt lat="48.51113" lon="7.16707">
        <ele>939.804932</ele>
        <time>2012-07-29T13:30:26Z</time>
      </trkpt>
      <trkpt lat="48.51086" lon="7.16693">
        <ele>939.679932</ele>
        <time>2012-07-29T13:30:29Z</time>
      </trkpt>
      <trkpt lat="48.51038" lon="7.16646">
        <ele>939.726807</ele>
        <time>2012-07-29T13:30:34Z</time>
      </trkpt>
      <trkpt lat="48.50995" lon="7.1655">
        <ele>940.492432</ele>
        <time>2012-07-29T13:30:41Z</time>
      </trkpt>
      <trkpt lat="48.50941" lon="7.1654">
        <ele>941.758057</ele>
        <time>2012-07-29T13:30:47Z</time>
      </trkpt>
      <trkpt lat="48.50915" lon="7.16522">
        <ele>941.867432</ele>
        <time>2012-07-29T13:30:50Z</time>
      </trkpt>
      <trkpt lat="48.50863" lon="7.16463">
        <ele>941.398682</ele>
        <time>2012-07-29T13:30:56Z</time>
      </trkpt>
      <trkpt lat="48.50823" lon="7.16428">
        <ele>940.429932</ele>
        <time>2012-07-29T13:31:00Z</time>
      </trkpt>
      <trkpt lat="48.50698" lon="7.16331">
        <ele>940.773682</ele>
        <time>2012-07-29T13:31:21Z</time>
      </trkpt>
      <trkpt lat="48.50675" lon="7.16331">
        <ele>940.367432</ele>
        <time>2012-07-29T13:31:48Z</time>
      </trkpt>
      <trkpt lat="48.50661" lon="7.16357">
        <ele>930.445557</ele>
        <time>2012-07-29T13:32:02Z</time>
      </trkpt>
      <trkpt lat="48.50691" lon="7.16452">
        <ele>907.883057</ele>
        <time>2012-07-29T13:32:22Z</time>
      </trkpt>
      <trkpt lat="48.50726" lon="7.16512">
        <ele>908.898682</ele>
        <time>2012-07-29T13:32:36Z</time>
      </trkpt>
      <trkpt lat="48.50748" lon="7.1653">
        <ele>909.961182</ele>
        <time>2012-07-29T13:32:42Z</time>
      </trkpt>
      <trkpt lat="48.50774" lon="7.16537">
        <ele>909.726807</ele>
        <time>2012-07-29T13:32:48Z</time>
      </trkpt>
      <trkpt lat="48.50799" lon="7.16555">
        <ele>903.914307</ele>
        <time>2012-07-29T13:32:54Z</time>
      </trkpt>
      <trkpt lat="48.50837" lon="7.16608">
        <ele>888.914307</ele>
        <time>2012-07-29T13:33:04Z</time>
      </trkpt>
      <trkpt lat="48.50852" lon="7.16682">
        <ele>883.851807</ele>
        <time>2012-07-29T13:33:13Z</time>
      </trkpt>
      <trkpt lat="48.50866" lon="7.16716">
        <ele>883.336182</ele>
        <time>2012-07-29T13:33:20Z</time>
      </trkpt>
      <trkpt lat="48.50918" lon="7.16791">
        <ele>878.226807</ele>
        <time>2012-07-29T13:33:33Z</time>
      </trkpt>
      <trkpt lat="48.50982" lon="7.16906">
        <ele>884.726807</ele>
        <time>2012-07-29T13:33:57Z</time>
      </trkpt>
      <trkpt lat="48.51059" lon="7.16998">
        <ele>890.304932</ele>
        <time>2012-07-29T13:34:17Z</time>
      </trkpt>
      <trkpt lat="48.51132" lon="7.17036">
        <ele>888.148682</ele>
        <time>2012-07-29T13:34:32Z</time>
      </trkpt>
      <trkpt lat="48.5115" lon="7.17058">
        <ele>889.789307</ele>
        <time>2012-07-29T13:34:37Z</time>
      </trkpt>
      <trkpt lat="48.51199" lon="7.17069">
        <ele>888.008057</ele>
        <time>2012-07-29T13:34:49Z</time>
      </trkpt>
      <trkpt lat="48.51247" lon="7.17061">
        <ele>883.039307</ele>
        <time>2012-07-29T13:35:02Z</time>
      </trkpt>
      <trkpt lat="48.51327" lon="7.17008">
        <ele>873.476807</ele>
        <time>2012-07-29T13:35:16Z</time>
      </trkpt>
      <trkpt lat="48.51401" lon="7.1698">
        <ele>867.320557</ele>
        <time>2012-07-29T13:35:26Z</time>
      </trkpt>
      <trkpt lat="48.5142" lon="7.1696">
        <ele>868.054932</ele>
        <time>2012-07-29T13:35:37Z</time>
      </trkpt>
      <trkpt lat="48.51443" lon="7.16948">
        <ele>865.992432</ele>
        <time>2012-07-29T13:35:48Z</time>
      </trkpt>
      <trkpt lat="48.51491" lon="7.16959">
        <ele>866.289307</ele>
        <time>2012-07-29T13:35:59Z</time>
      </trkpt>
      <trkpt lat="48.51519" lon="7.16974">
        <ele>859.898682</ele>
        <time>2012-07-29T13:36:05Z</time>
      </trkpt>
      <trkpt lat="48.51541" lon="7.16964">
        <ele>858.179932</ele>
        <time>2012-07-29T13:36:12Z</time>
      </trkpt>
      <trkpt lat="48.51555" lon="7.16992">
        <ele>857.195557</ele>
        <time>2012-07-29T13:36:27Z</time>
      </trkpt>
      <trkpt lat="48.51577" lon="7.16994">
        <ele>864.898682</ele>
        <time>2012-07-29T13:36:38Z</time>
      </trkpt>
      <trkpt lat="48.51614" lon="7.17044">
        <ele>864.914307</ele>
        <time>2012-07-29T13:36:51Z</time>
      </trkpt>
      <trkpt lat="48.51719" lon="7.17111">
        <ele>874.789307</ele>
        <time>2012-07-29T13:37:43Z</time>
      </trkpt>
      <trkpt lat="48.51744" lon="7.17119">
        <ele>875.054932</ele>
        <time>2012-07-29T13:37:49Z</time>
      </trkpt>
      <trkpt lat="48.51816" lon="7.17127">
        <ele>876.523682</ele>
        <time>2012-07-29T13:38:04Z</time>
      </trkpt>
      <trkpt lat="48.51889" lon="7.17127">
        <ele>881.898682</ele>
        <time>2012-07-29T13:38:22Z</time>
      </trkpt>
      <trkpt lat="48.51917" lon="7.17141">
        <ele>879.117432</ele>
        <time>2012-07-29T13:38:30Z</time>
      </trkpt>
      <trkpt lat="48.51941" lon="7.17144">
        <ele>881.742432</ele>
        <time>2012-07-29T13:38:38Z</time>
      </trkpt>
      <trkpt lat="48.51963" lon="7.17129">
        <ele>887.211182</ele>
        <time>2012-07-29T13:38:47Z</time>
      </trkpt>
      <trkpt lat="48.51982" lon="7.17105">
        <ele>884.898682</ele>
        <time>2012-07-29T13:38:52Z</time>
      </trkpt>
      <trkpt lat="48.52081" lon="7.17046">
        <ele>888.992432</ele>
        <time>2012-07-29T13:39:08Z</time>
      </trkpt>
      <trkpt lat="48.52125" lon="7.17007">
        <ele>892.070557</ele>
        <time>2012-07-29T13:39:15Z</time>
      </trkpt>
      <trkpt lat="48.52187" lon="7.16942">
        <ele>898.898682</ele>
        <time>2012-07-29T13:39:27Z</time>
      </trkpt>
      <trkpt lat="48.5226" lon="7.16846">
        <ele>906.523682</ele>
        <time>2012-07-29T13:39:42Z</time>
      </trkpt>
      <trkpt lat="48.52306" lon="7.16798">
        <ele>899.320557</ele>
        <time>2012-07-29T13:39:48Z</time>
      </trkpt>
      <trkpt lat="48.5244" lon="7.16721">
        <ele>873.242432</ele>
        <time>2012-07-29T13:40:03Z</time>
      </trkpt>
      <trkpt lat="48.52547" lon="7.16689">
        <ele>849.898682</ele>
        <time>2012-07-29T13:40:14Z</time>
      </trkpt>
      <trkpt lat="48.52596" lon="7.16684">
        <ele>843.054932</ele>
        <time>2012-07-29T13:40:20Z</time>
      </trkpt>
      <trkpt lat="48.5265" lon="7.16701">
        <ele>837.586182</ele>
        <time>2012-07-29T13:40:27Z</time>
      </trkpt>
      <trkpt lat="48.52714" lon="7.16743">
        <ele>829.742432</ele>
        <time>2012-07-29T13:40:36Z</time>
      </trkpt>
      <trkpt lat="48.52756" lon="7.16792">
        <ele>822.445557</ele>
        <time>2012-07-29T13:40:44Z</time>
      </trkpt>
      <trkpt lat="48.5277" lon="7.1686">
        <ele>811.398682</ele>
        <time>2012-07-29T13:41:25Z</time>
      </trkpt>
      <trkpt lat="48.52831" lon="7.16922">
        <ele>810.195557</ele>
        <time>2012-07-29T13:41:39Z</time>
      </trkpt>
      <trkpt lat="48.52942" lon="7.17011">
        <ele>815.117432</ele>
        <time>2012-07-29T13:41:57Z</time>
      </trkpt>
      <trkpt lat="48.5296" lon="7.17035">
        <ele>815.898682</ele>
        <time>2012-07-29T13:42:00Z</time>
      </trkpt>
      <trkpt lat="48.52987" lon="7.17103">
        <ele>816.195557</ele>
        <time>2012-07-29T13:42:06Z</time>
      </trkpt>
      <trkpt lat="48.53025" lon="7.1722">
        <ele>813.711182</ele>
        <time>2012-07-29T13:42:17Z</time>
      </trkpt>
      <trkpt lat="48.53042" lon="7.17246">
        <ele>812.820557</ele>
        <time>2012-07-29T13:42:23Z</time>
      </trkpt>
      <trkpt lat="48.53073" lon="7.17477">
        <ele>822.367432</ele>
        <time>2012-07-29T13:42:44Z</time>
      </trkpt>
      <trkpt lat="48.53112" lon="7.17614">
        <ele>826.008057</ele>
        <time>2012-07-29T13:43:01Z</time>
      </trkpt>
      <trkpt lat="48.53119" lon="7.17684">
        <ele>831.914307</ele>
        <time>2012-07-29T13:43:11Z</time>
      </trkpt>
      <trkpt lat="48.53196" lon="7.17918">
        <ele>864.742432</ele>
        <time>2012-07-29T13:43:48Z</time>
      </trkpt>
      <trkpt lat="48.53207" lon="7.18056">
        <ele>883.476807</ele>
        <time>2012-07-29T13:44:08Z</time>
      </trkpt>
      <trkpt lat="48.53283" lon="7.18252">
        <ele>905.758057</ele>
        <time>2012-07-29T13:44:41Z</time>
      </trkpt>
      <trkpt lat="48.53304" lon="7.1825">
        <ele>912.320557</ele>
        <time>2012-07-29T13:44:47Z</time>
      </trkpt>
      <trkpt lat="48.53344" lon="7.1829">
        <ele>927.320557</ele>
        <time>2012-07-29T13:45:03Z</time>
      </trkpt>
      <trkpt lat="48.53358" lon="7.18319">
        <ele>931.554932</ele>
        <time>2012-07-29T13:45:08Z</time>
      </trkpt>
      <trkpt lat="48.53366" lon="7.18393">
        <ele>945.273682</ele>
        <time>2012-07-29T13:45:20Z</time>
      </trkpt>
      <trkpt lat="48.53383" lon="7.18411">
        <ele>957.148682</ele>
        <time>2012-07-29T13:45:30Z</time>
      </trkpt>
      <trkpt lat="48.53387" lon="7.18476">
        <ele>974.679932</ele>
        <time>2012-07-29T13:45:46Z</time>
      </trkpt>
      <trkpt lat="48.53419" lon="7.18532">
        <ele>986.492432</ele>
        <time>2012-07-29T13:45:57Z</time>
      </trkpt>
      <trkpt lat="48.53451" lon="7.18647">
        <ele>990.867432</ele>
        <time>2012-07-29T13:46:02Z</time>
      </trkpt>
      <trkpt lat="48.53537" lon="7.18716">
        <ele>1006.961182</ele>
        <time>2012-07-29T13:46:23Z</time>
      </trkpt>
      <trkpt lat="48.53585" lon="7.1874">
        <ele>1013.164307</ele>
        <time>2012-07-29T13:46:31Z</time>
      </trkpt>
      <trkpt lat="48.53608" lon="7.1876">
        <ele>1015.539307</ele>
        <time>2012-07-29T13:46:35Z</time>
      </trkpt>
      <trkpt lat="48.53683" lon="7.18791">
        <ele>1024.516113</ele>
        <time>2012-07-29T13:46:53Z</time>
      </trkpt>
      <trkpt lat="48.53703" lon="7.18813">
        <ele>1026.141113</ele>
        <time>2012-07-29T13:46:58Z</time>
      </trkpt>
      <trkpt lat="48.53724" lon="7.1882">
        <ele>1033.516113</ele>
        <time>2012-07-29T13:47:07Z</time>
      </trkpt>
      <trkpt lat="48.53747" lon="7.18814">
        <ele>1038.797363</ele>
        <time>2012-07-29T13:47:14Z</time>
      </trkpt>
      <trkpt lat="48.53794" lon="7.18831">
        <ele>1056.922363</ele>
        <time>2012-07-29T13:47:30Z</time>
      </trkpt>
      <trkpt lat="48.5383" lon="7.18915">
        <ele>1060.391113</ele>
        <time>2012-07-29T13:47:33Z</time>
      </trkpt>
      <trkpt lat="48.53839" lon="7.18952">
        <ele>1058.734863</ele>
        <time>2012-07-29T13:47:35Z</time>
      </trkpt>
      <trkpt lat="48.53883" lon="7.18984">
        <ele>1057.172363</ele>
        <time>2012-07-29T13:47:43Z</time>
      </trkpt>
      <trkpt lat="48.53909" lon="7.18987">
        <ele>1055.859863</ele>
        <time>2012-07-29T13:47:47Z</time>
      </trkpt>
      <trkpt lat="48.53936" lon="7.19011">
        <ele>1054.141113</ele>
        <time>2012-07-29T13:47:50Z</time>
      </trkpt>
      <trkpt lat="48.53951" lon="7.19037">
        <ele>1053.016113</ele>
        <time>2012-07-29T13:47:52Z</time>
      </trkpt>
      <trkpt lat="48.53986" lon="7.19154">
        <ele>1016.554932</ele>
        <time>2012-07-29T13:47:58Z</time>
      </trkpt>
      <trkpt lat="48.54013" lon="7.19198">
        <ele>975.039307</ele>
        <time>2012-07-29T13:47:59Z</time>
      </trkpt>
      <trkpt lat="48.54034" lon="7.19211">
        <ele>983.726807</ele>
        <time>2012-07-29T13:48:08Z</time>
      </trkpt>
      <trkpt lat="48.54086" lon="7.19209">
        <ele>967.789307</ele>
        <time>2012-07-29T13:48:09Z</time>
      </trkpt>
      <trkpt lat="48.54176" lon="7.19235">
        <ele>964.429932</ele>
        <time>2012-07-29T13:48:10Z</time>
      </trkpt>
      <trkpt lat="48.54217" lon="7.19199">
        <ele>900.476807</ele>
        <time>2012-07-29T13:48:15Z</time>
      </trkpt>
      <trkpt lat="48.54229" lon="7.19203">
        <ele>877.054932</ele>
        <time>2012-07-29T13:48:18Z</time>
      </trkpt>
      <trkpt lat="48.54249" lon="7.192">
        <ele>853.601807</ele>
        <time>2012-07-29T13:48:21Z</time>
      </trkpt>
      <trkpt lat="48.54387" lon="7.19143">
        <ele>773.523682</ele>
        <time>2012-07-29T13:48:49Z</time>
      </trkpt>
      <trkpt lat="48.5447" lon="7.19076">
        <ele>748.273682</ele>
        <time>2012-07-29T13:49:07Z</time>
      </trkpt>
      <trkpt lat="48.54506" lon="7.19029">
        <ele>738.679932</ele>
        <time>2012-07-29T13:49:23Z</time>
      </trkpt>
      <trkpt lat="48.5451" lon="7.18994">
        <ele>739.836182</ele>
        <time>2012-07-29T13:51:21Z</time>
      </trkpt>
      <trkpt lat="48.54599" lon="7.1896">
        <ele>733.008057</ele>
        <time>2012-07-29T13:56:48Z</time>
      </trkpt>
      <trkpt lat="48.54693" lon="7.18861">
        <ele>749.195557</ele>
        <time>2012-07-29T13:58:04Z</time>
      </trkpt>
      <trkpt lat="48.54829" lon="7.18778">
        <ele>763.179932</ele>
        <time>2012-07-29T13:59:07Z</time>
      </trkpt>
      <trkpt lat="48.54957" lon="7.18662">
        <ele>769.398682</ele>
        <time>2012-07-29T14:00:02Z</time>
      </trkpt>
      <trkpt lat="48.54998" lon="7.18626">
        <ele>764.961182</ele>
        <time>2012-07-29T14:00:18Z</time>
      </trkpt>
      <trkpt lat="48.55041" lon="7.18602">
        <ele>768.070557</ele>
        <time>2012-07-29T14:00:36Z</time>
      </trkpt>
      <trkpt lat="48.55172" lon="7.18553">
        <ele>804.476807</ele>
        <time>2012-07-29T14:01:32Z</time>
      </trkpt>
      <trkpt lat="48.55239" lon="7.18544">
        <ele>792.179932</ele>
        <time>2012-07-29T14:02:01Z</time>
      </trkpt>
      <trkpt lat="48.55325" lon="7.18487">
        <ele>773.226807</ele>
        <time>2012-07-29T14:02:41Z</time>
      </trkpt>
      <trkpt lat="48.55347" lon="7.18481">
        <ele>771.070557</ele>
        <time>2012-07-29T14:02:49Z</time>
      </trkpt>
      <trkpt lat="48.5537" lon="7.18481">
        <ele>771.695557</ele>
        <time>2012-07-29T14:03:01Z</time>
      </trkpt>
      <trkpt lat="48.55394" lon="7.18489">
        <ele>773.523682</ele>
        <time>2012-07-29T14:03:09Z</time>
      </trkpt>
      <trkpt lat="48.55413" lon="7.18506">
        <ele>777.461182</ele>
        <time>2012-07-29T14:03:22Z</time>
      </trkpt>
      <trkpt lat="48.55428" lon="7.1862">
        <ele>785.179932</ele>
        <time>2012-07-29T14:03:48Z</time>
      </trkpt>
      <trkpt lat="48.5542" lon="7.18652">
        <ele>788.914307</ele>
        <time>2012-07-29T14:03:57Z</time>
      </trkpt>
      <trkpt lat="48.5537" lon="7.18646">
        <ele>799.679932</ele>
        <time>2012-07-29T14:04:07Z</time>
      </trkpt>
      <trkpt lat="48.5535" lon="7.18669">
        <ele>806.414307</ele>
        <time>2012-07-29T14:04:13Z</time>
      </trkpt>
      <trkpt lat="48.55324" lon="7.18735">
        <ele>813.523682</ele>
        <time>2012-07-29T14:04:22Z</time>
      </trkpt>
      <trkpt lat="48.55346" lon="7.18739">
        <ele>820.195557</ele>
        <time>2012-07-29T14:04:31Z</time>
      </trkpt>
      <trkpt lat="48.55368" lon="7.18721">
        <ele>824.773682</ele>
        <time>2012-07-29T14:04:39Z</time>
      </trkpt>
      <trkpt lat="48.55582" lon="7.19099">
        <ele>834.351807</ele>
        <time>2012-07-29T14:04:46Z</time>
      </trkpt>
      <trkpt lat="48.55604" lon="7.1911">
        <ele>846.179932</ele>
        <time>2012-07-29T14:04:50Z</time>
      </trkpt>
      <trkpt lat="48.55621" lon="7.19084">
        <ele>842.742432</ele>
        <time>2012-07-29T14:04:53Z</time>
      </trkpt>
      <trkpt lat="48.55686" lon="7.19028">
        <ele>829.429932</ele>
        <time>2012-07-29T14:05:03Z</time>
      </trkpt>
      <trkpt lat="48.55725" lon="7.18985">
        <ele>823.351807</ele>
        <time>2012-07-29T14:05:10Z</time>
      </trkpt>
      <trkpt lat="48.55814" lon="7.18916">
        <ele>833.992432</ele>
        <time>2012-07-29T14:05:30Z</time>
      </trkpt>
      <trkpt lat="48.55885" lon="7.18886">
        <ele>829.289307</ele>
        <time>2012-07-29T14:05:41Z</time>
      </trkpt>
      <trkpt lat="48.55907" lon="7.18869">
        <ele>830.117432</ele>
        <time>2012-07-29T14:09:23Z</time>
      </trkpt>
      <trkpt lat="48.5593" lon="7.18884">
        <ele>829.242432</ele>
        <time>2012-07-29T14:09:28Z</time>
      </trkpt>
      <trkpt lat="48.55985" lon="7.18963">
        <ele>826.867432</ele>
        <time>2012-07-29T14:09:39Z</time>
      </trkpt>
      <trkpt lat="48.56036" lon="7.19167">
        <ele>839.445557</ele>
        <time>2012-07-29T14:10:33Z</time>
      </trkpt>
      <trkpt lat="48.56045" lon="7.19236">
        <ele>829.711182</ele>
        <time>2012-07-29T14:10:44Z</time>
      </trkpt>
      <trkpt lat="48.56043" lon="7.19307">
        <ele>819.742432</ele>
        <time>2012-07-29T14:10:58Z</time>
      </trkpt>
      <trkpt lat="48.56025" lon="7.19491">
        <ele>816.086182</ele>
        <time>2012-07-29T14:11:35Z</time>
      </trkpt>
      <trkpt lat="48.56011" lon="7.19522">
        <ele>818.601807</ele>
        <time>2012-07-29T14:11:46Z</time>
      </trkpt>
      <trkpt lat="48.55993" lon="7.19542">
        <ele>821.648682</ele>
        <time>2012-07-29T14:12:16Z</time>
      </trkpt>
      <trkpt lat="48.55948" lon="7.19573">
        <ele>830.523682</ele>
        <time>2012-07-29T14:12:33Z</time>
      </trkpt>
      <trkpt lat="48.55933" lon="7.19597">
        <ele>836.133057</ele>
        <time>2012-07-29T14:12:41Z</time>
      </trkpt>
      <trkpt lat="48.55804" lon="7.19699">
        <ele>854.523682</ele>
        <time>2012-07-29T14:13:26Z</time>
      </trkpt>
      <trkpt lat="48.55765" lon="7.19738">
        <ele>862.570557</ele>
        <time>2012-07-29T14:13:36Z</time>
      </trkpt>
      <trkpt lat="48.55774" lon="7.19842">
        <ele>870.445557</ele>
        <time>2012-07-29T14:14:24Z</time>
      </trkpt>
      <trkpt lat="48.55806" lon="7.20011">
        <ele>854.617432</ele>
        <time>2012-07-29T14:15:07Z</time>
      </trkpt>
      <trkpt lat="48.55795" lon="7.20148">
        <ele>838.008057</ele>
        <time>2012-07-29T14:15:49Z</time>
      </trkpt>
      <trkpt lat="48.55777" lon="7.20212">
        <ele>849.601807</ele>
        <time>2012-07-29T14:16:10Z</time>
      </trkpt>
      <trkpt lat="48.55758" lon="7.20235">
        <ele>852.539307</ele>
        <time>2012-07-29T14:16:19Z</time>
      </trkpt>
      <trkpt lat="48.55746" lon="7.20265">
        <ele>856.961182</ele>
        <time>2012-07-29T14:16:30Z</time>
      </trkpt>
      <trkpt lat="48.55705" lon="7.20301">
        <ele>859.351807</ele>
        <time>2012-07-29T14:16:48Z</time>
      </trkpt>
      <trkpt lat="48.55682" lon="7.20314">
        <ele>860.976807</ele>
        <time>2012-07-29T14:16:58Z</time>
      </trkpt>
      <trkpt lat="48.55633" lon="7.20324">
        <ele>859.242432</ele>
        <time>2012-07-29T14:17:17Z</time>
      </trkpt>
      <trkpt lat="48.55542" lon="7.20379">
        <ele>868.648682</ele>
        <time>2012-07-29T14:17:57Z</time>
      </trkpt>
      <trkpt lat="48.55519" lon="7.20381">
        <ele>870.789307</ele>
        <time>2012-07-29T14:18:08Z</time>
      </trkpt>
      <trkpt lat="48.55546" lon="7.20438">
        <ele>867.351807</ele>
        <time>2012-07-29T14:18:26Z</time>
      </trkpt>
      <trkpt lat="48.55627" lon="7.20526">
        <ele>895.445557</ele>
        <time>2012-07-29T14:18:54Z</time>
      </trkpt>
      <trkpt lat="48.55649" lon="7.20532">
        <ele>908.898682</ele>
        <time>2012-07-29T14:18:56Z</time>
      </trkpt>
      <trkpt lat="48.55667" lon="7.20555">
        <ele>913.320557</ele>
        <time>2012-07-29T14:18:58Z</time>
      </trkpt>
      <trkpt lat="48.5574" lon="7.20715">
        <ele>939.898682</ele>
        <time>2012-07-29T14:19:23Z</time>
      </trkpt>
      <trkpt lat="48.55762" lon="7.20716">
        <ele>943.461182</ele>
        <time>2012-07-29T14:20:34Z</time>
      </trkpt>
      <trkpt lat="48.55768" lon="7.20739">
        <ele>925.101807</ele>
        <time>2012-07-29T14:24:18Z</time>
      </trkpt>
      <trkpt lat="48.55763" lon="7.20822">
        <ele>881.445557</ele>
        <time>2012-07-29T14:24:47Z</time>
      </trkpt>
      <trkpt lat="48.55756" lon="7.20854">
        <ele>876.008057</ele>
        <time>2012-07-29T14:24:56Z</time>
      </trkpt>
      <trkpt lat="48.55722" lon="7.20912">
        <ele>874.039307</ele>
        <time>2012-07-29T14:25:14Z</time>
      </trkpt>
      <trkpt lat="48.55707" lon="7.21011">
        <ele>859.242432</ele>
        <time>2012-07-29T14:25:53Z</time>
      </trkpt>
      <trkpt lat="48.55733" lon="7.21029">
        <ele>859.914307</ele>
        <time>2012-07-29T14:26:06Z</time>
      </trkpt>
      <trkpt lat="48.55756" lon="7.21024">
        <ele>866.539307</ele>
        <time>2012-07-29T14:26:24Z</time>
      </trkpt>
      <trkpt lat="48.55797" lon="7.21187">
        <ele>873.258057</ele>
        <time>2012-07-29T14:26:32Z</time>
      </trkpt>
      <trkpt lat="48.55817" lon="7.21214">
        <ele>875.820557</ele>
        <time>2012-07-29T14:26:34Z</time>
      </trkpt>
      <trkpt lat="48.55841" lon="7.21204">
        <ele>884.648682</ele>
        <time>2012-07-29T14:26:41Z</time>
      </trkpt>
      <trkpt lat="48.5593" lon="7.21106">
        <ele>911.914307</ele>
        <time>2012-07-29T14:26:57Z</time>
      </trkpt>
      <trkpt lat="48.55975" lon="7.21075">
        <ele>918.742432</ele>
        <time>2012-07-29T14:27:05Z</time>
      </trkpt>
      <trkpt lat="48.56052" lon="7.21003">
        <ele>933.726807</ele>
        <time>2012-07-29T14:27:18Z</time>
      </trkpt>
      <trkpt lat="48.56099" lon="7.20983">
        <ele>948.164307</ele>
        <time>2012-07-29T14:27:25Z</time>
      </trkpt>
      <trkpt lat="48.56192" lon="7.20956">
        <ele>970.711182</ele>
        <time>2012-07-29T14:27:43Z</time>
      </trkpt>
      <trkpt lat="48.56237" lon="7.20945">
        <ele>980.179932</ele>
        <time>2012-07-29T14:27:51Z</time>
      </trkpt>
      <trkpt lat="48.56261" lon="7.20945">
        <ele>990.633057</ele>
        <time>2012-07-29T14:27:55Z</time>
      </trkpt>
      <trkpt lat="48.56285" lon="7.20953">
        <ele>981.211182</ele>
        <time>2012-07-29T14:28:00Z</time>
      </trkpt>
      <trkpt lat="48.56375" lon="7.20957">
        <ele>1012.273682</ele>
        <time>2012-07-29T14:28:17Z</time>
      </trkpt>
      <trkpt lat="48.56468" lon="7.20998">
        <ele>1015.836182</ele>
        <time>2012-07-29T14:28:39Z</time>
      </trkpt>
      <trkpt lat="48.56509" lon="7.21033">
        <ele>998.008057</ele>
        <time>2012-07-29T14:28:53Z</time>
      </trkpt>
      <trkpt lat="48.56547" lon="7.21168">
        <ele>967.086182</ele>
        <time>2012-07-29T14:29:26Z</time>
      </trkpt>
      <trkpt lat="48.56561" lon="7.2126">
        <ele>933.351807</ele>
        <time>2012-07-29T14:29:52Z</time>
      </trkpt>
      <trkpt lat="48.56604" lon="7.21335">
        <ele>893.976807</ele>
        <time>2012-07-29T14:30:18Z</time>
      </trkpt>
      <trkpt lat="48.56603" lon="7.21368">
        <ele>885.117432</ele>
        <time>2012-07-29T14:30:27Z</time>
      </trkpt>
      <trkpt lat="48.56627" lon="7.21493">
        <ele>850.554932</ele>
        <time>2012-07-29T14:30:55Z</time>
      </trkpt>
      <trkpt lat="48.56622" lon="7.21524">
        <ele>840.601807</ele>
        <time>2012-07-29T14:31:02Z</time>
      </trkpt>
      <trkpt lat="48.56633" lon="7.21586">
        <ele>807.664307</ele>
        <time>2012-07-29T14:31:21Z</time>
      </trkpt>
      <trkpt lat="48.56656" lon="7.21639">
        <ele>789.023682</ele>
        <time>2012-07-29T14:31:30Z</time>
      </trkpt>
      <trkpt lat="48.56693" lon="7.21697">
        <ele>770.789307</ele>
        <time>2012-07-29T14:31:47Z</time>
      </trkpt>
      <trkpt lat="48.56703" lon="7.21728">
        <ele>767.351807</ele>
        <time>2012-07-29T14:31:52Z</time>
      </trkpt>
      <trkpt lat="48.56693" lon="7.21762">
        <ele>762.211182</ele>
        <time>2012-07-29T14:31:59Z</time>
      </trkpt>
      <trkpt lat="48.56693" lon="7.2183">
        <ele>749.304932</ele>
        <time>2012-07-29T14:32:19Z</time>
      </trkpt>
      <trkpt lat="48.5668" lon="7.21904">
        <ele>748.101807</ele>
        <time>2012-07-29T14:33:27Z</time>
      </trkpt>
      <trkpt lat="48.56632" lon="7.21986">
        <ele>755.039307</ele>
        <time>2012-07-29T14:33:48Z</time>
      </trkpt>
      <trkpt lat="48.56625" lon="7.22044">
        <ele>771.445557</ele>
        <time>2012-07-29T14:33:54Z</time>
      </trkpt>
      <trkpt lat="48.56586" lon="7.22078">
        <ele>778.476807</ele>
        <time>2012-07-29T14:34:00Z</time>
      </trkpt>
      <trkpt lat="48.56578" lon="7.22116">
        <ele>780.226807</ele>
        <time>2012-07-29T14:34:02Z</time>
      </trkpt>
      <trkpt lat="48.56606" lon="7.22179">
        <ele>794.804932</ele>
        <time>2012-07-29T14:34:08Z</time>
      </trkpt>
      <trkpt lat="48.56587" lon="7.22182">
        <ele>808.633057</ele>
        <time>2012-07-29T14:34:16Z</time>
      </trkpt>
      <trkpt lat="48.56522" lon="7.22143">
        <ele>838.601807</ele>
        <time>2012-07-29T14:34:31Z</time>
      </trkpt>
      <trkpt lat="48.565" lon="7.2212">
        <ele>848.961182</ele>
        <time>2012-07-29T14:34:37Z</time>
      </trkpt>
      <trkpt lat="48.56477" lon="7.22124">
        <ele>853.101807</ele>
        <time>2012-07-29T14:34:41Z</time>
      </trkpt>
      <trkpt lat="48.56469" lon="7.22164">
        <ele>859.711182</ele>
        <time>2012-07-29T14:35:10Z</time>
      </trkpt>
      <trkpt lat="48.56486" lon="7.22192">
        <ele>858.976807</ele>
        <time>2012-07-29T14:35:15Z</time>
      </trkpt>
      <trkpt lat="48.56496" lon="7.22226">
        <ele>859.367432</ele>
        <time>2012-07-29T14:35:20Z</time>
      </trkpt>
      <trkpt lat="48.56513" lon="7.22251">
        <ele>857.883057</ele>
        <time>2012-07-29T14:35:30Z</time>
      </trkpt>
      <trkpt lat="48.56536" lon="7.22268">
        <ele>859.523682</ele>
        <time>2012-07-29T14:35:35Z</time>
      </trkpt>
      <trkpt lat="48.56569" lon="7.22326">
        <ele>865.945557</ele>
        <time>2012-07-29T14:35:43Z</time>
      </trkpt>
      <trkpt lat="48.56588" lon="7.22343">
        <ele>868.992432</ele>
        <time>2012-07-29T14:35:50Z</time>
      </trkpt>
      <trkpt lat="48.56662" lon="7.22536">
        <ele>841.929932</ele>
        <time>2012-07-29T14:36:13Z</time>
      </trkpt>
      <trkpt lat="48.56697" lon="7.2261">
        <ele>832.539307</ele>
        <time>2012-07-29T14:36:19Z</time>
      </trkpt>
      <trkpt lat="48.56781" lon="7.22765">
        <ele>828.851807</ele>
        <time>2012-07-29T14:36:26Z</time>
      </trkpt>
      <trkpt lat="48.56805" lon="7.22782">
        <ele>829.929932</ele>
        <time>2012-07-29T14:36:27Z</time>
      </trkpt>
      <trkpt lat="48.56816" lon="7.22842">
        <ele>832.445557</ele>
        <time>2012-07-29T14:36:28Z</time>
      </trkpt>
      <trkpt lat="48.56847" lon="7.22915">
        <ele>832.226807</ele>
        <time>2012-07-29T14:36:32Z</time>
      </trkpt>
      <trkpt lat="48.56865" lon="7.22991">
        <ele>823.570557</ele>
        <time>2012-07-29T14:36:38Z</time>
      </trkpt>
      <trkpt lat="48.56875" lon="7.23118">
        <ele>822.773682</ele>
        <time>2012-07-29T14:36:48Z</time>
      </trkpt>
      <trkpt lat="48.56874" lon="7.2323">
        <ele>813.351807</ele>
        <time>2012-07-29T14:37:00Z</time>
      </trkpt>
      <trkpt lat="48.56886" lon="7.23297">
        <ele>803.367432</ele>
        <time>2012-07-29T14:37:12Z</time>
      </trkpt>
      <trkpt lat="48.56911" lon="7.23359">
        <ele>791.133057</ele>
        <time>2012-07-29T14:37:33Z</time>
      </trkpt>
      <trkpt lat="48.56944" lon="7.23468">
        <ele>778.570557</ele>
        <time>2012-07-29T14:37:50Z</time>
      </trkpt>
      <trkpt lat="48.56989" lon="7.23568">
        <ele>782.711182</ele>
        <time>2012-07-29T14:38:30Z</time>
      </trkpt>
      <trkpt lat="48.56997" lon="7.23603">
        <ele>787.039307</ele>
        <time>2012-07-29T14:39:15Z</time>
      </trkpt>
      <trkpt lat="48.5703" lon="7.23654">
        <ele>796.101807</ele>
        <time>2012-07-29T14:39:37Z</time>
      </trkpt>
      <trkpt lat="48.57059" lon="7.23715">
        <ele>810.711182</ele>
        <time>2012-07-29T14:39:56Z</time>
      </trkpt>
      <trkpt lat="48.57182" lon="7.23846">
        <ele>850.101807</ele>
        <time>2012-07-29T14:40:29Z</time>
      </trkpt>
      <trkpt lat="48.57273" lon="7.23908">
        <ele>872.023682</ele>
        <time>2012-07-29T14:40:54Z</time>
      </trkpt>
      <trkpt lat="48.57335" lon="7.24012">
        <ele>884.039307</ele>
        <time>2012-07-29T14:41:16Z</time>
      </trkpt>
      <trkpt lat="48.57441" lon="7.24107">
        <ele>899.883057</ele>
        <time>2012-07-29T14:41:43Z</time>
      </trkpt>
      <trkpt lat="48.57479" lon="7.24149">
        <ele>908.070557</ele>
        <time>2012-07-29T14:41:50Z</time>
      </trkpt>
      <trkpt lat="48.57504" lon="7.24166">
        <ele>912.508057</ele>
        <time>2012-07-29T14:41:55Z</time>
      </trkpt>
      <trkpt lat="48.57619" lon="7.24198">
        <ele>924.539307</ele>
        <time>2012-07-29T14:42:21Z</time>
      </trkpt>
      <trkpt lat="48.57666" lon="7.24202">
        <ele>932.008057</ele>
        <time>2012-07-29T14:42:32Z</time>
      </trkpt>
      <trkpt lat="48.57714" lon="7.24189">
        <ele>934.664307</ele>
        <time>2012-07-29T14:42:42Z</time>
      </trkpt>
      <trkpt lat="48.57785" lon="7.24187">
        <ele>939.039307</ele>
        <time>2012-07-29T14:42:58Z</time>
      </trkpt>
      <trkpt lat="48.57832" lon="7.24213">
        <ele>940.898682</ele>
        <time>2012-07-29T14:43:11Z</time>
      </trkpt>
      <trkpt lat="48.57937" lon="7.24323">
        <ele>950.539307</ele>
        <time>2012-07-29T14:43:38Z</time>
      </trkpt>
      <trkpt lat="48.57981" lon="7.24355">
        <ele>957.867432</ele>
        <time>2012-07-29T14:43:49Z</time>
      </trkpt>
      <trkpt lat="48.58028" lon="7.24366">
        <ele>962.164307</ele>
        <time>2012-07-29T14:44:00Z</time>
      </trkpt>
      <trkpt lat="48.58054" lon="7.24358">
        <ele>959.679932</ele>
        <time>2012-07-29T14:44:05Z</time>
      </trkpt>
      <trkpt lat="48.58151" lon="7.24405">
        <ele>961.226807</ele>
        <time>2012-07-29T14:44:28Z</time>
      </trkpt>
      <trkpt lat="48.5826" lon="7.24479">
        <ele>953.914307</ele>
        <time>2012-07-29T14:45:02Z</time>
      </trkpt>
      <trkpt lat="48.58302" lon="7.24519">
        <ele>957.617432</ele>
        <time>2012-07-29T14:45:15Z</time>
      </trkpt>
      <trkpt lat="48.5837" lon="7.24554">
        <ele>955.617432</ele>
        <time>2012-07-29T14:45:31Z</time>
      </trkpt>
      <trkpt lat="48.58396" lon="7.2456">
        <ele>950.586182</ele>
        <time>2012-07-29T14:45:39Z</time>
      </trkpt>
      <trkpt lat="48.58418" lon="7.24575">
        <ele>944.664307</ele>
        <time>2012-07-29T14:45:45Z</time>
      </trkpt>
      <trkpt lat="48.58489" lon="7.24672">
        <ele>923.164307</ele>
        <time>2012-07-29T14:46:07Z</time>
      </trkpt>
      <trkpt lat="48.58531" lon="7.24759">
        <ele>909.929932</ele>
        <time>2012-07-29T14:46:35Z</time>
      </trkpt>
      <trkpt lat="48.58547" lon="7.24828">
        <ele>908.023682</ele>
        <time>2012-07-29T14:46:54Z</time>
      </trkpt>
      <trkpt lat="48.58551" lon="7.24902">
        <ele>893.008057</ele>
        <time>2012-07-29T14:47:09Z</time>
      </trkpt>
      <trkpt lat="48.58564" lon="7.24936">
        <ele>894.492432</ele>
        <time>2012-07-29T14:47:15Z</time>
      </trkpt>
      <trkpt lat="48.58614" lon="7.25019">
        <ele>904.351807</ele>
        <time>2012-07-29T14:47:32Z</time>
      </trkpt>
      <trkpt lat="48.58696" lon="7.25091">
        <ele>922.929932</ele>
        <time>2012-07-29T14:48:01Z</time>
      </trkpt>
      <trkpt lat="48.58783" lon="7.25135">
        <ele>942.054932</ele>
        <time>2012-07-29T14:48:31Z</time>
      </trkpt>
      <trkpt lat="48.58852" lon="7.25152">
        <ele>976.242432</ele>
        <time>2012-07-29T14:48:53Z</time>
      </trkpt>
      <trkpt lat="48.58868" lon="7.2514">
        <ele>993.711182</ele>
        <time>2012-07-29T14:49:01Z</time>
      </trkpt>
      <trkpt lat="48.58894" lon="7.25084">
        <ele>1009.617432</ele>
        <time>2012-07-29T14:49:19Z</time>
      </trkpt>
      <trkpt lat="48.58902" lon="7.25049">
        <ele>1010.898682</ele>
        <time>2012-07-29T14:49:26Z</time>
      </trkpt>
      <trkpt lat="48.5896" lon="7.24932">
        <ele>1013.695557</ele>
        <time>2012-07-29T14:49:53Z</time>
      </trkpt>
      <trkpt lat="48.59007" lon="7.24917">
        <ele>1009.633057</ele>
        <time>2012-07-29T14:50:05Z</time>
      </trkpt>
      <trkpt lat="48.59055" lon="7.24923">
        <ele>1013.945557</ele>
        <time>2012-07-29T14:50:19Z</time>
      </trkpt>
      <trkpt lat="48.59092" lon="7.24963">
        <ele>1024.109863</ele>
        <time>2012-07-29T14:50:33Z</time>
      </trkpt>
      <trkpt lat="48.59157" lon="7.25009">
        <ele>1015.164307</ele>
        <time>2012-07-29T14:50:55Z</time>
      </trkpt>
      <trkpt lat="48.59203" lon="7.25001">
        <ele>1015.398682</ele>
        <time>2012-07-29T14:51:44Z</time>
      </trkpt>
      <trkpt lat="48.59243" lon="7.24977">
        <ele>994.226807</ele>
        <time>2012-07-29T14:55:14Z</time>
      </trkpt>
      <trkpt lat="48.59237" lon="7.24997">
        <ele>974.508057</ele>
        <time>2012-07-29T15:08:40Z</time>
      </trkpt>
      <trkpt lat="48.59279" lon="7.25029">
        <ele>926.195557</ele>
        <time>2012-07-29T15:09:34Z</time>
      </trkpt>
      <trkpt lat="48.59303" lon="7.25069">
        <ele>894.898682</ele>
        <time>2012-07-29T15:10:03Z</time>
      </trkpt>
      <trkpt lat="48.59348" lon="7.25094">
        <ele>889.758057</ele>
        <time>2012-07-29T15:10:31Z</time>
      </trkpt>
      <trkpt lat="48.59415" lon="7.25108">
        <ele>913.773682</ele>
        <time>2012-07-29T15:11:04Z</time>
      </trkpt>
      <trkpt lat="48.59438" lon="7.25104">
        <ele>920.242432</ele>
        <time>2012-07-29T15:11:16Z</time>
      </trkpt>
      <trkpt lat="48.59455" lon="7.25081">
        <ele>912.445557</ele>
        <time>2012-07-29T15:11:28Z</time>
      </trkpt>
      <trkpt lat="48.59497" lon="7.25102">
        <ele>899.273682</ele>
        <time>2012-07-29T15:13:09Z</time>
      </trkpt>
      <trkpt lat="48.59552" lon="7.2518">
        <ele>896.929932</ele>
        <time>2012-07-29T15:13:52Z</time>
      </trkpt>
      <trkpt lat="48.59589" lon="7.25271">
        <ele>880.570557</ele>
        <time>2012-07-29T15:14:23Z</time>
      </trkpt>
      <trkpt lat="48.5961" lon="7.25287">
        <ele>878.242432</ele>
        <time>2012-07-29T15:14:32Z</time>
      </trkpt>
      <trkpt lat="48.59686" lon="7.25318">
        <ele>876.711182</ele>
        <time>2012-07-29T15:14:52Z</time>
      </trkpt>
      <trkpt lat="48.59811" lon="7.25285">
        <ele>870.101807</ele>
        <time>2012-07-29T15:15:27Z</time>
      </trkpt>
      <trkpt lat="48.59829" lon="7.25265">
        <ele>876.211182</ele>
        <time>2012-07-29T15:15:38Z</time>
      </trkpt>
      <trkpt lat="48.59924" lon="7.25249">
        <ele>889.883057</ele>
        <time>2012-07-29T15:16:05Z</time>
      </trkpt>
      <trkpt lat="48.59949" lon="7.25251">
        <ele>888.742432</ele>
        <time>2012-07-29T15:16:10Z</time>
      </trkpt>
      <trkpt lat="48.59996" lon="7.25236">
        <ele>889.648682</ele>
        <time>2012-07-29T15:16:28Z</time>
      </trkpt>
      <trkpt lat="48.60044" lon="7.25239">
        <ele>892.273682</ele>
        <time>2012-07-29T15:16:41Z</time>
      </trkpt>
      <trkpt lat="48.60066" lon="7.25226">
        <ele>889.351807</ele>
        <time>2012-07-29T15:16:50Z</time>
      </trkpt>
      <trkpt lat="48.60089" lon="7.25229">
        <ele>884.820557</ele>
        <time>2012-07-29T15:16:59Z</time>
      </trkpt>
      <trkpt lat="48.60133" lon="7.25252">
        <ele>869.383057</ele>
        <time>2012-07-29T15:17:17Z</time>
      </trkpt>
      <trkpt lat="48.60155" lon="7.25274">
        <ele>867.570557</ele>
        <time>2012-07-29T15:17:21Z</time>
      </trkpt>
      <trkpt lat="48.6018" lon="7.25264">
        <ele>878.304932</ele>
        <time>2012-07-29T15:17:23Z</time>
      </trkpt>
      <trkpt lat="48.60196" lon="7.25286">
        <ele>873.836182</ele>
        <time>2012-07-29T15:18:24Z</time>
      </trkpt>
      <trkpt lat="48.60219" lon="7.2529">
        <ele>873.367432</ele>
        <time>2012-07-29T15:19:52Z</time>
      </trkpt>
      <trkpt lat="48.60263" lon="7.25323">
        <ele>871.758057</ele>
        <time>2012-07-29T15:21:40Z</time>
      </trkpt>
      <trkpt lat="48.60284" lon="7.25348">
        <ele>867.226807</ele>
        <time>2012-07-29T15:21:44Z</time>
      </trkpt>
      <trkpt lat="48.60325" lon="7.25441">
        <ele>858.336182</ele>
        <time>2012-07-29T15:22:05Z</time>
      </trkpt>
      <trkpt lat="48.60344" lon="7.25463">
        <ele>855.414307</ele>
        <time>2012-07-29T15:22:12Z</time>
      </trkpt>
      <trkpt lat="48.60367" lon="7.25483">
        <ele>854.195557</ele>
        <time>2012-07-29T15:22:19Z</time>
      </trkpt>
      <trkpt lat="48.60481" lon="7.25542">
        <ele>854.476807</ele>
        <time>2012-07-29T15:22:48Z</time>
      </trkpt>
      <trkpt lat="48.60499" lon="7.25571">
        <ele>859.695557</ele>
        <time>2012-07-29T15:22:59Z</time>
      </trkpt>
      <trkpt lat="48.60526" lon="7.25592">
        <ele>860.695557</ele>
        <time>2012-07-29T15:23:04Z</time>
      </trkpt>
      <trkpt lat="48.60546" lon="7.25619">
        <ele>858.242432</ele>
        <time>2012-07-29T15:23:11Z</time>
      </trkpt>
      <trkpt lat="48.60569" lon="7.25611">
        <ele>858.211182</ele>
        <time>2012-07-29T15:23:37Z</time>
      </trkpt>
      <trkpt lat="48.60566" lon="7.25569">
        <ele>855.820557</ele>
        <time>2012-07-29T15:23:43Z</time>
      </trkpt>
      <trkpt lat="48.60598" lon="7.25519">
        <ele>851.773682</ele>
        <time>2012-07-29T15:24:02Z</time>
      </trkpt>
      <trkpt lat="48.60597" lon="7.25487">
        <ele>842.070557</ele>
        <time>2012-07-29T15:24:12Z</time>
      </trkpt>
      <trkpt lat="48.61463" lon="7.25834">
        <ele>805.258057</ele>
        <time>2012-07-29T15:24:26Z</time>
      </trkpt>
      <trkpt lat="48.61485" lon="7.2581">
        <ele>803.211182</ele>
        <time>2012-07-29T15:24:30Z</time>
      </trkpt>
      <trkpt lat="48.61496" lon="7.25778">
        <ele>807.304932</ele>
        <time>2012-07-29T15:24:37Z</time>
      </trkpt>
      <trkpt lat="48.61522" lon="7.25768">
        <ele>813.633057</ele>
        <time>2012-07-29T15:24:44Z</time>
      </trkpt>
      <trkpt lat="48.61596" lon="7.25766">
        <ele>820.070557</ele>
        <time>2012-07-29T15:24:57Z</time>
      </trkpt>
      <trkpt lat="48.61688" lon="7.2583">
        <ele>828.836182</ele>
        <time>2012-07-29T15:25:16Z</time>
      </trkpt>
      <trkpt lat="48.6174" lon="7.2591">
        <ele>832.664307</ele>
        <time>2012-07-29T15:25:29Z</time>
      </trkpt>
      <trkpt lat="48.6176" lon="7.25927">
        <ele>838.742432</ele>
        <time>2012-07-29T15:25:38Z</time>
      </trkpt>
      <trkpt lat="48.61781" lon="7.25934">
        <ele>843.133057</ele>
        <time>2012-07-29T15:25:46Z</time>
      </trkpt>
      <trkpt lat="48.61804" lon="7.25936">
        <ele>849.148682</ele>
        <time>2012-07-29T15:25:55Z</time>
      </trkpt>
      <trkpt lat="48.61827" lon="7.2588">
        <ele>873.398682</ele>
        <time>2012-07-29T15:26:35Z</time>
      </trkpt>
      <trkpt lat="48.61849" lon="7.2589">
        <ele>886.117432</ele>
        <time>2012-07-29T15:26:45Z</time>
      </trkpt>
      <trkpt lat="48.61865" lon="7.2591">
        <ele>896.039307</ele>
        <time>2012-07-29T15:26:53Z</time>
      </trkpt>
      <trkpt lat="48.61882" lon="7.2589">
        <ele>912.570557</ele>
        <time>2012-07-29T15:27:09Z</time>
      </trkpt>
      <trkpt lat="48.619" lon="7.25855">
        <ele>917.133057</ele>
        <time>2012-07-29T15:27:13Z</time>
      </trkpt>
      <trkpt lat="48.61926" lon="7.25832">
        <ele>919.914307</ele>
        <time>2012-07-29T15:27:16Z</time>
      </trkpt>
      <trkpt lat="48.61917" lon="7.25789">
        <ele>931.226807</ele>
        <time>2012-07-29T15:27:21Z</time>
      </trkpt>
      <trkpt lat="48.61931" lon="7.25754">
        <ele>942.070557</ele>
        <time>2012-07-29T15:27:25Z</time>
      </trkpt>
      <trkpt lat="48.61946" lon="7.25724">
        <ele>945.820557</ele>
        <time>2012-07-29T15:27:29Z</time>
      </trkpt>
      <trkpt lat="48.61984" lon="7.2569">
        <ele>952.226807</ele>
        <time>2012-07-29T15:27:32Z</time>
      </trkpt>
      <trkpt lat="48.61995" lon="7.25649">
        <ele>956.679932</ele>
        <time>2012-07-29T15:27:36Z</time>
      </trkpt>
      <trkpt lat="48.62378" lon="7.25483">
        <ele>1098.109863</ele>
        <time>2012-07-29T15:27:42Z</time>
      </trkpt>
      <trkpt lat="48.62402" lon="7.25488">
        <ele>1071.109863</ele>
        <time>2012-07-29T15:27:43Z</time>
      </trkpt>
      <trkpt lat="48.62414" lon="7.25461">
        <ele>1010.226807</ele>
        <time>2012-07-29T15:27:44Z</time>
      </trkpt>
      <trkpt lat="48.62457" lon="7.25451">
        <ele>953.258057</ele>
        <time>2012-07-29T15:27:45Z</time>
      </trkpt>
      <trkpt lat="48.62476" lon="7.25462">
        <ele>934.851807</ele>
        <time>2012-07-29T15:27:46Z</time>
      </trkpt>
      <trkpt lat="48.62508" lon="7.25418">
        <ele>905.492432</ele>
        <time>2012-07-29T15:27:51Z</time>
      </trkpt>
      <trkpt lat="48.62532" lon="7.25414">
        <ele>886.570557</ele>
        <time>2012-07-29T15:27:54Z</time>
      </trkpt>
      <trkpt lat="48.62572" lon="7.25428">
        <ele>852.054932</ele>
        <time>2012-07-29T15:27:56Z</time>
      </trkpt>
      <trkpt lat="48.62638" lon="7.25427">
        <ele>791.273682</ele>
        <time>2012-07-29T15:28:02Z</time>
      </trkpt>
      <trkpt lat="48.62731" lon="7.25447">
        <ele>748.086182</ele>
        <time>2012-07-29T15:28:13Z</time>
      </trkpt>
      <trkpt lat="48.62778" lon="7.25449">
        <ele>740.758057</ele>
        <time>2012-07-29T15:28:19Z</time>
      </trkpt>
      <trkpt lat="48.62835" lon="7.25474">
        <ele>742.492432</ele>
        <time>2012-07-29T15:28:26Z</time>
      </trkpt>
      <trkpt lat="48.62859" lon="7.25471">
        <ele>736.461182</ele>
        <time>2012-07-29T15:28:29Z</time>
      </trkpt>
      <trkpt lat="48.62881" lon="7.25487">
        <ele>733.273682</ele>
        <time>2012-07-29T15:28:33Z</time>
      </trkpt>
      <trkpt lat="48.62891" lon="7.25521">
        <ele>723.945557</ele>
        <time>2012-07-29T15:28:38Z</time>
      </trkpt>
      <trkpt lat="48.62891" lon="7.25603">
        <ele>724.476807</ele>
        <time>2012-07-29T15:28:46Z</time>
      </trkpt>
      <trkpt lat="48.62902" lon="7.25672">
        <ele>727.898682</ele>
        <time>2012-07-29T15:28:52Z</time>
      </trkpt>
      <trkpt lat="48.62969" lon="7.25908">
        <ele>708.742432</ele>
        <time>2012-07-29T15:29:08Z</time>
      </trkpt>
      <trkpt lat="48.6301" lon="7.26002">
        <ele>705.492432</ele>
        <time>2012-07-29T15:29:17Z</time>
      </trkpt>
      <trkpt lat="48.63092" lon="7.26088">
        <ele>713.148682</ele>
        <time>2012-07-29T15:34:03Z</time>
      </trkpt>
      <trkpt lat="48.63117" lon="7.26144">
        <ele>705.804932</ele>
        <time>2012-07-29T15:34:19Z</time>
      </trkpt>
      <trkpt lat="48.63153" lon="7.26184">
        <ele>700.914307</ele>
        <time>2012-07-29T15:34:33Z</time>
      </trkpt>
      <trkpt lat="48.63168" lon="7.2621">
        <ele>700.883057</ele>
        <time>2012-07-29T15:34:40Z</time>
      </trkpt>
      <trkpt lat="48.63239" lon="7.26403">
        <ele>712.820557</ele>
        <time>2012-07-29T15:35:31Z</time>
      </trkpt>
      <trkpt lat="48.63251" lon="7.26431">
        <ele>717.695557</ele>
        <time>2012-07-29T15:35:40Z</time>
      </trkpt>
      <trkpt lat="48.63294" lon="7.26566">
        <ele>727.679932</ele>
        <time>2012-07-29T15:36:10Z</time>
      </trkpt>
      <trkpt lat="48.63354" lon="7.26879">
        <ele>755.445557</ele>
        <time>2012-07-29T15:37:05Z</time>
      </trkpt>
      <trkpt lat="48.63363" lon="7.2695">
        <ele>763.179932</ele>
        <time>2012-07-29T15:37:25Z</time>
      </trkpt>
      <trkpt lat="48.63357" lon="7.27056">
        <ele>774.586182</ele>
        <time>2012-07-29T15:38:00Z</time>
      </trkpt>
      <trkpt lat="48.6338" lon="7.27158">
        <ele>779.117432</ele>
        <time>2012-07-29T15:38:28Z</time>
      </trkpt>
      <trkpt lat="48.63382" lon="7.27229">
        <ele>778.711182</ele>
        <time>2012-07-29T15:38:53Z</time>
      </trkpt>
      <trkpt lat="48.63403" lon="7.27337">
        <ele>778.695557</ele>
        <time>2012-07-29T15:39:19Z</time>
      </trkpt>
      <trkpt lat="48.63398" lon="7.27376">
        <ele>777.461182</ele>
        <time>2012-07-29T15:39:24Z</time>
      </trkpt>
      <trkpt lat="48.63406" lon="7.27411">
        <ele>775.383057</ele>
        <time>2012-07-29T15:39:35Z</time>
      </trkpt>
      <trkpt lat="48.6343" lon="7.27478">
        <ele>770.445557</ele>
        <time>2012-07-29T15:39:47Z</time>
      </trkpt>
      <trkpt lat="48.63449" lon="7.27585">
        <ele>758.336182</ele>
        <time>2012-07-29T15:40:08Z</time>
      </trkpt>
      <trkpt lat="48.6356" lon="7.27718">
        <ele>757.289307</ele>
        <time>2012-07-29T15:41:02Z</time>
      </trkpt>
      <trkpt lat="48.6358" lon="7.27738">
        <ele>758.226807</ele>
        <time>2012-07-29T15:41:09Z</time>
      </trkpt>
      <trkpt lat="48.63668" lon="7.27776">
        <ele>757.398682</ele>
        <time>2012-07-29T15:44:47Z</time>
      </trkpt>
      <trkpt lat="48.63729" lon="7.27832">
        <ele>751.633057</ele>
        <time>2012-07-29T15:45:03Z</time>
      </trkpt>
      <trkpt lat="48.63774" lon="7.27859">
        <ele>747.414307</ele>
        <time>2012-07-29T15:45:17Z</time>
      </trkpt>
      <trkpt lat="48.63792" lon="7.27882">
        <ele>744.101807</ele>
        <time>2012-07-29T15:45:30Z</time>
      </trkpt>
      <trkpt lat="48.6393" lon="7.27933">
        <ele>735.367432</ele>
        <time>2012-07-29T15:46:44Z</time>
      </trkpt>
      <trkpt lat="48.63979" lon="7.2793">
        <ele>733.789307</ele>
        <time>2012-07-29T15:46:59Z</time>
      </trkpt>
      <trkpt lat="48.64054" lon="7.27939">
        <ele>723.429932</ele>
        <time>2012-07-29T15:47:13Z</time>
      </trkpt>
      <trkpt lat="48.64101" lon="7.27932">
        <ele>710.351807</ele>
        <time>2012-07-29T15:47:32Z</time>
      </trkpt>
      <trkpt lat="48.6417" lon="7.2788">
        <ele>695.476807</ele>
        <time>2012-07-29T15:47:50Z</time>
      </trkpt>
      <trkpt lat="48.64216" lon="7.27854">
        <ele>694.086182</ele>
        <time>2012-07-29T15:48:02Z</time>
      </trkpt>
      <trkpt lat="48.64238" lon="7.27843">
        <ele>697.148682</ele>
        <time>2012-07-29T15:48:07Z</time>
      </trkpt>
      <trkpt lat="48.64309" lon="7.27827">
        <ele>706.883057</ele>
        <time>2012-07-29T15:48:20Z</time>
      </trkpt>
      <trkpt lat="48.64332" lon="7.2783">
        <ele>712.211182</ele>
        <time>2012-07-29T15:48:24Z</time>
      </trkpt>
      <trkpt lat="48.64369" lon="7.27794">
        <ele>724.758057</ele>
        <time>2012-07-29T15:48:28Z</time>
      </trkpt>
      <trkpt lat="48.64412" lon="7.27818">
        <ele>728.523682</ele>
        <time>2012-07-29T15:48:39Z</time>
      </trkpt>
      <trkpt lat="48.64513" lon="7.27904">
        <ele>727.961182</ele>
        <time>2012-07-29T15:50:06Z</time>
      </trkpt>
      <trkpt lat="48.64536" lon="7.27907">
        <ele>721.695557</ele>
        <time>2012-07-29T15:50:12Z</time>
      </trkpt>
      <trkpt lat="48.64556" lon="7.2792">
        <ele>711.570557</ele>
        <time>2012-07-29T15:50:17Z</time>
      </trkpt>
      <trkpt lat="48.64578" lon="7.27984">
        <ele>708.539307</ele>
        <time>2012-07-29T15:50:28Z</time>
      </trkpt>
      <trkpt lat="48.64642" lon="7.28095">
        <ele>706.039307</ele>
        <time>2012-07-29T15:51:15Z</time>
      </trkpt>
      <trkpt lat="48.64661" lon="7.28116">
        <ele>706.883057</ele>
        <time>2012-07-29T15:51:19Z</time>
      </trkpt>
      <trkpt lat="48.64728" lon="7.28156">
        <ele>707.570557</ele>
        <time>2012-07-29T15:51:29Z</time>
      </trkpt>
      <trkpt lat="48.64802" lon="7.28352">
        <ele>690.258057</ele>
        <time>2012-07-29T15:51:47Z</time>
      </trkpt>
      <trkpt lat="48.64819" lon="7.28468">
        <ele>681.054932</ele>
        <time>2012-07-29T15:51:55Z</time>
      </trkpt>
      <trkpt lat="48.64837" lon="7.28501">
        <ele>679.726807</ele>
        <time>2012-07-29T15:51:58Z</time>
      </trkpt>
      <trkpt lat="48.64911" lon="7.28565">
        <ele>678.601807</ele>
        <time>2012-07-29T15:52:07Z</time>
      </trkpt>
      <trkpt lat="48.64968" lon="7.28566">
        <ele>680.023682</ele>
        <time>2012-07-29T15:52:15Z</time>
      </trkpt>
      <trkpt lat="48.65041" lon="7.28523">
        <ele>682.523682</ele>
        <time>2012-07-29T15:52:26Z</time>
      </trkpt>
      <trkpt lat="48.65145" lon="7.28433">
        <ele>683.867432</ele>
        <time>2012-07-29T15:52:38Z</time>
      </trkpt>
      <trkpt lat="48.65235" lon="7.28321">
        <ele>682.414307</ele>
        <time>2012-07-29T15:52:50Z</time>
      </trkpt>
      <trkpt lat="48.6529" lon="7.28277">
        <ele>681.398682</ele>
        <time>2012-07-29T15:52:56Z</time>
      </trkpt>
      <trkpt lat="48.65343" lon="7.28276">
        <ele>679.758057</ele>
        <time>2012-07-29T15:53:03Z</time>
      </trkpt>
      <trkpt lat="48.65417" lon="7.28298">
        <ele>677.070557</ele>
        <time>2012-07-29T15:53:14Z</time>
      </trkpt>
      <trkpt lat="48.65513" lon="7.28289">
        <ele>669.508057</ele>
        <time>2012-07-29T15:53:33Z</time>
      </trkpt>
      <trkpt lat="48.65536" lon="7.28305">
        <ele>668.883057</ele>
        <time>2012-07-29T15:53:37Z</time>
      </trkpt>
      <trkpt lat="48.65585" lon="7.2828">
        <ele>669.258057</ele>
        <time>2012-07-29T15:53:49Z</time>
      </trkpt>
      <trkpt lat="48.65675" lon="7.28192">
        <ele>664.133057</ele>
        <time>2012-07-29T15:54:00Z</time>
      </trkpt>
      <trkpt lat="48.65725" lon="7.28164">
        <ele>658.867432</ele>
        <time>2012-07-29T15:54:07Z</time>
      </trkpt>
      <trkpt lat="48.65798" lon="7.2814">
        <ele>662.273682</ele>
        <time>2012-07-29T15:54:19Z</time>
      </trkpt>
      <trkpt lat="48.65874" lon="7.28141">
        <ele>660.367432</ele>
        <time>2012-07-29T15:54:31Z</time>
      </trkpt>
      <trkpt lat="48.65949" lon="7.2816">
        <ele>660.836182</ele>
        <time>2012-07-29T15:54:45Z</time>
      </trkpt>
      <trkpt lat="48.66006" lon="7.28155">
        <ele>662.711182</ele>
        <time>2012-07-29T15:55:40Z</time>
      </trkpt>
      <trkpt lat="48.6606" lon="7.28158">
        <ele>662.508057</ele>
        <time>2012-07-29T15:55:47Z</time>
      </trkpt>
      <trkpt lat="48.66138" lon="7.28128">
        <ele>662.773682</ele>
        <time>2012-07-29T15:55:49Z</time>
      </trkpt>
      <trkpt lat="48.66171" lon="7.28131">
        <ele>663.601807</ele>
        <time>2012-07-29T15:55:53Z</time>
      </trkpt>
      <trkpt lat="48.66193" lon="7.28124">
        <ele>662.992432</ele>
        <time>2012-07-29T15:55:55Z</time>
      </trkpt>
      <trkpt lat="48.66268" lon="7.28123">
        <ele>656.054932</ele>
        <time>2012-07-29T15:56:04Z</time>
      </trkpt>
      <trkpt lat="48.66296" lon="7.28109">
        <ele>656.008057</ele>
        <time>2012-07-29T15:56:08Z</time>
      </trkpt>
      <trkpt lat="48.66322" lon="7.28116">
        <ele>654.258057</ele>
        <time>2012-07-29T15:56:12Z</time>
      </trkpt>
      <trkpt lat="48.66361" lon="7.28161">
        <ele>650.320557</ele>
        <time>2012-07-29T15:56:21Z</time>
      </trkpt>
      <trkpt lat="48.66389" lon="7.28221">
        <ele>642.320557</ele>
        <time>2012-07-29T15:56:32Z</time>
      </trkpt>
      <trkpt lat="48.66412" lon="7.28251">
        <ele>639.648682</ele>
        <time>2012-07-29T15:56:36Z</time>
      </trkpt>
      <trkpt lat="48.66455" lon="7.2829">
        <ele>636.914307</ele>
        <time>2012-07-29T15:56:45Z</time>
      </trkpt>
      <trkpt lat="48.66482" lon="7.28305">
        <ele>638.039307</ele>
        <time>2012-07-29T15:56:50Z</time>
      </trkpt>
      <trkpt lat="48.66527" lon="7.28357">
        <ele>624.289307</ele>
        <time>2012-07-29T15:56:59Z</time>
      </trkpt>
      <trkpt lat="48.66596" lon="7.28398">
        <ele>613.867432</ele>
        <time>2012-07-29T15:57:10Z</time>
      </trkpt>
      <trkpt lat="48.66645" lon="7.28419">
        <ele>610.461182</ele>
        <time>2012-07-29T15:57:18Z</time>
      </trkpt>
      <trkpt lat="48.66673" lon="7.28441">
        <ele>608.961182</ele>
        <time>2012-07-29T15:57:21Z</time>
      </trkpt>
      <trkpt lat="48.66716" lon="7.28493">
        <ele>607.633057</ele>
        <time>2012-07-29T15:57:27Z</time>
      </trkpt>
      <trkpt lat="48.66748" lon="7.28553">
        <ele>598.914307</ele>
        <time>2012-07-29T15:57:34Z</time>
      </trkpt>
      <trkpt lat="48.66772" lon="7.28624">
        <ele>586.570557</ele>
        <time>2012-07-29T15:57:41Z</time>
      </trkpt>
      <trkpt lat="48.66788" lon="7.28653">
        <ele>580.664307</ele>
        <time>2012-07-29T15:57:47Z</time>
      </trkpt>
      <trkpt lat="48.66798" lon="7.28687">
        <ele>581.976807</ele>
        <time>2012-07-29T15:57:53Z</time>
      </trkpt>
      <trkpt lat="48.66798" lon="7.28721">
        <ele>578.648682</ele>
        <time>2012-07-29T15:57:56Z</time>
      </trkpt>
      <trkpt lat="48.66809" lon="7.28754">
        <ele>577.461182</ele>
        <time>2012-07-29T15:58:00Z</time>
      </trkpt>
      <trkpt lat="48.66849" lon="7.28843">
        <ele>570.554932</ele>
        <time>2012-07-29T16:01:53Z</time>
      </trkpt>
      <trkpt lat="48.66867" lon="7.29019">
        <ele>565.789307</ele>
        <time>2012-07-29T16:07:30Z</time>
      </trkpt>
      <trkpt lat="48.66898" lon="7.29152">
        <ele>558.258057</ele>
        <time>2012-07-29T16:07:54Z</time>
      </trkpt>
      <trkpt lat="48.66941" lon="7.29289">
        <ele>549.429932</ele>
        <time>2012-07-29T16:08:11Z</time>
      </trkpt>
      <trkpt lat="48.67001" lon="7.29414">
        <ele>534.523682</ele>
        <time>2012-07-29T16:08:27Z</time>
      </trkpt>
      <trkpt lat="48.6701" lon="7.29452">
        <ele>531.383057</ele>
        <time>2012-07-29T16:08:33Z</time>
      </trkpt>
      <trkpt lat="48.67027" lon="7.29484">
        <ele>528.133057</ele>
        <time>2012-07-29T16:08:38Z</time>
      </trkpt>
      <trkpt lat="48.67062" lon="7.29539">
        <ele>533.898682</ele>
        <time>2012-07-29T16:08:51Z</time>
      </trkpt>
      <trkpt lat="48.67083" lon="7.29555">
        <ele>544.523682</ele>
        <time>2012-07-29T16:08:59Z</time>
      </trkpt>
      <trkpt lat="48.67122" lon="7.29602">
        <ele>562.383057</ele>
        <time>2012-07-29T16:09:08Z</time>
      </trkpt>
      <trkpt lat="48.67167" lon="7.29688">
        <ele>573.070557</ele>
        <time>2012-07-29T16:09:20Z</time>
      </trkpt>
      <trkpt lat="48.67171" lon="7.29721">
        <ele>579.101807</ele>
        <time>2012-07-29T16:09:34Z</time>
      </trkpt>
      <trkpt lat="48.67154" lon="7.29789">
        <ele>589.304932</ele>
        <time>2012-07-29T16:09:49Z</time>
      </trkpt>
      <trkpt lat="48.67186" lon="7.29882">
        <ele>597.429932</ele>
        <time>2012-07-29T16:10:20Z</time>
      </trkpt>
      <trkpt lat="48.67226" lon="7.30056">
        <ele>573.414307</ele>
        <time>2012-07-29T16:10:50Z</time>
      </trkpt>
      <trkpt lat="48.67301" lon="7.30132">
        <ele>551.336182</ele>
        <time>2012-07-29T16:11:53Z</time>
      </trkpt>
      <trkpt lat="48.67375" lon="7.3022">
        <ele>544.617432</ele>
        <time>2012-07-29T16:12:59Z</time>
      </trkpt>
      <trkpt lat="48.6743" lon="7.30292">
        <ele>545.101807</ele>
        <time>2012-07-29T16:13:37Z</time>
      </trkpt>
      <trkpt lat="48.67443" lon="7.30322">
        <ele>545.883057</ele>
        <time>2012-07-29T16:13:49Z</time>
      </trkpt>
      <trkpt lat="48.67472" lon="7.30418">
        <ele>558.570557</ele>
        <time>2012-07-29T16:14:21Z</time>
      </trkpt>
      <trkpt lat="48.67471" lon="7.30487">
        <ele>565.148682</ele>
        <time>2012-07-29T16:14:40Z</time>
      </trkpt>
      <trkpt lat="48.67463" lon="7.30518">
        <ele>565.367432</ele>
        <time>2012-07-29T16:14:46Z</time>
      </trkpt>
      <trkpt lat="48.67469" lon="7.30554">
        <ele>571.039307</ele>
        <time>2012-07-29T16:14:53Z</time>
      </trkpt>
      <trkpt lat="48.6756" lon="7.3092">
        <ele>572.898682</ele>
        <time>2012-07-29T16:15:41Z</time>
      </trkpt>
      <trkpt lat="48.67584" lon="7.30982">
        <ele>572.429932</ele>
        <time>2012-07-29T16:15:53Z</time>
      </trkpt>
      <trkpt lat="48.67616" lon="7.31042">
        <ele>570.117432</ele>
        <time>2012-07-29T16:16:05Z</time>
      </trkpt>
      <trkpt lat="48.67688" lon="7.31134">
        <ele>567.586182</ele>
        <time>2012-07-29T16:18:27Z</time>
      </trkpt>
      <trkpt lat="48.67753" lon="7.3118">
        <ele>557.179932</ele>
        <time>2012-07-29T16:18:49Z</time>
      </trkpt>
      <trkpt lat="48.67797" lon="7.312">
        <ele>550.851807</ele>
        <time>2012-07-29T16:19:01Z</time>
      </trkpt>
      <trkpt lat="48.67822" lon="7.31196">
        <ele>545.664307</ele>
        <time>2012-07-29T16:19:08Z</time>
      </trkpt>
      <trkpt lat="48.67868" lon="7.31203">
        <ele>537.758057</ele>
        <time>2012-07-29T16:19:21Z</time>
      </trkpt>
      <trkpt lat="48.67891" lon="7.31191">
        <ele>536.289307</ele>
        <time>2012-07-29T16:19:28Z</time>
      </trkpt>
      <trkpt lat="48.67966" lon="7.31174">
        <ele>538.976807</ele>
        <time>2012-07-29T16:19:44Z</time>
      </trkpt>
      <trkpt lat="48.67993" lon="7.31185">
        <ele>539.367432</ele>
        <time>2012-07-29T16:19:49Z</time>
      </trkpt>
      <trkpt lat="48.68069" lon="7.31183">
        <ele>530.883057</ele>
        <time>2012-07-29T16:20:03Z</time>
      </trkpt>
      <trkpt lat="48.68117" lon="7.31194">
        <ele>523.976807</ele>
        <time>2012-07-29T16:20:49Z</time>
      </trkpt>
      <trkpt lat="48.6814" lon="7.31191">
        <ele>520.445557</ele>
        <time>2012-07-29T16:21:06Z</time>
      </trkpt>
      <trkpt lat="48.68204" lon="7.31307">
        <ele>514.554932</ele>
        <time>2012-07-29T16:21:31Z</time>
      </trkpt>
      <trkpt lat="48.68298" lon="7.31428">
        <ele>528.945557</ele>
        <time>2012-07-29T16:22:00Z</time>
      </trkpt>
      <trkpt lat="48.68342" lon="7.31474">
        <ele>534.054932</ele>
        <time>2012-07-29T16:22:11Z</time>
      </trkpt>
      <trkpt lat="48.68387" lon="7.31507">
        <ele>536.992432</ele>
        <time>2012-07-29T16:22:20Z</time>
      </trkpt>
      <trkpt lat="48.68435" lon="7.31521">
        <ele>551.789307</ele>
        <time>2012-07-29T16:22:31Z</time>
      </trkpt>
      <trkpt lat="48.68549" lon="7.31588">
        <ele>574.929932</ele>
        <time>2012-07-29T16:23:40Z</time>
      </trkpt>
      <trkpt lat="48.686" lon="7.31657">
        <ele>573.273682</ele>
        <time>2012-07-29T16:23:52Z</time>
      </trkpt>
      <trkpt lat="48.6869" lon="7.31831">
        <ele>552.383057</ele>
        <time>2012-07-29T16:24:11Z</time>
      </trkpt>
      <trkpt lat="48.68742" lon="7.31952">
        <ele>540.054932</ele>
        <time>2012-07-29T16:24:23Z</time>
      </trkpt>
      <trkpt lat="48.68782" lon="7.32013">
        <ele>536.101807</ele>
        <time>2012-07-29T16:24:30Z</time>
      </trkpt>
      <trkpt lat="48.68798" lon="7.3205">
        <ele>533.367432</ele>
        <time>2012-07-29T16:24:32Z</time>
      </trkpt>
      <trkpt lat="48.68864" lon="7.32162">
        <ele>521.383057</ele>
        <time>2012-07-29T16:24:44Z</time>
      </trkpt>
      <trkpt lat="48.68904" lon="7.32208">
        <ele>512.570557</ele>
        <time>2012-07-29T16:24:50Z</time>
      </trkpt>
      <trkpt lat="48.69027" lon="7.32315">
        <ele>486.175903</ele>
        <time>2012-07-29T16:25:08Z</time>
      </trkpt>
      <trkpt lat="48.69088" lon="7.32376">
        <ele>482.668091</ele>
        <time>2012-07-29T16:25:18Z</time>
      </trkpt>
      <trkpt lat="48.69162" lon="7.3249">
        <ele>474.714966</ele>
        <time>2012-07-29T16:25:30Z</time>
      </trkpt>
      <trkpt lat="48.69223" lon="7.32565">
        <ele>463.574341</ele>
        <time>2012-07-29T16:25:39Z</time>
      </trkpt>
      <trkpt lat="48.69262" lon="7.32598">
        <ele>449.441528</ele>
        <time>2012-07-29T16:25:46Z</time>
      </trkpt>
      <trkpt lat="48.69348" lon="7.32634">
        <ele>426.683716</ele>
        <time>2012-07-29T16:25:57Z</time>
      </trkpt>
      <trkpt lat="48.69406" lon="7.32646">
        <ele>415.785278</ele>
        <time>2012-07-29T16:26:04Z</time>
      </trkpt>
      <trkpt lat="48.69458" lon="7.32644">
        <ele>403.121216</ele>
        <time>2012-07-29T16:26:13Z</time>
      </trkpt>
      <trkpt lat="48.69532" lon="7.32674">
        <ele>392.964966</ele>
        <time>2012-07-29T16:26:26Z</time>
      </trkpt>
      <trkpt lat="48.69562" lon="7.32672">
        <ele>384.019653</ele>
        <time>2012-07-29T16:26:30Z</time>
      </trkpt>
      <trkpt lat="48.69582" lon="7.32655">
        <ele>372.636841</ele>
        <time>2012-07-29T16:26:33Z</time>
      </trkpt>
      <trkpt lat="48.69603" lon="7.32648">
        <ele>366.105591</ele>
        <time>2012-07-29T16:27:16Z</time>
      </trkpt>
      <trkpt lat="48.69654" lon="7.32657">
        <ele>364.207153</ele>
        <time>2012-07-29T16:29:38Z</time>
      </trkpt>
      <trkpt lat="48.69666" lon="7.32687">
        <ele>363.480591</ele>
        <time>2012-07-29T16:29:46Z</time>
      </trkpt>
      <trkpt lat="48.6968" lon="7.32757">
        <ele>364.613403</ele>
        <time>2012-07-29T16:29:56Z</time>
      </trkpt>
      <trkpt lat="48.69722" lon="7.32848">
        <ele>368.214966</ele>
        <time>2012-07-29T16:30:13Z</time>
      </trkpt>
      <trkpt lat="48.69744" lon="7.32918">
        <ele>375.183716</ele>
        <time>2012-07-29T16:30:29Z</time>
      </trkpt>
      <trkpt lat="48.69783" lon="7.33009">
        <ele>382.285278</ele>
        <time>2012-07-29T16:30:44Z</time>
      </trkpt>
      <trkpt lat="48.69799" lon="7.33034">
        <ele>383.777466</ele>
        <time>2012-07-29T16:30:48Z</time>
      </trkpt>
      <trkpt lat="48.69844" lon="7.3307">
        <ele>383.527466</ele>
        <time>2012-07-29T16:30:55Z</time>
      </trkpt>
      <trkpt lat="48.69918" lon="7.33101">
        <ele>382.379028</ele>
        <time>2012-07-29T16:31:07Z</time>
      </trkpt>
      <trkpt lat="48.69946" lon="7.33103">
        <ele>385.183716</ele>
        <time>2012-07-29T16:31:13Z</time>
      </trkpt>
      <trkpt lat="48.69971" lon="7.33117">
        <ele>386.863403</ele>
        <time>2012-07-29T16:31:17Z</time>
      </trkpt>
      <trkpt lat="48.69993" lon="7.33118">
        <ele>391.269653</ele>
        <time>2012-07-29T16:31:23Z</time>
      </trkpt>
      <trkpt lat="48.70036" lon="7.33095">
        <ele>401.808716</ele>
        <time>2012-07-29T16:31:35Z</time>
      </trkpt>
      <trkpt lat="48.70192" lon="7.33119">
        <ele>438.160278</ele>
        <time>2012-07-29T16:32:03Z</time>
      </trkpt>
      <trkpt lat="48.70215" lon="7.33125">
        <ele>443.613403</ele>
        <time>2012-07-29T16:32:08Z</time>
      </trkpt>
      <trkpt lat="48.70294" lon="7.33186">
        <ele>444.918091</ele>
        <time>2012-07-29T16:32:12Z</time>
      </trkpt>
      <trkpt lat="48.7034" lon="7.33189">
        <ele>454.683716</ele>
        <time>2012-07-29T16:32:24Z</time>
      </trkpt>
      <trkpt lat="48.70387" lon="7.33201">
        <ele>456.386841</ele>
        <time>2012-07-29T16:32:37Z</time>
      </trkpt>
      <trkpt lat="48.70455" lon="7.3325">
        <ele>452.980591</ele>
        <time>2012-07-29T16:32:55Z</time>
      </trkpt>
      <trkpt lat="48.70477" lon="7.33255">
        <ele>451.832153</ele>
        <time>2012-07-29T16:32:59Z</time>
      </trkpt>
      <trkpt lat="48.7052" lon="7.33314">
        <ele>443.988403</ele>
        <time>2012-07-29T16:33:06Z</time>
      </trkpt>
      <trkpt lat="48.70588" lon="7.33369">
        <ele>428.722778</ele>
        <time>2012-07-29T16:33:21Z</time>
      </trkpt>
      <trkpt lat="48.70647" lon="7.33427">
        <ele>405.394653</ele>
        <time>2012-07-29T16:33:35Z</time>
      </trkpt>
      <trkpt lat="48.70676" lon="7.33496">
        <ele>402.074341</ele>
        <time>2012-07-29T16:33:42Z</time>
      </trkpt>
      <trkpt lat="48.70741" lon="7.3356">
        <ele>394.418091</ele>
        <time>2012-07-29T16:33:52Z</time>
      </trkpt>
      <trkpt lat="48.70766" lon="7.33578">
        <ele>391.793091</ele>
        <time>2012-07-29T16:33:55Z</time>
      </trkpt>
      <trkpt lat="48.70839" lon="7.33599">
        <ele>389.660278</ele>
        <time>2012-07-29T16:34:08Z</time>
      </trkpt>
      <trkpt lat="48.7089" lon="7.33604">
        <ele>389.254028</ele>
        <time>2012-07-29T16:34:14Z</time>
      </trkpt>
      <trkpt lat="48.70911" lon="7.33618">
        <ele>386.738403</ele>
        <time>2012-07-29T16:34:19Z</time>
      </trkpt>
      <trkpt lat="48.70929" lon="7.33646">
        <ele>376.785278</ele>
        <time>2012-07-29T16:34:26Z</time>
      </trkpt>
      <trkpt lat="48.70991" lon="7.33692">
        <ele>366.160278</ele>
        <time>2012-07-29T16:36:01Z</time>
      </trkpt>
      <trkpt lat="48.71038" lon="7.33713">
        <ele>364.191528</ele>
        <time>2012-07-29T16:36:11Z</time>
      </trkpt>
      <trkpt lat="48.71087" lon="7.33712">
        <ele>357.394653</ele>
        <time>2012-07-29T16:36:22Z</time>
      </trkpt>
      <trkpt lat="48.71116" lon="7.33722">
        <ele>346.441528</ele>
        <time>2012-07-29T16:36:26Z</time>
      </trkpt>
      <trkpt lat="48.71162" lon="7.33726">
        <ele>328.386841</ele>
        <time>2012-07-29T16:36:35Z</time>
      </trkpt>
      <trkpt lat="48.71207" lon="7.33709">
        <ele>322.410278</ele>
        <time>2012-07-29T16:36:49Z</time>
      </trkpt>
      <trkpt lat="48.7123" lon="7.33691">
        <ele>319.613403</ele>
        <time>2012-07-29T16:36:58Z</time>
      </trkpt>
      <trkpt lat="48.71278" lon="7.33678">
        <ele>315.777466</ele>
        <time>2012-07-29T16:37:14Z</time>
      </trkpt>
      <trkpt lat="48.71399" lon="7.33723">
        <ele>313.699341</ele>
        <time>2012-07-29T16:37:37Z</time>
      </trkpt>
      <trkpt lat="48.71532" lon="7.33756">
        <ele>304.808716</ele>
        <time>2012-07-29T16:37:54Z</time>
      </trkpt>
      <trkpt lat="48.71577" lon="7.33777">
        <ele>303.168091</ele>
        <time>2012-07-29T16:38:01Z</time>
      </trkpt>
      <trkpt lat="48.71601" lon="7.33783">
        <ele>300.714966</ele>
        <time>2012-07-29T16:38:04Z</time>
      </trkpt>
      <trkpt lat="48.7165" lon="7.33778">
        <ele>297.043091</ele>
        <time>2012-07-29T16:38:10Z</time>
      </trkpt>
      <trkpt lat="48.71723" lon="7.3382">
        <ele>297.019653</ele>
        <time>2012-07-29T16:38:24Z</time>
      </trkpt>
      <trkpt lat="48.71769" lon="7.33905">
        <ele>305.925903</ele>
        <time>2012-07-29T16:38:36Z</time>
      </trkpt>
      <trkpt lat="48.71835" lon="7.33956">
        <ele>300.589966</ele>
        <time>2012-07-29T16:38:47Z</time>
      </trkpt>
      <trkpt lat="48.71943" lon="7.34061">
        <ele>303.980591</ele>
        <time>2012-07-29T16:39:08Z</time>
      </trkpt>
      <trkpt lat="48.72011" lon="7.34111">
        <ele>297.058716</ele>
        <time>2012-07-29T16:39:17Z</time>
      </trkpt>
      <trkpt lat="48.72173" lon="7.34249">
        <ele>283.613403</ele>
        <time>2012-07-29T16:39:38Z</time>
      </trkpt>
      <trkpt lat="48.72223" lon="7.34283">
        <ele>279.050903</ele>
        <time>2012-07-29T16:39:44Z</time>
      </trkpt>
      <trkpt lat="48.72341" lon="7.34348">
        <ele>276.629028</ele>
        <time>2012-07-29T16:39:59Z</time>
      </trkpt>
      <trkpt lat="48.72412" lon="7.34403">
        <ele>279.519653</ele>
        <time>2012-07-29T16:40:12Z</time>
      </trkpt>
      <trkpt lat="48.72508" lon="7.34489">
        <ele>275.441528</ele>
        <time>2012-07-29T16:40:24Z</time>
      </trkpt>
      <trkpt lat="48.72719" lon="7.34644">
        <ele>263.613403</ele>
        <time>2012-07-29T16:40:51Z</time>
      </trkpt>
      <trkpt lat="48.72756" lon="7.34687">
        <ele>263.043091</ele>
        <time>2012-07-29T16:40:57Z</time>
      </trkpt>
      <trkpt lat="48.72869" lon="7.34855">
        <ele>266.675903</ele>
        <time>2012-07-29T16:41:15Z</time>
      </trkpt>
      <trkpt lat="48.72918" lon="7.34909">
        <ele>265.308716</ele>
        <time>2012-07-29T16:41:21Z</time>
      </trkpt>
      <trkpt lat="48.731" lon="7.35052">
        <ele>256.105591</ele>
        <time>2012-07-29T16:41:42Z</time>
      </trkpt>
      <trkpt lat="48.73167" lon="7.35102">
        <ele>257.824341</ele>
        <time>2012-07-29T16:41:51Z</time>
      </trkpt>
      <trkpt lat="48.73135" lon="7.35212">
        <ele>258.105591</ele>
        <time>2012-07-29T16:42:02Z</time>
      </trkpt>
      <trkpt lat="48.73105" lon="7.35283">
        <ele>258.988403</ele>
        <time>2012-07-29T16:42:08Z</time>
      </trkpt>
      <trkpt lat="48.73087" lon="7.35357">
        <ele>260.668091</ele>
        <time>2012-07-29T16:42:14Z</time>
      </trkpt>
      <trkpt lat="48.73085" lon="7.35399">
        <ele>260.121216</ele>
        <time>2012-07-29T16:42:17Z</time>
      </trkpt>
      <trkpt lat="48.731" lon="7.35468">
        <ele>257.558716</ele>
        <time>2012-07-29T16:42:21Z</time>
      </trkpt>
      <trkpt lat="48.73119" lon="7.35501">
        <ele>258.066528</ele>
        <time>2012-07-29T16:42:24Z</time>
      </trkpt>
      <trkpt lat="48.73167" lon="7.35515">
        <ele>253.509827</ele>
        <time>2012-07-29T16:42:29Z</time>
      </trkpt>
      <trkpt lat="48.73188" lon="7.35546">
        <ele>252.259827</ele>
        <time>2012-07-29T16:42:33Z</time>
      </trkpt>
      <trkpt lat="48.73241" lon="7.35727">
        <ele>251.158264</ele>
        <time>2012-07-29T16:42:48Z</time>
      </trkpt>
      <trkpt lat="48.73263" lon="7.35734">
        <ele>249.41217</ele>
        <time>2012-07-29T16:42:53Z</time>
      </trkpt>
      <trkpt lat="48.73335" lon="7.35722">
        <ele>252.752014</ele>
        <time>2012-07-29T16:43:11Z</time>
      </trkpt>
      <trkpt lat="48.7338" lon="7.3574">
        <ele>259.277466</ele>
        <time>2012-07-29T16:43:27Z</time>
      </trkpt>
      <trkpt lat="48.73378" lon="7.35772">
        <ele>268.957153</ele>
        <time>2012-07-29T16:43:47Z</time>
      </trkpt>
    </trkseg>
  </trk>
</gpx>